<?xml version='1.0' encoding='UTF-8' standalone='yes' ?>
<gpx xmlns="http://www.topografix.com/GPX/1/1" xmlns:geotracker="http://ilyabogdanovich.com/gpx/extensions/geotracker" xmlns:xsi="http://www.w3.org/2001/XMLSchema-instance" xsi:schemaLocation="http://www.topografix.com/GPX/1/1 http://www.topografix.com/GPX/1/1/gpx.xsd" version="1.1" creator="Записано в Геотрекере для Android от Ильи Богдановича">
  <metadata>
    <name>22 апр. 2026 г. 10:43:14</name>
    <author>
      <name>Записано в Геотрекере для Android от Ильи Богдановича</name>
      <link href="https://play.google.com/store/apps/details?id=com.ilyabogdanovich.geotracker" />
    </author>
    <link href="https://play.google.com/store/apps/details?id=com.ilyabogdanovich.geotracker" />
    <time>2026-04-22T07:43:14Z</time>
  </metadata>
  <trk>
    <name>22 апр. 2026 г. 10:43:14</name>
    <src>Записано в Геотрекере для Android от Ильи Богдановича</src>
    <link href="https://play.google.com/store/apps/details?id=com.ilyabogdanovich.geotracker" />
    <extensions>
      <geotracker:meta>
        <geotracker:length>14801.57</geotracker:length>
        <geotracker:duration>19232817</geotracker:duration>
        <geotracker:creationtime>2026-04-22T07:43:14Z</geotracker:creationtime>
        <geotracker:activity>0</geotracker:activity>
      </geotracker:meta>
    </extensions>
    <trkseg>
      <trkpt lat="59.09262126" lon="29.98865107">
        <ele>89.71</ele>
        <time>2026-04-22T07:43:15Z</time>
      </trkpt>
      <trkpt lat="59.09267233" lon="29.9888042">
        <ele>86.03</ele>
        <time>2026-04-22T07:43:19Z</time>
      </trkpt>
      <trkpt lat="59.09270477" lon="29.9889771">
        <ele>90.24</ele>
        <time>2026-04-22T07:45:10Z</time>
      </trkpt>
      <trkpt lat="59.09273688" lon="29.98915954">
        <ele>89.97</ele>
        <time>2026-04-22T07:45:26Z</time>
      </trkpt>
      <trkpt lat="59.0927628" lon="29.98933674">
        <ele>90.72</ele>
        <time>2026-04-22T07:45:34Z</time>
      </trkpt>
      <trkpt lat="59.09280499" lon="29.98951216">
        <ele>92.46</ele>
        <time>2026-04-22T07:45:42Z</time>
      </trkpt>
      <trkpt lat="59.09283493" lon="29.98970021">
        <ele>90.84</ele>
        <time>2026-04-22T07:45:48Z</time>
      </trkpt>
      <trkpt lat="59.0928709" lon="29.9898635">
        <ele>91.15</ele>
        <time>2026-04-22T07:45:54Z</time>
      </trkpt>
      <trkpt lat="59.09289269" lon="29.9900413">
        <ele>92.09</ele>
        <time>2026-04-22T07:46:00Z</time>
      </trkpt>
      <trkpt lat="59.09292829" lon="29.99021382">
        <ele>92.6</ele>
        <time>2026-04-22T07:46:07Z</time>
      </trkpt>
      <trkpt lat="59.09295978" lon="29.99039976">
        <ele>92.14</ele>
        <time>2026-04-22T07:46:14Z</time>
      </trkpt>
      <trkpt lat="59.09299257" lon="29.99058379">
        <ele>91.59</ele>
        <time>2026-04-22T07:46:21Z</time>
      </trkpt>
      <trkpt lat="59.09302448" lon="29.99077004">
        <ele>90.71</ele>
        <time>2026-04-22T07:46:28Z</time>
      </trkpt>
      <trkpt lat="59.09305328" lon="29.99094345">
        <ele>88.96</ele>
        <time>2026-04-22T07:46:35Z</time>
      </trkpt>
      <trkpt lat="59.09308279" lon="29.99113285">
        <ele>91.44</ele>
        <time>2026-04-22T07:46:42Z</time>
      </trkpt>
      <trkpt lat="59.09311672" lon="29.99129949">
        <ele>92.25</ele>
        <time>2026-04-22T07:46:48Z</time>
      </trkpt>
      <trkpt lat="59.09313651" lon="29.99149499">
        <ele>92.38</ele>
        <time>2026-04-22T07:46:55Z</time>
      </trkpt>
      <trkpt lat="59.09318524" lon="29.99165913">
        <ele>93.11</ele>
        <time>2026-04-22T07:47:02Z</time>
      </trkpt>
      <trkpt lat="59.09322413" lon="29.99184677">
        <ele>90.03</ele>
        <time>2026-04-22T07:47:10Z</time>
      </trkpt>
      <trkpt lat="59.09325022" lon="29.99202252">
        <ele>91.41</ele>
        <time>2026-04-22T07:47:16Z</time>
      </trkpt>
      <trkpt lat="59.09328069" lon="29.99219391">
        <ele>91.89</ele>
        <time>2026-04-22T07:47:22Z</time>
      </trkpt>
      <trkpt lat="59.09331473" lon="29.99238544">
        <ele>90.88</ele>
        <time>2026-04-22T07:47:29Z</time>
      </trkpt>
      <trkpt lat="59.09335096" lon="29.99256594">
        <ele>89.87</ele>
        <time>2026-04-22T07:47:35Z</time>
      </trkpt>
      <trkpt lat="59.09337388" lon="29.99274572">
        <ele>90.78</ele>
        <time>2026-04-22T07:47:41Z</time>
      </trkpt>
      <trkpt lat="59.0933943" lon="29.99292095">
        <ele>90.36</ele>
        <time>2026-04-22T07:47:47Z</time>
      </trkpt>
      <trkpt lat="59.09341625" lon="29.99309204">
        <ele>89.25</ele>
        <time>2026-04-22T07:47:53Z</time>
      </trkpt>
      <trkpt lat="59.09346492" lon="29.99325366">
        <ele>88.45</ele>
        <time>2026-04-22T07:47:59Z</time>
      </trkpt>
      <trkpt lat="59.09350177" lon="29.99342197">
        <ele>87.47</ele>
        <time>2026-04-22T07:48:05Z</time>
      </trkpt>
      <trkpt lat="59.09355018" lon="29.99358588">
        <ele>88.26</ele>
        <time>2026-04-22T07:48:11Z</time>
      </trkpt>
      <trkpt lat="59.09359717" lon="29.9937442">
        <ele>88.96</ele>
        <time>2026-04-22T07:48:17Z</time>
      </trkpt>
      <trkpt lat="59.09363658" lon="29.99392872">
        <ele>88.75</ele>
        <time>2026-04-22T07:48:24Z</time>
      </trkpt>
      <trkpt lat="59.09365615" lon="29.99410408">
        <ele>88.74</ele>
        <time>2026-04-22T07:48:30Z</time>
      </trkpt>
      <trkpt lat="59.09364376" lon="29.99428024">
        <ele>90.06</ele>
        <time>2026-04-22T07:48:36Z</time>
      </trkpt>
      <trkpt lat="59.09365491" lon="29.99446212">
        <ele>91.13</ele>
        <time>2026-04-22T07:48:43Z</time>
      </trkpt>
      <trkpt lat="59.09357176" lon="29.99456509">
        <ele>88.93</ele>
        <time>2026-04-22T07:48:50Z</time>
      </trkpt>
      <trkpt lat="59.09349363" lon="29.9946653">
        <ele>88.4</ele>
        <time>2026-04-22T07:49:33Z</time>
      </trkpt>
      <trkpt lat="59.09339639" lon="29.99459618">
        <ele>96.54</ele>
        <time>2026-04-22T07:49:42Z</time>
      </trkpt>
      <trkpt lat="59.09329442" lon="29.99458084">
        <ele>92.71</ele>
        <time>2026-04-22T07:49:49Z</time>
      </trkpt>
      <trkpt lat="59.09319469" lon="29.9945943">
        <ele>91.36</ele>
        <time>2026-04-22T07:49:56Z</time>
      </trkpt>
      <trkpt lat="59.09308867" lon="29.99454787">
        <ele>88.1</ele>
        <time>2026-04-22T07:50:03Z</time>
      </trkpt>
      <trkpt lat="59.09299756" lon="29.99451452">
        <ele>88.59</ele>
        <time>2026-04-22T07:50:09Z</time>
      </trkpt>
      <trkpt lat="59.09289899" lon="29.99446602">
        <ele>90.48</ele>
        <time>2026-04-22T07:50:16Z</time>
      </trkpt>
      <trkpt lat="59.09280669" lon="29.99442694">
        <ele>90.54</ele>
        <time>2026-04-22T07:50:22Z</time>
      </trkpt>
      <trkpt lat="59.09271211" lon="29.99437598">
        <ele>92.2</ele>
        <time>2026-04-22T07:50:29Z</time>
      </trkpt>
      <trkpt lat="59.09260926" lon="29.99435909">
        <ele>94.06</ele>
        <time>2026-04-22T07:50:37Z</time>
      </trkpt>
      <trkpt lat="59.09251577" lon="29.99433793">
        <ele>91.51</ele>
        <time>2026-04-22T07:50:43Z</time>
      </trkpt>
      <trkpt lat="59.09242652" lon="29.99431651">
        <ele>91.02</ele>
        <time>2026-04-22T07:50:50Z</time>
      </trkpt>
      <trkpt lat="59.09233527" lon="29.99427079">
        <ele>90.16</ele>
        <time>2026-04-22T07:50:57Z</time>
      </trkpt>
      <trkpt lat="59.09224256" lon="29.99419669">
        <ele>89.49</ele>
        <time>2026-04-22T07:51:04Z</time>
      </trkpt>
      <trkpt lat="59.09215093" lon="29.99417091">
        <ele>90.18</ele>
        <time>2026-04-22T07:51:11Z</time>
      </trkpt>
      <trkpt lat="59.09204905" lon="29.9941511">
        <ele>90.48</ele>
        <time>2026-04-22T07:51:18Z</time>
      </trkpt>
      <trkpt lat="59.09194989" lon="29.99408928">
        <ele>90.11</ele>
        <time>2026-04-22T07:51:25Z</time>
      </trkpt>
      <trkpt lat="59.09185273" lon="29.99404849">
        <ele>89.51</ele>
        <time>2026-04-22T07:51:32Z</time>
      </trkpt>
      <trkpt lat="59.0917542" lon="29.99403443">
        <ele>88.77</ele>
        <time>2026-04-22T07:51:39Z</time>
      </trkpt>
      <trkpt lat="59.09165896" lon="29.9939975">
        <ele>88.75</ele>
        <time>2026-04-22T07:51:46Z</time>
      </trkpt>
      <trkpt lat="59.09156514" lon="29.99394708">
        <ele>89.35</ele>
        <time>2026-04-22T07:51:53Z</time>
      </trkpt>
      <trkpt lat="59.09147573" lon="29.99391496">
        <ele>89.86</ele>
        <time>2026-04-22T07:52:00Z</time>
      </trkpt>
      <trkpt lat="59.0913932" lon="29.99399406">
        <ele>91.53</ele>
        <time>2026-04-22T07:52:44Z</time>
      </trkpt>
      <trkpt lat="59.09130433" lon="29.9939247">
        <ele>91.1</ele>
        <time>2026-04-22T07:52:52Z</time>
      </trkpt>
      <trkpt lat="59.09121306" lon="29.99385886">
        <ele>91.08</ele>
        <time>2026-04-22T07:53:00Z</time>
      </trkpt>
      <trkpt lat="59.09112114" lon="29.99379684">
        <ele>90.86</ele>
        <time>2026-04-22T07:53:07Z</time>
      </trkpt>
      <trkpt lat="59.09103164" lon="29.99373545">
        <ele>91.37</ele>
        <time>2026-04-22T07:53:14Z</time>
      </trkpt>
      <trkpt lat="59.09092992" lon="29.99370368">
        <ele>93.61</ele>
        <time>2026-04-22T07:53:22Z</time>
      </trkpt>
      <trkpt lat="59.09084024" lon="29.99367078">
        <ele>93.74</ele>
        <time>2026-04-22T07:53:28Z</time>
      </trkpt>
      <trkpt lat="59.09074862" lon="29.99363253">
        <ele>92.89</ele>
        <time>2026-04-22T07:53:34Z</time>
      </trkpt>
      <trkpt lat="59.09066029" lon="29.99357734">
        <ele>91.53</ele>
        <time>2026-04-22T07:53:40Z</time>
      </trkpt>
      <trkpt lat="59.0905724" lon="29.99352212">
        <ele>91.7</ele>
        <time>2026-04-22T07:53:46Z</time>
      </trkpt>
      <trkpt lat="59.09047748" lon="29.99345901">
        <ele>90.25</ele>
        <time>2026-04-22T07:53:53Z</time>
      </trkpt>
      <trkpt lat="59.09038581" lon="29.99341524">
        <ele>90.78</ele>
        <time>2026-04-22T07:54:00Z</time>
      </trkpt>
      <trkpt lat="59.0902881" lon="29.9933928">
        <ele>91.49</ele>
        <time>2026-04-22T07:54:07Z</time>
      </trkpt>
      <trkpt lat="59.09019222" lon="29.99336667">
        <ele>91.88</ele>
        <time>2026-04-22T07:54:14Z</time>
      </trkpt>
      <trkpt lat="59.09009934" lon="29.99336201">
        <ele>91.55</ele>
        <time>2026-04-22T07:54:21Z</time>
      </trkpt>
      <trkpt lat="59.09001164" lon="29.99331506">
        <ele>89.26</ele>
        <time>2026-04-22T07:54:28Z</time>
      </trkpt>
      <trkpt lat="59.08991593" lon="29.99324347">
        <ele>90.71</ele>
        <time>2026-04-22T07:54:36Z</time>
      </trkpt>
      <trkpt lat="59.08981577" lon="29.99319975">
        <ele>91.7</ele>
        <time>2026-04-22T07:54:43Z</time>
      </trkpt>
      <trkpt lat="59.08972075" lon="29.99314732">
        <ele>91.68</ele>
        <time>2026-04-22T07:54:50Z</time>
      </trkpt>
      <trkpt lat="59.08962071" lon="29.99312373">
        <ele>91.68</ele>
        <time>2026-04-22T07:54:57Z</time>
      </trkpt>
      <trkpt lat="59.08952441" lon="29.9931021">
        <ele>91.91</ele>
        <time>2026-04-22T07:55:04Z</time>
      </trkpt>
      <trkpt lat="59.08943027" lon="29.99312064">
        <ele>93.05</ele>
        <time>2026-04-22T07:55:11Z</time>
      </trkpt>
      <trkpt lat="59.08933551" lon="29.99308124">
        <ele>92.16</ele>
        <time>2026-04-22T07:55:17Z</time>
      </trkpt>
      <trkpt lat="59.08923446" lon="29.99304801">
        <ele>91.47</ele>
        <time>2026-04-22T07:55:24Z</time>
      </trkpt>
      <trkpt lat="59.08914658" lon="29.99300198">
        <ele>91.8</ele>
        <time>2026-04-22T07:55:30Z</time>
      </trkpt>
      <trkpt lat="59.0890481" lon="29.99295236">
        <ele>92.63</ele>
        <time>2026-04-22T07:55:37Z</time>
      </trkpt>
      <trkpt lat="59.08895118" lon="29.99292541">
        <ele>93.44</ele>
        <time>2026-04-22T07:55:44Z</time>
      </trkpt>
      <trkpt lat="59.08884893" lon="29.99289244">
        <ele>93.64</ele>
        <time>2026-04-22T07:55:51Z</time>
      </trkpt>
      <trkpt lat="59.08875016" lon="29.99287607">
        <ele>93.88</ele>
        <time>2026-04-22T07:55:58Z</time>
      </trkpt>
      <trkpt lat="59.08866635" lon="29.99296785">
        <ele>95.68</ele>
        <time>2026-04-22T07:56:07Z</time>
      </trkpt>
      <trkpt lat="59.08856729" lon="29.99301247">
        <ele>97.12</ele>
        <time>2026-04-22T07:56:15Z</time>
      </trkpt>
      <trkpt lat="59.0884726" lon="29.9930336">
        <ele>96.66</ele>
        <time>2026-04-22T07:56:22Z</time>
      </trkpt>
      <trkpt lat="59.08837935" lon="29.99305561">
        <ele>90.55</ele>
        <time>2026-04-22T07:56:50Z</time>
      </trkpt>
      <trkpt lat="59.08829909" lon="29.99296337">
        <ele>94.68</ele>
        <time>2026-04-22T07:57:01Z</time>
      </trkpt>
      <trkpt lat="59.08824254" lon="29.99280556">
        <ele>93.42</ele>
        <time>2026-04-22T07:57:08Z</time>
      </trkpt>
      <trkpt lat="59.08815727" lon="29.99271381">
        <ele>93.47</ele>
        <time>2026-04-22T07:57:17Z</time>
      </trkpt>
      <trkpt lat="59.08806522" lon="29.99270747">
        <ele>95.15</ele>
        <time>2026-04-22T07:57:25Z</time>
      </trkpt>
      <trkpt lat="59.0879819" lon="29.99278312">
        <ele>97.16</ele>
        <time>2026-04-22T07:57:35Z</time>
      </trkpt>
      <trkpt lat="59.08789939" lon="29.99285223">
        <ele>96.78</ele>
        <time>2026-04-22T07:57:50Z</time>
      </trkpt>
      <trkpt lat="59.08780836" lon="29.99279162">
        <ele>97.04</ele>
        <time>2026-04-22T07:57:59Z</time>
      </trkpt>
      <trkpt lat="59.08771869" lon="29.9927573">
        <ele>97.43</ele>
        <time>2026-04-22T07:58:06Z</time>
      </trkpt>
      <trkpt lat="59.08762258" lon="29.99272714">
        <ele>95.04</ele>
        <time>2026-04-22T07:58:13Z</time>
      </trkpt>
      <trkpt lat="59.08752036" lon="29.99270267">
        <ele>95.02</ele>
        <time>2026-04-22T07:58:20Z</time>
      </trkpt>
      <trkpt lat="59.08742707" lon="29.99265928">
        <ele>95.54</ele>
        <time>2026-04-22T07:58:27Z</time>
      </trkpt>
      <trkpt lat="59.08734307" lon="29.99255309">
        <ele>93.04</ele>
        <time>2026-04-22T07:58:34Z</time>
      </trkpt>
      <trkpt lat="59.08724975" lon="29.99248105">
        <ele>94.19</ele>
        <time>2026-04-22T07:58:41Z</time>
      </trkpt>
      <trkpt lat="59.08717794" lon="29.99236576">
        <ele>93.83</ele>
        <time>2026-04-22T07:58:48Z</time>
      </trkpt>
      <trkpt lat="59.08708898" lon="29.99229314">
        <ele>92.56</ele>
        <time>2026-04-22T07:58:56Z</time>
      </trkpt>
      <trkpt lat="59.08699519" lon="29.99227553">
        <ele>92.04</ele>
        <time>2026-04-22T07:59:03Z</time>
      </trkpt>
      <trkpt lat="59.08689643" lon="29.99223712">
        <ele>92.29</ele>
        <time>2026-04-22T07:59:10Z</time>
      </trkpt>
      <trkpt lat="59.08679918" lon="29.99223356">
        <ele>93.22</ele>
        <time>2026-04-22T07:59:17Z</time>
      </trkpt>
      <trkpt lat="59.08670886" lon="29.99218255">
        <ele>92.56</ele>
        <time>2026-04-22T07:59:23Z</time>
      </trkpt>
      <trkpt lat="59.08661027" lon="29.99213627">
        <ele>92.66</ele>
        <time>2026-04-22T07:59:30Z</time>
      </trkpt>
      <trkpt lat="59.08651728" lon="29.99211278">
        <ele>93.01</ele>
        <time>2026-04-22T07:59:37Z</time>
      </trkpt>
      <trkpt lat="59.08642337" lon="29.99207285">
        <ele>93.1</ele>
        <time>2026-04-22T07:59:44Z</time>
      </trkpt>
      <trkpt lat="59.0863288" lon="29.99204123">
        <ele>92.9</ele>
        <time>2026-04-22T07:59:51Z</time>
      </trkpt>
      <trkpt lat="59.08623589" lon="29.99202337">
        <ele>92.31</ele>
        <time>2026-04-22T07:59:58Z</time>
      </trkpt>
      <trkpt lat="59.0861409" lon="29.99199903">
        <ele>91.75</ele>
        <time>2026-04-22T08:00:05Z</time>
      </trkpt>
      <trkpt lat="59.08604977" lon="29.99196493">
        <ele>92.62</ele>
        <time>2026-04-22T08:00:12Z</time>
      </trkpt>
      <trkpt lat="59.0859587" lon="29.99191304">
        <ele>90.86</ele>
        <time>2026-04-22T08:00:19Z</time>
      </trkpt>
      <trkpt lat="59.08586531" lon="29.99186906">
        <ele>91.17</ele>
        <time>2026-04-22T08:00:26Z</time>
      </trkpt>
      <trkpt lat="59.08576605" lon="29.99182677">
        <ele>91.16</ele>
        <time>2026-04-22T08:00:33Z</time>
      </trkpt>
      <trkpt lat="59.08567408" lon="29.99177578">
        <ele>91.64</ele>
        <time>2026-04-22T08:00:40Z</time>
      </trkpt>
      <trkpt lat="59.08557795" lon="29.99174509">
        <ele>92.83</ele>
        <time>2026-04-22T08:00:47Z</time>
      </trkpt>
      <trkpt lat="59.08547749" lon="29.99173953">
        <ele>92.72</ele>
        <time>2026-04-22T08:00:54Z</time>
      </trkpt>
      <trkpt lat="59.08538035" lon="29.99173146">
        <ele>93.86</ele>
        <time>2026-04-22T08:01:01Z</time>
      </trkpt>
      <trkpt lat="59.0852888" lon="29.99180977">
        <ele>94.6</ele>
        <time>2026-04-22T08:01:08Z</time>
      </trkpt>
      <trkpt lat="59.08522807" lon="29.99195437">
        <ele>96.83</ele>
        <time>2026-04-22T08:01:17Z</time>
      </trkpt>
      <trkpt lat="59.08513597" lon="29.99198452">
        <ele>99.36</ele>
        <time>2026-04-22T08:02:01Z</time>
      </trkpt>
      <trkpt lat="59.08505553" lon="29.99188492">
        <ele>94.69</ele>
        <time>2026-04-22T08:02:07Z</time>
      </trkpt>
      <trkpt lat="59.08496355" lon="29.99188249">
        <ele>98.51</ele>
        <time>2026-04-22T08:02:21Z</time>
      </trkpt>
      <trkpt lat="59.08486513" lon="29.9918627">
        <ele>96.95</ele>
        <time>2026-04-22T08:02:29Z</time>
      </trkpt>
      <trkpt lat="59.08477216" lon="29.99177916">
        <ele>93.96</ele>
        <time>2026-04-22T08:02:36Z</time>
      </trkpt>
      <trkpt lat="59.08467655" lon="29.99172103">
        <ele>93.79</ele>
        <time>2026-04-22T08:02:44Z</time>
      </trkpt>
      <trkpt lat="59.08459503" lon="29.99162865">
        <ele>94.66</ele>
        <time>2026-04-22T08:02:53Z</time>
      </trkpt>
      <trkpt lat="59.08450963" lon="29.99170326">
        <ele>93.06</ele>
        <time>2026-04-22T08:03:06Z</time>
      </trkpt>
      <trkpt lat="59.08441927" lon="29.9916827">
        <ele>94.73</ele>
        <time>2026-04-22T08:03:14Z</time>
      </trkpt>
      <trkpt lat="59.08432542" lon="29.99167515">
        <ele>97.66</ele>
        <time>2026-04-22T08:03:22Z</time>
      </trkpt>
      <trkpt lat="59.08423155" lon="29.99165586">
        <ele>98.25</ele>
        <time>2026-04-22T08:03:29Z</time>
      </trkpt>
      <trkpt lat="59.08414003" lon="29.99160252">
        <ele>99.09</ele>
        <time>2026-04-22T08:03:36Z</time>
      </trkpt>
      <trkpt lat="59.08404929" lon="29.99158376">
        <ele>94.75</ele>
        <time>2026-04-22T08:03:47Z</time>
      </trkpt>
      <trkpt lat="59.08395662" lon="29.99156501">
        <ele>95.68</ele>
        <time>2026-04-22T08:04:21Z</time>
      </trkpt>
      <trkpt lat="59.08386346" lon="29.99157324">
        <ele>94.55</ele>
        <time>2026-04-22T08:04:28Z</time>
      </trkpt>
      <trkpt lat="59.08376988" lon="29.99153475">
        <ele>96.08</ele>
        <time>2026-04-22T08:04:36Z</time>
      </trkpt>
      <trkpt lat="59.08367347" lon="29.99148788">
        <ele>96.17</ele>
        <time>2026-04-22T08:04:44Z</time>
      </trkpt>
      <trkpt lat="59.08358114" lon="29.99146537">
        <ele>99.14</ele>
        <time>2026-04-22T08:04:52Z</time>
      </trkpt>
      <trkpt lat="59.08348715" lon="29.99147426">
        <ele>98.22</ele>
        <time>2026-04-22T08:05:00Z</time>
      </trkpt>
      <trkpt lat="59.08339337" lon="29.99140516">
        <ele>99.45</ele>
        <time>2026-04-22T08:05:08Z</time>
      </trkpt>
      <trkpt lat="59.08329778" lon="29.99135793">
        <ele>97.47</ele>
        <time>2026-04-22T08:05:15Z</time>
      </trkpt>
      <trkpt lat="59.08321093" lon="29.99124879">
        <ele>95.4</ele>
        <time>2026-04-22T08:05:23Z</time>
      </trkpt>
      <trkpt lat="59.08312369" lon="29.99120043">
        <ele>96.02</ele>
        <time>2026-04-22T08:05:30Z</time>
      </trkpt>
      <trkpt lat="59.08303055" lon="29.99115443">
        <ele>95.96</ele>
        <time>2026-04-22T08:05:38Z</time>
      </trkpt>
      <trkpt lat="59.0829416" lon="29.99109583">
        <ele>94.54</ele>
        <time>2026-04-22T08:05:46Z</time>
      </trkpt>
      <trkpt lat="59.08284903" lon="29.99103355">
        <ele>97.28</ele>
        <time>2026-04-22T08:05:55Z</time>
      </trkpt>
      <trkpt lat="59.08275704" lon="29.99101559">
        <ele>96.82</ele>
        <time>2026-04-22T08:06:02Z</time>
      </trkpt>
      <trkpt lat="59.08266252" lon="29.99096754">
        <ele>96.46</ele>
        <time>2026-04-22T08:06:09Z</time>
      </trkpt>
      <trkpt lat="59.08256889" lon="29.99094571">
        <ele>96.74</ele>
        <time>2026-04-22T08:06:16Z</time>
      </trkpt>
      <trkpt lat="59.08247039" lon="29.99092677">
        <ele>95.38</ele>
        <time>2026-04-22T08:06:23Z</time>
      </trkpt>
      <trkpt lat="59.08237208" lon="29.99088489">
        <ele>96.79</ele>
        <time>2026-04-22T08:06:30Z</time>
      </trkpt>
      <trkpt lat="59.08227208" lon="29.99088658">
        <ele>98.33</ele>
        <time>2026-04-22T08:06:37Z</time>
      </trkpt>
      <trkpt lat="59.08218049" lon="29.99085343">
        <ele>97.42</ele>
        <time>2026-04-22T08:06:44Z</time>
      </trkpt>
      <trkpt lat="59.08209209" lon="29.99081884">
        <ele>95.42</ele>
        <time>2026-04-22T08:06:51Z</time>
      </trkpt>
      <trkpt lat="59.08199391" lon="29.99083243">
        <ele>96.33</ele>
        <time>2026-04-22T08:06:59Z</time>
      </trkpt>
      <trkpt lat="59.08189704" lon="29.99081359">
        <ele>94.76</ele>
        <time>2026-04-22T08:07:07Z</time>
      </trkpt>
      <trkpt lat="59.08179974" lon="29.99082067">
        <ele>96.21</ele>
        <time>2026-04-22T08:07:15Z</time>
      </trkpt>
      <trkpt lat="59.08169871" lon="29.99079529">
        <ele>94.23</ele>
        <time>2026-04-22T08:07:22Z</time>
      </trkpt>
      <trkpt lat="59.08161009" lon="29.99074083">
        <ele>94.44</ele>
        <time>2026-04-22T08:07:28Z</time>
      </trkpt>
      <trkpt lat="59.08151732" lon="29.99070357">
        <ele>94.83</ele>
        <time>2026-04-22T08:07:35Z</time>
      </trkpt>
      <trkpt lat="59.08143059" lon="29.99064423">
        <ele>95</ele>
        <time>2026-04-22T08:07:43Z</time>
      </trkpt>
      <trkpt lat="59.08135177" lon="29.99051884">
        <ele>95.15</ele>
        <time>2026-04-22T08:07:51Z</time>
      </trkpt>
      <trkpt lat="59.08126142" lon="29.99054778">
        <ele>95.16</ele>
        <time>2026-04-22T08:07:58Z</time>
      </trkpt>
      <trkpt lat="59.08116889" lon="29.99054697">
        <ele>95.14</ele>
        <time>2026-04-22T08:08:05Z</time>
      </trkpt>
      <trkpt lat="59.08107203" lon="29.99050793">
        <ele>94.96</ele>
        <time>2026-04-22T08:08:13Z</time>
      </trkpt>
      <trkpt lat="59.08097938" lon="29.99046306">
        <ele>94.52</ele>
        <time>2026-04-22T08:08:20Z</time>
      </trkpt>
      <trkpt lat="59.08089598" lon="29.99055299">
        <ele>96.52</ele>
        <time>2026-04-22T08:08:37Z</time>
      </trkpt>
      <trkpt lat="59.08084965" lon="29.99070914">
        <ele>97.16</ele>
        <time>2026-04-22T08:08:51Z</time>
      </trkpt>
      <trkpt lat="59.08088359" lon="29.99088884">
        <ele>95.46</ele>
        <time>2026-04-22T08:09:04Z</time>
      </trkpt>
      <trkpt lat="59.08096315" lon="29.99102443">
        <ele>95.51</ele>
        <time>2026-04-22T08:09:12Z</time>
      </trkpt>
      <trkpt lat="59.08096883" lon="29.99121226">
        <ele>96.78</ele>
        <time>2026-04-22T08:09:56Z</time>
      </trkpt>
      <trkpt lat="59.08095957" lon="29.99140003">
        <ele>96.19</ele>
        <time>2026-04-22T08:10:04Z</time>
      </trkpt>
      <trkpt lat="59.08103945" lon="29.99150075">
        <ele>95.98</ele>
        <time>2026-04-22T08:10:12Z</time>
      </trkpt>
      <trkpt lat="59.08106733" lon="29.99168543">
        <ele>100.64</ele>
        <time>2026-04-22T08:10:22Z</time>
      </trkpt>
      <trkpt lat="59.08111025" lon="29.9918467">
        <ele>102.36</ele>
        <time>2026-04-22T08:10:33Z</time>
      </trkpt>
      <trkpt lat="59.08113607" lon="29.99202139">
        <ele>99.38</ele>
        <time>2026-04-22T08:10:43Z</time>
      </trkpt>
      <trkpt lat="59.08114861" lon="29.99221312">
        <ele>100.22</ele>
        <time>2026-04-22T08:10:50Z</time>
      </trkpt>
      <trkpt lat="59.0811638" lon="29.99238929">
        <ele>96.64</ele>
        <time>2026-04-22T08:10:57Z</time>
      </trkpt>
      <trkpt lat="59.08119027" lon="29.992557">
        <ele>94.46</ele>
        <time>2026-04-22T08:11:04Z</time>
      </trkpt>
      <trkpt lat="59.08118043" lon="29.99274585">
        <ele>93.21</ele>
        <time>2026-04-22T08:11:12Z</time>
      </trkpt>
      <trkpt lat="59.08119156" lon="29.99292324">
        <ele>99.04</ele>
        <time>2026-04-22T08:11:22Z</time>
      </trkpt>
      <trkpt lat="59.08119502" lon="29.99311204">
        <ele>99.53</ele>
        <time>2026-04-22T08:11:30Z</time>
      </trkpt>
      <trkpt lat="59.0812146" lon="29.99329455">
        <ele>101.66</ele>
        <time>2026-04-22T08:11:39Z</time>
      </trkpt>
      <trkpt lat="59.08124138" lon="29.99346598">
        <ele>100.29</ele>
        <time>2026-04-22T08:11:47Z</time>
      </trkpt>
      <trkpt lat="59.08126701" lon="29.99365293">
        <ele>98.31</ele>
        <time>2026-04-22T08:12:03Z</time>
      </trkpt>
      <trkpt lat="59.08128835" lon="29.99383491">
        <ele>100.63</ele>
        <time>2026-04-22T08:12:12Z</time>
      </trkpt>
      <trkpt lat="59.08130418" lon="29.99401601">
        <ele>101.51</ele>
        <time>2026-04-22T08:12:19Z</time>
      </trkpt>
      <trkpt lat="59.08132189" lon="29.99421108">
        <ele>100.7</ele>
        <time>2026-04-22T08:12:27Z</time>
      </trkpt>
      <trkpt lat="59.0813655" lon="29.994366">
        <ele>98.74</ele>
        <time>2026-04-22T08:12:36Z</time>
      </trkpt>
      <trkpt lat="59.08142841" lon="29.99451069">
        <ele>99.23</ele>
        <time>2026-04-22T08:12:46Z</time>
      </trkpt>
      <trkpt lat="59.0814439" lon="29.9946852">
        <ele>96.89</ele>
        <time>2026-04-22T08:12:54Z</time>
      </trkpt>
      <trkpt lat="59.08149865" lon="29.99485286">
        <ele>96.49</ele>
        <time>2026-04-22T08:13:03Z</time>
      </trkpt>
      <trkpt lat="59.08151842" lon="29.99503305">
        <ele>98.11</ele>
        <time>2026-04-22T08:13:11Z</time>
      </trkpt>
      <trkpt lat="59.08152549" lon="29.9952168">
        <ele>99.4</ele>
        <time>2026-04-22T08:13:19Z</time>
      </trkpt>
      <trkpt lat="59.08155703" lon="29.99538113">
        <ele>101.71</ele>
        <time>2026-04-22T08:13:26Z</time>
      </trkpt>
      <trkpt lat="59.08155848" lon="29.9955748">
        <ele>98.83</ele>
        <time>2026-04-22T08:13:33Z</time>
      </trkpt>
      <trkpt lat="59.081528" lon="29.99574419">
        <ele>95.44</ele>
        <time>2026-04-22T08:13:42Z</time>
      </trkpt>
      <trkpt lat="59.08153472" lon="29.99593729">
        <ele>95.41</ele>
        <time>2026-04-22T08:13:51Z</time>
      </trkpt>
      <trkpt lat="59.081557" lon="29.99611336">
        <ele>96.42</ele>
        <time>2026-04-22T08:13:58Z</time>
      </trkpt>
      <trkpt lat="59.08157815" lon="29.99628563">
        <ele>96.03</ele>
        <time>2026-04-22T08:14:05Z</time>
      </trkpt>
      <trkpt lat="59.0815912" lon="29.9964743">
        <ele>96.23</ele>
        <time>2026-04-22T08:14:59Z</time>
      </trkpt>
      <trkpt lat="59.08159982" lon="29.99666884">
        <ele>97.84</ele>
        <time>2026-04-22T08:15:08Z</time>
      </trkpt>
      <trkpt lat="59.08161603" lon="29.99684505">
        <ele>99.73</ele>
        <time>2026-04-22T08:15:15Z</time>
      </trkpt>
      <trkpt lat="59.08164085" lon="29.99704253">
        <ele>102.87</ele>
        <time>2026-04-22T08:15:24Z</time>
      </trkpt>
      <trkpt lat="59.08166456" lon="29.99721427">
        <ele>97.04</ele>
        <time>2026-04-22T08:15:31Z</time>
      </trkpt>
      <trkpt lat="59.08166679" lon="29.9974097">
        <ele>95.78</ele>
        <time>2026-04-22T08:15:39Z</time>
      </trkpt>
      <trkpt lat="59.08169205" lon="29.99759065">
        <ele>95.67</ele>
        <time>2026-04-22T08:15:46Z</time>
      </trkpt>
      <trkpt lat="59.08171581" lon="29.99776113">
        <ele>94.81</ele>
        <time>2026-04-22T08:15:53Z</time>
      </trkpt>
      <trkpt lat="59.08176092" lon="29.9979249">
        <ele>94.84</ele>
        <time>2026-04-22T08:16:00Z</time>
      </trkpt>
      <trkpt lat="59.08177222" lon="29.99811868">
        <ele>95.24</ele>
        <time>2026-04-22T08:16:07Z</time>
      </trkpt>
      <trkpt lat="59.08179043" lon="29.99829312">
        <ele>94.85</ele>
        <time>2026-04-22T08:16:14Z</time>
      </trkpt>
      <trkpt lat="59.08180531" lon="29.99848361">
        <ele>93.84</ele>
        <time>2026-04-22T08:16:21Z</time>
      </trkpt>
      <trkpt lat="59.08183339" lon="29.99866233">
        <ele>93.41</ele>
        <time>2026-04-22T08:16:32Z</time>
      </trkpt>
      <trkpt lat="59.08185334" lon="29.99883728">
        <ele>92.84</ele>
        <time>2026-04-22T08:16:39Z</time>
      </trkpt>
      <trkpt lat="59.0818905" lon="29.99900607">
        <ele>92.73</ele>
        <time>2026-04-22T08:16:46Z</time>
      </trkpt>
      <trkpt lat="59.08193331" lon="29.99916989">
        <ele>92.72</ele>
        <time>2026-04-22T08:16:53Z</time>
      </trkpt>
      <trkpt lat="59.08193707" lon="29.99936477">
        <ele>93.35</ele>
        <time>2026-04-22T08:17:00Z</time>
      </trkpt>
      <trkpt lat="59.08193678" lon="29.99954997">
        <ele>94.14</ele>
        <time>2026-04-22T08:17:06Z</time>
      </trkpt>
      <trkpt lat="59.08197768" lon="29.99971787">
        <ele>94.02</ele>
        <time>2026-04-22T08:17:14Z</time>
      </trkpt>
      <trkpt lat="59.08201474" lon="29.99989914">
        <ele>95.39</ele>
        <time>2026-04-22T08:17:22Z</time>
      </trkpt>
      <trkpt lat="59.08203825" lon="30.00008552">
        <ele>96.64</ele>
        <time>2026-04-22T08:17:30Z</time>
      </trkpt>
      <trkpt lat="59.0820668" lon="30.00025277">
        <ele>96.12</ele>
        <time>2026-04-22T08:17:37Z</time>
      </trkpt>
      <trkpt lat="59.08209569" lon="30.00042969">
        <ele>97.2</ele>
        <time>2026-04-22T08:17:45Z</time>
      </trkpt>
      <trkpt lat="59.08212002" lon="30.00060419">
        <ele>96.28</ele>
        <time>2026-04-22T08:17:52Z</time>
      </trkpt>
      <trkpt lat="59.08213903" lon="30.00079764">
        <ele>94.83</ele>
        <time>2026-04-22T08:18:00Z</time>
      </trkpt>
      <trkpt lat="59.08215786" lon="30.00096906">
        <ele>95</ele>
        <time>2026-04-22T08:18:07Z</time>
      </trkpt>
      <trkpt lat="59.08217591" lon="30.00114047">
        <ele>94.79</ele>
        <time>2026-04-22T08:18:14Z</time>
      </trkpt>
      <trkpt lat="59.08221445" lon="30.00131709">
        <ele>96.48</ele>
        <time>2026-04-22T08:18:22Z</time>
      </trkpt>
      <trkpt lat="59.08221209" lon="30.0014935">
        <ele>97.36</ele>
        <time>2026-04-22T08:18:29Z</time>
      </trkpt>
      <trkpt lat="59.08222281" lon="30.00168381">
        <ele>96</ele>
        <time>2026-04-22T08:18:37Z</time>
      </trkpt>
      <trkpt lat="59.08224963" lon="30.00185214">
        <ele>94.71</ele>
        <time>2026-04-22T08:18:44Z</time>
      </trkpt>
      <trkpt lat="59.08228973" lon="30.00200993">
        <ele>94.47</ele>
        <time>2026-04-22T08:18:51Z</time>
      </trkpt>
      <trkpt lat="59.08233703" lon="30.00217607">
        <ele>96.06</ele>
        <time>2026-04-22T08:18:59Z</time>
      </trkpt>
      <trkpt lat="59.08236289" lon="30.00235431">
        <ele>95.26</ele>
        <time>2026-04-22T08:19:08Z</time>
      </trkpt>
      <trkpt lat="59.08237336" lon="30.00253906">
        <ele>95.1</ele>
        <time>2026-04-22T08:19:17Z</time>
      </trkpt>
      <trkpt lat="59.08237715" lon="30.00272365">
        <ele>93.5</ele>
        <time>2026-04-22T08:19:25Z</time>
      </trkpt>
      <trkpt lat="59.08239844" lon="30.00291563">
        <ele>91.24</ele>
        <time>2026-04-22T08:19:33Z</time>
      </trkpt>
      <trkpt lat="59.08242091" lon="30.00309691">
        <ele>90</ele>
        <time>2026-04-22T08:19:40Z</time>
      </trkpt>
      <trkpt lat="59.08243621" lon="30.00328905">
        <ele>89.03</ele>
        <time>2026-04-22T08:19:47Z</time>
      </trkpt>
      <trkpt lat="59.08246459" lon="30.00345714">
        <ele>93.48</ele>
        <time>2026-04-22T08:19:54Z</time>
      </trkpt>
      <trkpt lat="59.08248997" lon="30.003628">
        <ele>94.51</ele>
        <time>2026-04-22T08:20:01Z</time>
      </trkpt>
      <trkpt lat="59.08252542" lon="30.00379373">
        <ele>92.9</ele>
        <time>2026-04-22T08:20:49Z</time>
      </trkpt>
      <trkpt lat="59.08252824" lon="30.00399263">
        <ele>92.31</ele>
        <time>2026-04-22T08:20:58Z</time>
      </trkpt>
      <trkpt lat="59.08252275" lon="30.00417541">
        <ele>88.86</ele>
        <time>2026-04-22T08:21:04Z</time>
      </trkpt>
      <trkpt lat="59.08255794" lon="30.00435349">
        <ele>93.97</ele>
        <time>2026-04-22T08:21:29Z</time>
      </trkpt>
      <trkpt lat="59.08258503" lon="30.00455308">
        <ele>93.97</ele>
        <time>2026-04-22T08:21:38Z</time>
      </trkpt>
      <trkpt lat="59.08259883" lon="30.00473355">
        <ele>94.15</ele>
        <time>2026-04-22T08:21:45Z</time>
      </trkpt>
      <trkpt lat="59.08267679" lon="30.0048824">
        <ele>95.23</ele>
        <time>2026-04-22T08:22:17Z</time>
      </trkpt>
      <trkpt lat="59.08268993" lon="30.00507091">
        <ele>92.8</ele>
        <time>2026-04-22T08:22:24Z</time>
      </trkpt>
      <trkpt lat="59.0827004" lon="30.00524496">
        <ele>94.77</ele>
        <time>2026-04-22T08:22:31Z</time>
      </trkpt>
      <trkpt lat="59.08272096" lon="30.00542152">
        <ele>97.03</ele>
        <time>2026-04-22T08:22:39Z</time>
      </trkpt>
      <trkpt lat="59.08275329" lon="30.00560839">
        <ele>98.32</ele>
        <time>2026-04-22T08:22:47Z</time>
      </trkpt>
      <trkpt lat="59.08277362" lon="30.00578526">
        <ele>100.44</ele>
        <time>2026-04-22T08:22:54Z</time>
      </trkpt>
      <trkpt lat="59.08278913" lon="30.00597584">
        <ele>96.75</ele>
        <time>2026-04-22T08:23:01Z</time>
      </trkpt>
      <trkpt lat="59.08280938" lon="30.00617453">
        <ele>91.85</ele>
        <time>2026-04-22T08:23:08Z</time>
      </trkpt>
      <trkpt lat="59.08284047" lon="30.00635552">
        <ele>91.77</ele>
        <time>2026-04-22T08:23:15Z</time>
      </trkpt>
      <trkpt lat="59.08285545" lon="30.00653313">
        <ele>93.21</ele>
        <time>2026-04-22T08:23:22Z</time>
      </trkpt>
      <trkpt lat="59.08287365" lon="30.00673623">
        <ele>89.96</ele>
        <time>2026-04-22T08:23:29Z</time>
      </trkpt>
      <trkpt lat="59.0828962" lon="30.0069344">
        <ele>91.51</ele>
        <time>2026-04-22T08:23:36Z</time>
      </trkpt>
      <trkpt lat="59.08292446" lon="30.00711218">
        <ele>94.55</ele>
        <time>2026-04-22T08:23:43Z</time>
      </trkpt>
      <trkpt lat="59.08294631" lon="30.00728769">
        <ele>93.3</ele>
        <time>2026-04-22T08:24:10Z</time>
      </trkpt>
      <trkpt lat="59.08295616" lon="30.0074649">
        <ele>91.99</ele>
        <time>2026-04-22T08:24:17Z</time>
      </trkpt>
      <trkpt lat="59.08297803" lon="30.00763537">
        <ele>92.34</ele>
        <time>2026-04-22T08:24:24Z</time>
      </trkpt>
      <trkpt lat="59.08299885" lon="30.00781852">
        <ele>88.64</ele>
        <time>2026-04-22T08:24:31Z</time>
      </trkpt>
      <trkpt lat="59.08303077" lon="30.00799007">
        <ele>91.36</ele>
        <time>2026-04-22T08:24:38Z</time>
      </trkpt>
      <trkpt lat="59.0830515" lon="30.00816849">
        <ele>95.98</ele>
        <time>2026-04-22T08:24:45Z</time>
      </trkpt>
      <trkpt lat="59.08308342" lon="30.00835479">
        <ele>94.55</ele>
        <time>2026-04-22T08:24:53Z</time>
      </trkpt>
      <trkpt lat="59.08310761" lon="30.00853297">
        <ele>92.04</ele>
        <time>2026-04-22T08:25:00Z</time>
      </trkpt>
      <trkpt lat="59.08312814" lon="30.00871415">
        <ele>91.26</ele>
        <time>2026-04-22T08:25:27Z</time>
      </trkpt>
      <trkpt lat="59.0831529" lon="30.00890684">
        <ele>90.01</ele>
        <time>2026-04-22T08:25:34Z</time>
      </trkpt>
      <trkpt lat="59.08317675" lon="30.00907681">
        <ele>89.56</ele>
        <time>2026-04-22T08:25:41Z</time>
      </trkpt>
      <trkpt lat="59.08318495" lon="30.00925986">
        <ele>92.04</ele>
        <time>2026-04-22T08:25:48Z</time>
      </trkpt>
      <trkpt lat="59.08322239" lon="30.00944532">
        <ele>90.23</ele>
        <time>2026-04-22T08:25:55Z</time>
      </trkpt>
      <trkpt lat="59.08324754" lon="30.00962745">
        <ele>92.39</ele>
        <time>2026-04-22T08:26:03Z</time>
      </trkpt>
      <trkpt lat="59.08328006" lon="30.00980607">
        <ele>92.75</ele>
        <time>2026-04-22T08:26:11Z</time>
      </trkpt>
      <trkpt lat="59.08329201" lon="30.01000848">
        <ele>87.89</ele>
        <time>2026-04-22T08:26:19Z</time>
      </trkpt>
      <trkpt lat="59.08331237" lon="30.01018328">
        <ele>90.33</ele>
        <time>2026-04-22T08:26:26Z</time>
      </trkpt>
      <trkpt lat="59.08332283" lon="30.01037644">
        <ele>88.8</ele>
        <time>2026-04-22T08:26:34Z</time>
      </trkpt>
      <trkpt lat="59.08334858" lon="30.01055418">
        <ele>86.82</ele>
        <time>2026-04-22T08:26:41Z</time>
      </trkpt>
      <trkpt lat="59.08337" lon="30.01074807">
        <ele>88.37</ele>
        <time>2026-04-22T08:26:49Z</time>
      </trkpt>
      <trkpt lat="59.08338905" lon="30.01094284">
        <ele>89.21</ele>
        <time>2026-04-22T08:26:57Z</time>
      </trkpt>
      <trkpt lat="59.08341347" lon="30.01111394">
        <ele>89.71</ele>
        <time>2026-04-22T08:27:04Z</time>
      </trkpt>
      <trkpt lat="59.08345383" lon="30.01129195">
        <ele>89.23</ele>
        <time>2026-04-22T08:27:11Z</time>
      </trkpt>
      <trkpt lat="59.08347835" lon="30.01146978">
        <ele>91.48</ele>
        <time>2026-04-22T08:27:18Z</time>
      </trkpt>
      <trkpt lat="59.08348778" lon="30.011662">
        <ele>89.29</ele>
        <time>2026-04-22T08:27:25Z</time>
      </trkpt>
      <trkpt lat="59.08350646" lon="30.01183824">
        <ele>87.39</ele>
        <time>2026-04-22T08:27:32Z</time>
      </trkpt>
      <trkpt lat="59.0835172" lon="30.01202782">
        <ele>87.79</ele>
        <time>2026-04-22T08:27:40Z</time>
      </trkpt>
      <trkpt lat="59.08354416" lon="30.01220172">
        <ele>92.63</ele>
        <time>2026-04-22T08:27:46Z</time>
      </trkpt>
      <trkpt lat="59.08356265" lon="30.0123768">
        <ele>92.14</ele>
        <time>2026-04-22T08:27:52Z</time>
      </trkpt>
      <trkpt lat="59.08358257" lon="30.01256485">
        <ele>92.03</ele>
        <time>2026-04-22T08:27:59Z</time>
      </trkpt>
      <trkpt lat="59.08360705" lon="30.01273527">
        <ele>93.42</ele>
        <time>2026-04-22T08:28:05Z</time>
      </trkpt>
      <trkpt lat="59.08363033" lon="30.01290733">
        <ele>95.15</ele>
        <time>2026-04-22T08:28:12Z</time>
      </trkpt>
      <trkpt lat="59.08365358" lon="30.01308687">
        <ele>95.13</ele>
        <time>2026-04-22T08:28:19Z</time>
      </trkpt>
      <trkpt lat="59.08367036" lon="30.01326822">
        <ele>94.71</ele>
        <time>2026-04-22T08:28:26Z</time>
      </trkpt>
      <trkpt lat="59.08371193" lon="30.01342785">
        <ele>94.23</ele>
        <time>2026-04-22T08:28:33Z</time>
      </trkpt>
      <trkpt lat="59.08372947" lon="30.01360908">
        <ele>91.18</ele>
        <time>2026-04-22T08:28:40Z</time>
      </trkpt>
      <trkpt lat="59.08375177" lon="30.01378388">
        <ele>89.96</ele>
        <time>2026-04-22T08:28:51Z</time>
      </trkpt>
      <trkpt lat="59.0837601" lon="30.0139655">
        <ele>92.13</ele>
        <time>2026-04-22T08:29:00Z</time>
      </trkpt>
      <trkpt lat="59.08379647" lon="30.01412645">
        <ele>92.56</ele>
        <time>2026-04-22T08:29:41Z</time>
      </trkpt>
      <trkpt lat="59.083813" lon="30.01430483">
        <ele>90.75</ele>
        <time>2026-04-22T08:29:48Z</time>
      </trkpt>
      <trkpt lat="59.08382793" lon="30.01447761">
        <ele>92.08</ele>
        <time>2026-04-22T08:31:41Z</time>
      </trkpt>
      <trkpt lat="59.08385224" lon="30.01465995">
        <ele>92.59</ele>
        <time>2026-04-22T08:31:49Z</time>
      </trkpt>
      <trkpt lat="59.08386341" lon="30.01484536">
        <ele>91.66</ele>
        <time>2026-04-22T08:31:56Z</time>
      </trkpt>
      <trkpt lat="59.0838825" lon="30.01503025">
        <ele>93.62</ele>
        <time>2026-04-22T08:32:03Z</time>
      </trkpt>
      <trkpt lat="59.0839053" lon="30.01519978">
        <ele>94.88</ele>
        <time>2026-04-22T08:32:09Z</time>
      </trkpt>
      <trkpt lat="59.08393331" lon="30.01537429">
        <ele>93.39</ele>
        <time>2026-04-22T08:32:16Z</time>
      </trkpt>
      <trkpt lat="59.08394967" lon="30.01555416">
        <ele>93.47</ele>
        <time>2026-04-22T08:32:23Z</time>
      </trkpt>
      <trkpt lat="59.08396903" lon="30.01573374">
        <ele>94.22</ele>
        <time>2026-04-22T08:32:30Z</time>
      </trkpt>
      <trkpt lat="59.08398965" lon="30.01591528">
        <ele>96.51</ele>
        <time>2026-04-22T08:32:37Z</time>
      </trkpt>
      <trkpt lat="59.08401314" lon="30.01611869">
        <ele>95.68</ele>
        <time>2026-04-22T08:32:45Z</time>
      </trkpt>
      <trkpt lat="59.08404704" lon="30.01631003">
        <ele>95.61</ele>
        <time>2026-04-22T08:32:51Z</time>
      </trkpt>
      <trkpt lat="59.08406638" lon="30.01650457">
        <ele>95.3</ele>
        <time>2026-04-22T08:32:58Z</time>
      </trkpt>
      <trkpt lat="59.08408301" lon="30.01668573">
        <ele>94.84</ele>
        <time>2026-04-22T08:33:04Z</time>
      </trkpt>
      <trkpt lat="59.08409304" lon="30.01686391">
        <ele>92.01</ele>
        <time>2026-04-22T08:33:10Z</time>
      </trkpt>
      <trkpt lat="59.08411983" lon="30.0170429">
        <ele>91.06</ele>
        <time>2026-04-22T08:33:17Z</time>
      </trkpt>
      <trkpt lat="59.08414577" lon="30.01721255">
        <ele>91.74</ele>
        <time>2026-04-22T08:33:24Z</time>
      </trkpt>
      <trkpt lat="59.08416765" lon="30.01739864">
        <ele>93.88</ele>
        <time>2026-04-22T08:33:32Z</time>
      </trkpt>
      <trkpt lat="59.08419398" lon="30.01758312">
        <ele>92.69</ele>
        <time>2026-04-22T08:33:39Z</time>
      </trkpt>
      <trkpt lat="59.08421057" lon="30.01776319">
        <ele>94.99</ele>
        <time>2026-04-22T08:33:46Z</time>
      </trkpt>
      <trkpt lat="59.08423833" lon="30.01793987">
        <ele>94.88</ele>
        <time>2026-04-22T08:33:53Z</time>
      </trkpt>
      <trkpt lat="59.0842538" lon="30.01812262">
        <ele>94.68</ele>
        <time>2026-04-22T08:34:00Z</time>
      </trkpt>
      <trkpt lat="59.08426814" lon="30.01830416">
        <ele>94.11</ele>
        <time>2026-04-22T08:34:08Z</time>
      </trkpt>
      <trkpt lat="59.08428654" lon="30.01847643">
        <ele>95.26</ele>
        <time>2026-04-22T08:34:15Z</time>
      </trkpt>
      <trkpt lat="59.08432023" lon="30.01866309">
        <ele>95.45</ele>
        <time>2026-04-22T08:34:23Z</time>
      </trkpt>
      <trkpt lat="59.08435115" lon="30.01883235">
        <ele>94.02</ele>
        <time>2026-04-22T08:34:30Z</time>
      </trkpt>
      <trkpt lat="59.08437304" lon="30.01900273">
        <ele>94.6</ele>
        <time>2026-04-22T08:34:37Z</time>
      </trkpt>
      <trkpt lat="59.08438896" lon="30.01918789">
        <ele>92.45</ele>
        <time>2026-04-22T08:34:44Z</time>
      </trkpt>
      <trkpt lat="59.08441173" lon="30.01936287">
        <ele>91.04</ele>
        <time>2026-04-22T08:35:24Z</time>
      </trkpt>
      <trkpt lat="59.08442874" lon="30.01955261">
        <ele>91.61</ele>
        <time>2026-04-22T08:35:32Z</time>
      </trkpt>
      <trkpt lat="59.08442888" lon="30.01972703">
        <ele>91.7</ele>
        <time>2026-04-22T08:35:39Z</time>
      </trkpt>
      <trkpt lat="59.08447102" lon="30.01992028">
        <ele>95.14</ele>
        <time>2026-04-22T08:35:46Z</time>
      </trkpt>
      <trkpt lat="59.08439903" lon="30.02004746">
        <ele>90.31</ele>
        <time>2026-04-22T08:36:28Z</time>
      </trkpt>
      <trkpt lat="59.0843071" lon="30.02012452">
        <ele>90.47</ele>
        <time>2026-04-22T08:36:37Z</time>
      </trkpt>
      <trkpt lat="59.08423014" lon="30.02023367">
        <ele>91.79</ele>
        <time>2026-04-22T08:36:45Z</time>
      </trkpt>
      <trkpt lat="59.0841408" lon="30.02029476">
        <ele>92.61</ele>
        <time>2026-04-22T08:36:58Z</time>
      </trkpt>
      <trkpt lat="59.08404279" lon="30.02028122">
        <ele>90.57</ele>
        <time>2026-04-22T08:37:07Z</time>
      </trkpt>
      <trkpt lat="59.08394909" lon="30.02030007">
        <ele>90.17</ele>
        <time>2026-04-22T08:37:19Z</time>
      </trkpt>
      <trkpt lat="59.08386187" lon="30.02036385">
        <ele>92.09</ele>
        <time>2026-04-22T08:37:57Z</time>
      </trkpt>
      <trkpt lat="59.08376835" lon="30.02041084">
        <ele>91.92</ele>
        <time>2026-04-22T08:38:14Z</time>
      </trkpt>
      <trkpt lat="59.08367598" lon="30.02043345">
        <ele>90.56</ele>
        <time>2026-04-22T08:38:24Z</time>
      </trkpt>
      <trkpt lat="59.08358056" lon="30.02045869">
        <ele>90.09</ele>
        <time>2026-04-22T08:38:35Z</time>
      </trkpt>
      <trkpt lat="59.08350248" lon="30.02056122">
        <ele>91.29</ele>
        <time>2026-04-22T08:38:44Z</time>
      </trkpt>
      <trkpt lat="59.0834456" lon="30.02070022">
        <ele>91.83</ele>
        <time>2026-04-22T08:38:53Z</time>
      </trkpt>
      <trkpt lat="59.08335399" lon="30.02073066">
        <ele>91.86</ele>
        <time>2026-04-22T08:39:06Z</time>
      </trkpt>
      <trkpt lat="59.08326095" lon="30.02072633">
        <ele>88.18</ele>
        <time>2026-04-22T08:39:15Z</time>
      </trkpt>
      <trkpt lat="59.08318713" lon="30.02083336">
        <ele>88.13</ele>
        <time>2026-04-22T08:39:23Z</time>
      </trkpt>
      <trkpt lat="59.08309622" lon="30.02089275">
        <ele>88.1</ele>
        <time>2026-04-22T08:39:31Z</time>
      </trkpt>
      <trkpt lat="59.08299721" lon="30.02090926">
        <ele>88.82</ele>
        <time>2026-04-22T08:39:40Z</time>
      </trkpt>
      <trkpt lat="59.08292043" lon="30.02101949">
        <ele>89.62</ele>
        <time>2026-04-22T08:39:57Z</time>
      </trkpt>
      <trkpt lat="59.08283366" lon="30.02095007">
        <ele>90.02</ele>
        <time>2026-04-22T08:40:10Z</time>
      </trkpt>
      <trkpt lat="59.08273963" lon="30.0209859">
        <ele>89.3</ele>
        <time>2026-04-22T08:40:25Z</time>
      </trkpt>
      <trkpt lat="59.08265909" lon="30.02090848">
        <ele>89.06</ele>
        <time>2026-04-22T08:40:34Z</time>
      </trkpt>
      <trkpt lat="59.08258004" lon="30.02103074">
        <ele>90.85</ele>
        <time>2026-04-22T08:40:46Z</time>
      </trkpt>
      <trkpt lat="59.08248895" lon="30.02095568">
        <ele>90.7</ele>
        <time>2026-04-22T08:41:09Z</time>
      </trkpt>
      <trkpt lat="59.08242825" lon="30.02109366">
        <ele>89.83</ele>
        <time>2026-04-22T08:41:20Z</time>
      </trkpt>
      <trkpt lat="59.08236341" lon="30.02121842">
        <ele>92.06</ele>
        <time>2026-04-22T08:41:34Z</time>
      </trkpt>
      <trkpt lat="59.08226888" lon="30.02122164">
        <ele>93.14</ele>
        <time>2026-04-22T08:41:46Z</time>
      </trkpt>
      <trkpt lat="59.08217739" lon="30.02126182">
        <ele>91.89</ele>
        <time>2026-04-22T08:41:59Z</time>
      </trkpt>
      <trkpt lat="59.08208577" lon="30.02128875">
        <ele>90.08</ele>
        <time>2026-04-22T08:42:09Z</time>
      </trkpt>
      <trkpt lat="59.08199631" lon="30.02130626">
        <ele>89.95</ele>
        <time>2026-04-22T08:42:22Z</time>
      </trkpt>
      <trkpt lat="59.08198001" lon="30.02149513">
        <ele>91.29</ele>
        <time>2026-04-22T08:43:36Z</time>
      </trkpt>
      <trkpt lat="59.08199987" lon="30.02167458">
        <ele>93.42</ele>
        <time>2026-04-22T08:43:47Z</time>
      </trkpt>
      <trkpt lat="59.08205103" lon="30.02181998">
        <ele>92.94</ele>
        <time>2026-04-22T08:43:58Z</time>
      </trkpt>
      <trkpt lat="59.08203324" lon="30.02200293">
        <ele>92.96</ele>
        <time>2026-04-22T08:44:09Z</time>
      </trkpt>
      <trkpt lat="59.08205952" lon="30.02218605">
        <ele>91.7</ele>
        <time>2026-04-22T08:44:20Z</time>
      </trkpt>
      <trkpt lat="59.08206195" lon="30.02236926">
        <ele>92.52</ele>
        <time>2026-04-22T08:44:31Z</time>
      </trkpt>
      <trkpt lat="59.08209749" lon="30.02253298">
        <ele>92.7</ele>
        <time>2026-04-22T08:44:46Z</time>
      </trkpt>
      <trkpt lat="59.08203238" lon="30.02266137">
        <ele>92.46</ele>
        <time>2026-04-22T08:44:56Z</time>
      </trkpt>
      <trkpt lat="59.08202032" lon="30.02284286">
        <ele>90.74</ele>
        <time>2026-04-22T08:45:07Z</time>
      </trkpt>
      <trkpt lat="59.08204242" lon="30.02302807">
        <ele>93.2</ele>
        <time>2026-04-22T08:45:20Z</time>
      </trkpt>
      <trkpt lat="59.08211337" lon="30.02315058">
        <ele>93.29</ele>
        <time>2026-04-22T08:45:32Z</time>
      </trkpt>
      <trkpt lat="59.08217037" lon="30.02328964">
        <ele>94.06</ele>
        <time>2026-04-22T08:45:53Z</time>
      </trkpt>
      <trkpt lat="59.08213465" lon="30.02346009">
        <ele>95.65</ele>
        <time>2026-04-22T08:46:07Z</time>
      </trkpt>
      <trkpt lat="59.08210989" lon="30.02363399">
        <ele>97.61</ele>
        <time>2026-04-22T08:46:34Z</time>
      </trkpt>
      <trkpt lat="59.08211806" lon="30.0238188">
        <ele>96.08</ele>
        <time>2026-04-22T08:46:48Z</time>
      </trkpt>
      <trkpt lat="59.08212227" lon="30.02399311">
        <ele>96.7</ele>
        <time>2026-04-22T08:47:00Z</time>
      </trkpt>
      <trkpt lat="59.08213341" lon="30.02416881">
        <ele>97.46</ele>
        <time>2026-04-22T08:47:14Z</time>
      </trkpt>
      <trkpt lat="59.08222522" lon="30.02415601">
        <ele>96.31</ele>
        <time>2026-04-22T08:47:40Z</time>
      </trkpt>
      <trkpt lat="59.08227523" lon="30.02431287">
        <ele>94.76</ele>
        <time>2026-04-22T08:47:57Z</time>
      </trkpt>
      <trkpt lat="59.08230771" lon="30.02447939">
        <ele>97.63</ele>
        <time>2026-04-22T08:48:08Z</time>
      </trkpt>
      <trkpt lat="59.08231559" lon="30.02465562">
        <ele>98.92</ele>
        <time>2026-04-22T08:48:17Z</time>
      </trkpt>
      <trkpt lat="59.0823069" lon="30.02483224">
        <ele>98.71</ele>
        <time>2026-04-22T08:48:27Z</time>
      </trkpt>
      <trkpt lat="59.08238212" lon="30.02493011">
        <ele>91.73</ele>
        <time>2026-04-22T08:49:21Z</time>
      </trkpt>
      <trkpt lat="59.082481" lon="30.02494022">
        <ele>93.08</ele>
        <time>2026-04-22T08:49:31Z</time>
      </trkpt>
      <trkpt lat="59.08256556" lon="30.02501463">
        <ele>94.59</ele>
        <time>2026-04-22T08:49:39Z</time>
      </trkpt>
      <trkpt lat="59.08265994" lon="30.02502343">
        <ele>94.27</ele>
        <time>2026-04-22T08:49:49Z</time>
      </trkpt>
      <trkpt lat="59.08275124" lon="30.02507146">
        <ele>93.06</ele>
        <time>2026-04-22T08:50:00Z</time>
      </trkpt>
      <trkpt lat="59.08283435" lon="30.02514595">
        <ele>95.65</ele>
        <time>2026-04-22T08:50:12Z</time>
      </trkpt>
      <trkpt lat="59.08292909" lon="30.02516005">
        <ele>94.49</ele>
        <time>2026-04-22T08:50:23Z</time>
      </trkpt>
      <trkpt lat="59.08302098" lon="30.02517837">
        <ele>93.3</ele>
        <time>2026-04-22T08:50:54Z</time>
      </trkpt>
      <trkpt lat="59.08311159" lon="30.0251271">
        <ele>92.61</ele>
        <time>2026-04-22T08:51:06Z</time>
      </trkpt>
      <trkpt lat="59.08319003" lon="30.02503805">
        <ele>94.65</ele>
        <time>2026-04-22T08:51:15Z</time>
      </trkpt>
      <trkpt lat="59.08328573" lon="30.0250605">
        <ele>92.89</ele>
        <time>2026-04-22T08:51:26Z</time>
      </trkpt>
      <trkpt lat="59.08338344" lon="30.02506235">
        <ele>94.43</ele>
        <time>2026-04-22T08:51:39Z</time>
      </trkpt>
      <trkpt lat="59.08345484" lon="30.02519797">
        <ele>92.89</ele>
        <time>2026-04-22T08:51:50Z</time>
      </trkpt>
      <trkpt lat="59.08351144" lon="30.02535029">
        <ele>93.69</ele>
        <time>2026-04-22T08:52:02Z</time>
      </trkpt>
      <trkpt lat="59.0835681" lon="30.02549686">
        <ele>91.85</ele>
        <time>2026-04-22T08:52:13Z</time>
      </trkpt>
      <trkpt lat="59.08361904" lon="30.02566147">
        <ele>92.72</ele>
        <time>2026-04-22T08:52:22Z</time>
      </trkpt>
      <trkpt lat="59.08366591" lon="30.02582891">
        <ele>93.43</ele>
        <time>2026-04-22T08:52:33Z</time>
      </trkpt>
      <trkpt lat="59.08369269" lon="30.02600823">
        <ele>91.97</ele>
        <time>2026-04-22T08:52:43Z</time>
      </trkpt>
      <trkpt lat="59.08374284" lon="30.02615835">
        <ele>91.47</ele>
        <time>2026-04-22T08:52:52Z</time>
      </trkpt>
      <trkpt lat="59.08379179" lon="30.02632216">
        <ele>91.98</ele>
        <time>2026-04-22T08:53:03Z</time>
      </trkpt>
      <trkpt lat="59.08383426" lon="30.02649203">
        <ele>91.49</ele>
        <time>2026-04-22T08:53:13Z</time>
      </trkpt>
      <trkpt lat="59.08383841" lon="30.02667059">
        <ele>90.41</ele>
        <time>2026-04-22T08:53:26Z</time>
      </trkpt>
      <trkpt lat="59.08390524" lon="30.02679037">
        <ele>91.15</ele>
        <time>2026-04-22T08:53:35Z</time>
      </trkpt>
      <trkpt lat="59.08395533" lon="30.02693805">
        <ele>91.33</ele>
        <time>2026-04-22T08:53:48Z</time>
      </trkpt>
      <trkpt lat="59.08399806" lon="30.02710533">
        <ele>91.6</ele>
        <time>2026-04-22T08:53:59Z</time>
      </trkpt>
      <trkpt lat="59.08404035" lon="30.02726288">
        <ele>91.46</ele>
        <time>2026-04-22T08:54:10Z</time>
      </trkpt>
      <trkpt lat="59.0840886" lon="30.02741416">
        <ele>91.06</ele>
        <time>2026-04-22T08:54:19Z</time>
      </trkpt>
      <trkpt lat="59.08411326" lon="30.02759641">
        <ele>91.79</ele>
        <time>2026-04-22T08:54:28Z</time>
      </trkpt>
      <trkpt lat="59.0841812" lon="30.02772816">
        <ele>92.36</ele>
        <time>2026-04-22T08:54:39Z</time>
      </trkpt>
      <trkpt lat="59.08422777" lon="30.02787789">
        <ele>92.79</ele>
        <time>2026-04-22T08:54:49Z</time>
      </trkpt>
      <trkpt lat="59.08423522" lon="30.0280534">
        <ele>91.33</ele>
        <time>2026-04-22T08:54:57Z</time>
      </trkpt>
      <trkpt lat="59.08424549" lon="30.02823004">
        <ele>91.89</ele>
        <time>2026-04-22T08:55:04Z</time>
      </trkpt>
      <trkpt lat="59.08427337" lon="30.02839831">
        <ele>92.07</ele>
        <time>2026-04-22T08:55:12Z</time>
      </trkpt>
      <trkpt lat="59.0842826" lon="30.02857402">
        <ele>90.13</ele>
        <time>2026-04-22T08:55:56Z</time>
      </trkpt>
      <trkpt lat="59.08433131" lon="30.02873437">
        <ele>90.1</ele>
        <time>2026-04-22T08:56:05Z</time>
      </trkpt>
      <trkpt lat="59.0843718" lon="30.0288976">
        <ele>88.84</ele>
        <time>2026-04-22T08:56:13Z</time>
      </trkpt>
      <trkpt lat="59.08441773" lon="30.02905307">
        <ele>90.5</ele>
        <time>2026-04-22T08:56:22Z</time>
      </trkpt>
      <trkpt lat="59.08447777" lon="30.02920159">
        <ele>91.7</ele>
        <time>2026-04-22T08:56:31Z</time>
      </trkpt>
      <trkpt lat="59.08453542" lon="30.02935616">
        <ele>91.21</ele>
        <time>2026-04-22T08:56:40Z</time>
      </trkpt>
      <trkpt lat="59.08458237" lon="30.02950635">
        <ele>91.49</ele>
        <time>2026-04-22T08:56:49Z</time>
      </trkpt>
      <trkpt lat="59.08463164" lon="30.02966302">
        <ele>92.67</ele>
        <time>2026-04-22T08:56:57Z</time>
      </trkpt>
      <trkpt lat="59.08468416" lon="30.02981626">
        <ele>92.23</ele>
        <time>2026-04-22T08:57:05Z</time>
      </trkpt>
      <trkpt lat="59.08475475" lon="30.02994742">
        <ele>93.34</ele>
        <time>2026-04-22T08:57:12Z</time>
      </trkpt>
      <trkpt lat="59.08479207" lon="30.03012561">
        <ele>92.8</ele>
        <time>2026-04-22T08:57:20Z</time>
      </trkpt>
      <trkpt lat="59.08485344" lon="30.0302818">
        <ele>93.86</ele>
        <time>2026-04-22T08:57:28Z</time>
      </trkpt>
      <trkpt lat="59.08490622" lon="30.03044135">
        <ele>93.86</ele>
        <time>2026-04-22T08:57:36Z</time>
      </trkpt>
      <trkpt lat="59.08496746" lon="30.03058654">
        <ele>93.5</ele>
        <time>2026-04-22T08:57:44Z</time>
      </trkpt>
      <trkpt lat="59.08501627" lon="30.03074245">
        <ele>92.61</ele>
        <time>2026-04-22T08:58:37Z</time>
      </trkpt>
      <trkpt lat="59.08503784" lon="30.03092674">
        <ele>92.07</ele>
        <time>2026-04-22T08:58:46Z</time>
      </trkpt>
      <trkpt lat="59.08506117" lon="30.03111703">
        <ele>90.92</ele>
        <time>2026-04-22T08:58:55Z</time>
      </trkpt>
      <trkpt lat="59.08505711" lon="30.03129819">
        <ele>89.64</ele>
        <time>2026-04-22T08:59:04Z</time>
      </trkpt>
      <trkpt lat="59.08507195" lon="30.03148649">
        <ele>91.12</ele>
        <time>2026-04-22T08:59:13Z</time>
      </trkpt>
      <trkpt lat="59.08509396" lon="30.03169109">
        <ele>90.9</ele>
        <time>2026-04-22T08:59:23Z</time>
      </trkpt>
      <trkpt lat="59.08511434" lon="30.03186999">
        <ele>90.1</ele>
        <time>2026-04-22T08:59:34Z</time>
      </trkpt>
      <trkpt lat="59.08506695" lon="30.03202786">
        <ele>89.2</ele>
        <time>2026-04-22T08:59:45Z</time>
      </trkpt>
      <trkpt lat="59.08508043" lon="30.03183653">
        <ele>89.23</ele>
        <time>2026-04-22T09:00:46Z</time>
      </trkpt>
      <trkpt lat="59.08509331" lon="30.03165241">
        <ele>90.28</ele>
        <time>2026-04-22T09:00:54Z</time>
      </trkpt>
      <trkpt lat="59.08506588" lon="30.03147209">
        <ele>90.12</ele>
        <time>2026-04-22T09:01:03Z</time>
      </trkpt>
      <trkpt lat="59.08504664" lon="30.03129594">
        <ele>90.84</ele>
        <time>2026-04-22T09:01:11Z</time>
      </trkpt>
      <trkpt lat="59.08505055" lon="30.03110877">
        <ele>90.42</ele>
        <time>2026-04-22T09:01:20Z</time>
      </trkpt>
      <trkpt lat="59.08502054" lon="30.03094086">
        <ele>89.21</ele>
        <time>2026-04-22T09:01:28Z</time>
      </trkpt>
      <trkpt lat="59.08500937" lon="30.03074688">
        <ele>90.56</ele>
        <time>2026-04-22T09:01:37Z</time>
      </trkpt>
      <trkpt lat="59.08502873" lon="30.0305708">
        <ele>90.99</ele>
        <time>2026-04-22T09:01:45Z</time>
      </trkpt>
      <trkpt lat="59.08511252" lon="30.0304939">
        <ele>92.49</ele>
        <time>2026-04-22T09:01:55Z</time>
      </trkpt>
      <trkpt lat="59.08520114" lon="30.03043015">
        <ele>93.5</ele>
        <time>2026-04-22T09:02:05Z</time>
      </trkpt>
      <trkpt lat="59.08525021" lon="30.03027905">
        <ele>93.11</ele>
        <time>2026-04-22T09:02:17Z</time>
      </trkpt>
      <trkpt lat="59.0853302" lon="30.03018309">
        <ele>94.3</ele>
        <time>2026-04-22T09:02:29Z</time>
      </trkpt>
      <trkpt lat="59.08542539" lon="30.03023466">
        <ele>97.2</ele>
        <time>2026-04-22T09:02:44Z</time>
      </trkpt>
      <trkpt lat="59.08551733" lon="30.0302715">
        <ele>96.38</ele>
        <time>2026-04-22T09:02:56Z</time>
      </trkpt>
      <trkpt lat="59.08561355" lon="30.03023492">
        <ele>96.91</ele>
        <time>2026-04-22T09:03:10Z</time>
      </trkpt>
      <trkpt lat="59.08567974" lon="30.03010422">
        <ele>95.22</ele>
        <time>2026-04-22T09:03:21Z</time>
      </trkpt>
      <trkpt lat="59.08576522" lon="30.03016914">
        <ele>97.03</ele>
        <time>2026-04-22T09:03:45Z</time>
      </trkpt>
      <trkpt lat="59.08583962" lon="30.03005079">
        <ele>96.88</ele>
        <time>2026-04-22T09:03:54Z</time>
      </trkpt>
      <trkpt lat="59.08592664" lon="30.0299867">
        <ele>95.64</ele>
        <time>2026-04-22T09:04:04Z</time>
      </trkpt>
      <trkpt lat="59.08601652" lon="30.02998151">
        <ele>95.94</ele>
        <time>2026-04-22T09:04:14Z</time>
      </trkpt>
      <trkpt lat="59.08611149" lon="30.02996217">
        <ele>96.14</ele>
        <time>2026-04-22T09:04:25Z</time>
      </trkpt>
      <trkpt lat="59.08618021" lon="30.02982032">
        <ele>94.74</ele>
        <time>2026-04-22T09:04:35Z</time>
      </trkpt>
      <trkpt lat="59.08627546" lon="30.02983951">
        <ele>95.9</ele>
        <time>2026-04-22T09:04:45Z</time>
      </trkpt>
      <trkpt lat="59.08637598" lon="30.02983299">
        <ele>99.7</ele>
        <time>2026-04-22T09:04:56Z</time>
      </trkpt>
      <trkpt lat="59.0864711" lon="30.02987327">
        <ele>99.9</ele>
        <time>2026-04-22T09:05:07Z</time>
      </trkpt>
      <trkpt lat="59.08656292" lon="30.02985572">
        <ele>94.13</ele>
        <time>2026-04-22T09:05:19Z</time>
      </trkpt>
      <trkpt lat="59.08665327" lon="30.02983782">
        <ele>94.85</ele>
        <time>2026-04-22T09:05:29Z</time>
      </trkpt>
      <trkpt lat="59.08674218" lon="30.02987042">
        <ele>97.61</ele>
        <time>2026-04-22T09:05:42Z</time>
      </trkpt>
      <trkpt lat="59.08683472" lon="30.02980882">
        <ele>98.99</ele>
        <time>2026-04-22T09:05:54Z</time>
      </trkpt>
      <trkpt lat="59.08689762" lon="30.02967819">
        <ele>94.04</ele>
        <time>2026-04-22T09:06:06Z</time>
      </trkpt>
      <trkpt lat="59.08697992" lon="30.0295919">
        <ele>94.38</ele>
        <time>2026-04-22T09:06:17Z</time>
      </trkpt>
      <trkpt lat="59.08707073" lon="30.02954769">
        <ele>94.56</ele>
        <time>2026-04-22T09:06:27Z</time>
      </trkpt>
      <trkpt lat="59.08716391" lon="30.02957186">
        <ele>96.17</ele>
        <time>2026-04-22T09:06:35Z</time>
      </trkpt>
      <trkpt lat="59.08726076" lon="30.0295355">
        <ele>93.95</ele>
        <time>2026-04-22T09:06:44Z</time>
      </trkpt>
      <trkpt lat="59.08733203" lon="30.02942106">
        <ele>93.65</ele>
        <time>2026-04-22T09:06:53Z</time>
      </trkpt>
      <trkpt lat="59.08740511" lon="30.02929065">
        <ele>92.24</ele>
        <time>2026-04-22T09:07:01Z</time>
      </trkpt>
      <trkpt lat="59.08750912" lon="30.02932179">
        <ele>93.18</ele>
        <time>2026-04-22T09:07:11Z</time>
      </trkpt>
      <trkpt lat="59.08757836" lon="30.0294425">
        <ele>94.32</ele>
        <time>2026-04-22T09:07:21Z</time>
      </trkpt>
      <trkpt lat="59.08765848" lon="30.02933296">
        <ele>93.21</ele>
        <time>2026-04-22T09:07:30Z</time>
      </trkpt>
      <trkpt lat="59.08774799" lon="30.02927001">
        <ele>95.03</ele>
        <time>2026-04-22T09:08:10Z</time>
      </trkpt>
      <trkpt lat="59.08781999" lon="30.02915631">
        <ele>95.96</ele>
        <time>2026-04-22T09:08:20Z</time>
      </trkpt>
      <trkpt lat="59.08790808" lon="30.02910839">
        <ele>93.83</ele>
        <time>2026-04-22T09:08:29Z</time>
      </trkpt>
      <trkpt lat="59.08801123" lon="30.02909561">
        <ele>93.97</ele>
        <time>2026-04-22T09:08:37Z</time>
      </trkpt>
      <trkpt lat="59.08809668" lon="30.02902573">
        <ele>95.07</ele>
        <time>2026-04-22T09:08:43Z</time>
      </trkpt>
      <trkpt lat="59.08818557" lon="30.02899686">
        <ele>95</ele>
        <time>2026-04-22T09:08:53Z</time>
      </trkpt>
      <trkpt lat="59.08827075" lon="30.02893247">
        <ele>92.65</ele>
        <time>2026-04-22T09:09:06Z</time>
      </trkpt>
      <trkpt lat="59.08836533" lon="30.02895781">
        <ele>91.41</ele>
        <time>2026-04-22T09:09:16Z</time>
      </trkpt>
      <trkpt lat="59.08842484" lon="30.02880187">
        <ele>92.56</ele>
        <time>2026-04-22T09:09:29Z</time>
      </trkpt>
      <trkpt lat="59.0883432" lon="30.02869106">
        <ele>94.63</ele>
        <time>2026-04-22T09:10:11Z</time>
      </trkpt>
      <trkpt lat="59.08835387" lon="30.02850313">
        <ele>92.86</ele>
        <time>2026-04-22T09:10:24Z</time>
      </trkpt>
      <trkpt lat="59.08834747" lon="30.02832128">
        <ele>92.87</ele>
        <time>2026-04-22T09:10:34Z</time>
      </trkpt>
      <trkpt lat="59.08831386" lon="30.02814569">
        <ele>91.56</ele>
        <time>2026-04-22T09:10:45Z</time>
      </trkpt>
      <trkpt lat="59.08828948" lon="30.02796841">
        <ele>90.93</ele>
        <time>2026-04-22T09:10:53Z</time>
      </trkpt>
      <trkpt lat="59.08826317" lon="30.02779428">
        <ele>91.99</ele>
        <time>2026-04-22T09:11:00Z</time>
      </trkpt>
      <trkpt lat="59.08825584" lon="30.02768698">
        <ele>95.33</ele>
        <time>2026-04-22T09:13:01Z</time>
      </trkpt>
      <trkpt lat="59.08816681" lon="30.02772609">
        <ele>95.09</ele>
        <time>2026-04-22T09:13:58Z</time>
      </trkpt>
      <trkpt lat="59.08807479" lon="30.02768598">
        <ele>96.63</ele>
        <time>2026-04-22T09:14:07Z</time>
      </trkpt>
      <trkpt lat="59.08800712" lon="30.02781731">
        <ele>95.31</ele>
        <time>2026-04-22T09:14:17Z</time>
      </trkpt>
      <trkpt lat="59.08791695" lon="30.02782097">
        <ele>94.14</ele>
        <time>2026-04-22T09:14:25Z</time>
      </trkpt>
      <trkpt lat="59.0878231" lon="30.02780801">
        <ele>95.02</ele>
        <time>2026-04-22T09:14:36Z</time>
      </trkpt>
      <trkpt lat="59.08773471" lon="30.02787369">
        <ele>94.61</ele>
        <time>2026-04-22T09:14:46Z</time>
      </trkpt>
      <trkpt lat="59.087658" lon="30.02796611">
        <ele>95.14</ele>
        <time>2026-04-22T09:14:53Z</time>
      </trkpt>
      <trkpt lat="59.08756941" lon="30.02801236">
        <ele>92.99</ele>
        <time>2026-04-22T09:15:50Z</time>
      </trkpt>
      <trkpt lat="59.08748155" lon="30.02807313">
        <ele>96.56</ele>
        <time>2026-04-22T09:16:00Z</time>
      </trkpt>
      <trkpt lat="59.08739189" lon="30.02805745">
        <ele>94.98</ele>
        <time>2026-04-22T09:16:08Z</time>
      </trkpt>
      <trkpt lat="59.08730342" lon="30.02811929">
        <ele>95.27</ele>
        <time>2026-04-22T09:16:18Z</time>
      </trkpt>
      <trkpt lat="59.08720581" lon="30.02815693">
        <ele>96.74</ele>
        <time>2026-04-22T09:16:28Z</time>
      </trkpt>
      <trkpt lat="59.08711483" lon="30.02814526">
        <ele>93.64</ele>
        <time>2026-04-22T09:16:36Z</time>
      </trkpt>
      <trkpt lat="59.08702083" lon="30.0281598">
        <ele>92.69</ele>
        <time>2026-04-22T09:16:44Z</time>
      </trkpt>
      <trkpt lat="59.086938" lon="30.02823112">
        <ele>92.67</ele>
        <time>2026-04-22T09:16:52Z</time>
      </trkpt>
      <trkpt lat="59.08685264" lon="30.02832433">
        <ele>91.61</ele>
        <time>2026-04-22T09:16:59Z</time>
      </trkpt>
      <trkpt lat="59.08676102" lon="30.02836506">
        <ele>92.9</ele>
        <time>2026-04-22T09:17:07Z</time>
      </trkpt>
      <trkpt lat="59.08667386" lon="30.02830487">
        <ele>93.58</ele>
        <time>2026-04-22T09:17:17Z</time>
      </trkpt>
      <trkpt lat="59.08658605" lon="30.0283811">
        <ele>93.04</ele>
        <time>2026-04-22T09:17:25Z</time>
      </trkpt>
      <trkpt lat="59.0864905" lon="30.0284281">
        <ele>93.86</ele>
        <time>2026-04-22T09:17:34Z</time>
      </trkpt>
      <trkpt lat="59.08640236" lon="30.02848902">
        <ele>93.06</ele>
        <time>2026-04-22T09:17:43Z</time>
      </trkpt>
      <trkpt lat="59.08631665" lon="30.02842822">
        <ele>93.92</ele>
        <time>2026-04-22T09:17:51Z</time>
      </trkpt>
      <trkpt lat="59.08621853" lon="30.02844127">
        <ele>91.72</ele>
        <time>2026-04-22T09:18:00Z</time>
      </trkpt>
      <trkpt lat="59.08612731" lon="30.02845855">
        <ele>92.46</ele>
        <time>2026-04-22T09:18:28Z</time>
      </trkpt>
      <trkpt lat="59.08604677" lon="30.02855704">
        <ele>93.31</ele>
        <time>2026-04-22T09:18:37Z</time>
      </trkpt>
      <trkpt lat="59.0859567" lon="30.02856257">
        <ele>91.65</ele>
        <time>2026-04-22T09:18:48Z</time>
      </trkpt>
      <trkpt lat="59.08586746" lon="30.0285986">
        <ele>91.01</ele>
        <time>2026-04-22T09:19:00Z</time>
      </trkpt>
      <trkpt lat="59.08577261" lon="30.02865398">
        <ele>91.74</ele>
        <time>2026-04-22T09:19:08Z</time>
      </trkpt>
      <trkpt lat="59.08568208" lon="30.02863139">
        <ele>89.61</ele>
        <time>2026-04-22T09:19:15Z</time>
      </trkpt>
      <trkpt lat="59.08559116" lon="30.02864692">
        <ele>93.84</ele>
        <time>2026-04-22T09:19:27Z</time>
      </trkpt>
      <trkpt lat="59.08551149" lon="30.02873673">
        <ele>89.5</ele>
        <time>2026-04-22T09:20:26Z</time>
      </trkpt>
      <trkpt lat="59.08545224" lon="30.0288876">
        <ele>90.48</ele>
        <time>2026-04-22T09:20:35Z</time>
      </trkpt>
      <trkpt lat="59.08537836" lon="30.02900018">
        <ele>94.34</ele>
        <time>2026-04-22T09:20:44Z</time>
      </trkpt>
      <trkpt lat="59.08528285" lon="30.02899979">
        <ele>92.64</ele>
        <time>2026-04-22T09:20:57Z</time>
      </trkpt>
      <trkpt lat="59.08520056" lon="30.02892445">
        <ele>93.82</ele>
        <time>2026-04-22T09:21:19Z</time>
      </trkpt>
      <trkpt lat="59.08513826" lon="30.02877949">
        <ele>95.91</ele>
        <time>2026-04-22T09:21:32Z</time>
      </trkpt>
      <trkpt lat="59.08510461" lon="30.02861085">
        <ele>95.32</ele>
        <time>2026-04-22T09:21:48Z</time>
      </trkpt>
      <trkpt lat="59.08505758" lon="30.02845152">
        <ele>97.19</ele>
        <time>2026-04-22T09:22:01Z</time>
      </trkpt>
      <trkpt lat="59.08497869" lon="30.02836622">
        <ele>95.3</ele>
        <time>2026-04-22T09:22:13Z</time>
      </trkpt>
      <trkpt lat="59.08495281" lon="30.02819384">
        <ele>93.8</ele>
        <time>2026-04-22T09:22:27Z</time>
      </trkpt>
      <trkpt lat="59.08490619" lon="30.02803542">
        <ele>93.71</ele>
        <time>2026-04-22T09:22:44Z</time>
      </trkpt>
      <trkpt lat="59.08491147" lon="30.02785803">
        <ele>96.39</ele>
        <time>2026-04-22T09:23:01Z</time>
      </trkpt>
      <trkpt lat="59.08493396" lon="30.02768358">
        <ele>93.15</ele>
        <time>2026-04-22T09:23:18Z</time>
      </trkpt>
      <trkpt lat="59.08489503" lon="30.02750845">
        <ele>92.05</ele>
        <time>2026-04-22T09:23:34Z</time>
      </trkpt>
      <trkpt lat="59.08497802" lon="30.0275807">
        <ele>89.31</ele>
        <time>2026-04-22T09:24:22Z</time>
      </trkpt>
      <trkpt lat="59.08506561" lon="30.02750269">
        <ele>89.82</ele>
        <time>2026-04-22T09:24:35Z</time>
      </trkpt>
      <trkpt lat="59.08515873" lon="30.02745968">
        <ele>88.61</ele>
        <time>2026-04-22T09:24:51Z</time>
      </trkpt>
      <trkpt lat="59.08524949" lon="30.02741128">
        <ele>91.13</ele>
        <time>2026-04-22T09:25:03Z</time>
      </trkpt>
      <trkpt lat="59.08534631" lon="30.02741663">
        <ele>92.62</ele>
        <time>2026-04-22T09:25:14Z</time>
      </trkpt>
      <trkpt lat="59.08540282" lon="30.02727674">
        <ele>89.66</ele>
        <time>2026-04-22T09:25:26Z</time>
      </trkpt>
      <trkpt lat="59.08549209" lon="30.02732468">
        <ele>88.35</ele>
        <time>2026-04-22T09:25:47Z</time>
      </trkpt>
      <trkpt lat="59.08558274" lon="30.02728315">
        <ele>90.2</ele>
        <time>2026-04-22T09:25:56Z</time>
      </trkpt>
      <trkpt lat="59.08568183" lon="30.02724869">
        <ele>91.7</ele>
        <time>2026-04-22T09:26:07Z</time>
      </trkpt>
      <trkpt lat="59.08577448" lon="30.02719828">
        <ele>91.48</ele>
        <time>2026-04-22T09:26:18Z</time>
      </trkpt>
      <trkpt lat="59.08586194" lon="30.0271204">
        <ele>92.95</ele>
        <time>2026-04-22T09:26:27Z</time>
      </trkpt>
      <trkpt lat="59.08595369" lon="30.02709461">
        <ele>92.67</ele>
        <time>2026-04-22T09:26:37Z</time>
      </trkpt>
      <trkpt lat="59.08602982" lon="30.02699803">
        <ele>90.79</ele>
        <time>2026-04-22T09:26:47Z</time>
      </trkpt>
      <trkpt lat="59.08612054" lon="30.02705379">
        <ele>95.14</ele>
        <time>2026-04-22T09:27:02Z</time>
      </trkpt>
      <trkpt lat="59.08621695" lon="30.02706055">
        <ele>96.81</ele>
        <time>2026-04-22T09:27:14Z</time>
      </trkpt>
      <trkpt lat="59.08630023" lon="30.02696567">
        <ele>94.51</ele>
        <time>2026-04-22T09:27:27Z</time>
      </trkpt>
      <trkpt lat="59.08638327" lon="30.02688184">
        <ele>93.26</ele>
        <time>2026-04-22T09:27:40Z</time>
      </trkpt>
      <trkpt lat="59.08647007" lon="30.02681694">
        <ele>93.48</ele>
        <time>2026-04-22T09:27:50Z</time>
      </trkpt>
      <trkpt lat="59.08655787" lon="30.02676998">
        <ele>91.46</ele>
        <time>2026-04-22T09:28:00Z</time>
      </trkpt>
      <trkpt lat="59.08665035" lon="30.02672762">
        <ele>92.72</ele>
        <time>2026-04-22T09:28:10Z</time>
      </trkpt>
      <trkpt lat="59.08673179" lon="30.02664866">
        <ele>93.63</ele>
        <time>2026-04-22T09:28:22Z</time>
      </trkpt>
      <trkpt lat="59.08682256" lon="30.02659619">
        <ele>91.68</ele>
        <time>2026-04-22T09:28:43Z</time>
      </trkpt>
      <trkpt lat="59.0868862" lon="30.02644912">
        <ele>91.1</ele>
        <time>2026-04-22T09:28:56Z</time>
      </trkpt>
      <trkpt lat="59.08693484" lon="30.02628636">
        <ele>90.46</ele>
        <time>2026-04-22T09:29:06Z</time>
      </trkpt>
      <trkpt lat="59.08696622" lon="30.02612181">
        <ele>90</ele>
        <time>2026-04-22T09:29:14Z</time>
      </trkpt>
      <trkpt lat="59.08699755" lon="30.02629963">
        <ele>92.75</ele>
        <time>2026-04-22T09:30:25Z</time>
      </trkpt>
      <trkpt lat="59.08696068" lon="30.02647573">
        <ele>92.9</ele>
        <time>2026-04-22T09:30:34Z</time>
      </trkpt>
      <trkpt lat="59.08699605" lon="30.02664625">
        <ele>93.31</ele>
        <time>2026-04-22T09:30:43Z</time>
      </trkpt>
      <trkpt lat="59.08708859" lon="30.02661543">
        <ele>92.2</ele>
        <time>2026-04-22T09:30:57Z</time>
      </trkpt>
      <trkpt lat="59.08717893" lon="30.0265605">
        <ele>90.51</ele>
        <time>2026-04-22T09:31:07Z</time>
      </trkpt>
      <trkpt lat="59.08727797" lon="30.02653031">
        <ele>89.05</ele>
        <time>2026-04-22T09:31:18Z</time>
      </trkpt>
      <trkpt lat="59.08737007" lon="30.02648431">
        <ele>88.88</ele>
        <time>2026-04-22T09:31:27Z</time>
      </trkpt>
      <trkpt lat="59.08745844" lon="30.02643327">
        <ele>87.1</ele>
        <time>2026-04-22T09:31:35Z</time>
      </trkpt>
      <trkpt lat="59.087548" lon="30.02639391">
        <ele>85.74</ele>
        <time>2026-04-22T09:31:43Z</time>
      </trkpt>
      <trkpt lat="59.0876455" lon="30.02637456">
        <ele>87.16</ele>
        <time>2026-04-22T09:31:52Z</time>
      </trkpt>
      <trkpt lat="59.08774719" lon="30.02638053">
        <ele>86.49</ele>
        <time>2026-04-22T09:32:01Z</time>
      </trkpt>
      <trkpt lat="59.08783611" lon="30.02633739">
        <ele>86.35</ele>
        <time>2026-04-22T09:32:09Z</time>
      </trkpt>
      <trkpt lat="59.08793753" lon="30.02630883">
        <ele>86.83</ele>
        <time>2026-04-22T09:32:18Z</time>
      </trkpt>
      <trkpt lat="59.08803332" lon="30.02627735">
        <ele>89.2</ele>
        <time>2026-04-22T09:32:26Z</time>
      </trkpt>
      <trkpt lat="59.08812258" lon="30.02621355">
        <ele>92.44</ele>
        <time>2026-04-22T09:32:44Z</time>
      </trkpt>
      <trkpt lat="59.08819052" lon="30.02609555">
        <ele>93.68</ele>
        <time>2026-04-22T09:33:35Z</time>
      </trkpt>
      <trkpt lat="59.08814839" lon="30.02593448">
        <ele>94.25</ele>
        <time>2026-04-22T09:33:44Z</time>
      </trkpt>
      <trkpt lat="59.08807745" lon="30.02581469">
        <ele>93.08</ele>
        <time>2026-04-22T09:33:53Z</time>
      </trkpt>
      <trkpt lat="59.08808995" lon="30.02563427">
        <ele>91.81</ele>
        <time>2026-04-22T09:34:02Z</time>
      </trkpt>
      <trkpt lat="59.08809535" lon="30.02545816">
        <ele>92.81</ele>
        <time>2026-04-22T09:34:12Z</time>
      </trkpt>
      <trkpt lat="59.08805956" lon="30.02528982">
        <ele>93.64</ele>
        <time>2026-04-22T09:34:21Z</time>
      </trkpt>
      <trkpt lat="59.08803581" lon="30.02510984">
        <ele>92.29</ele>
        <time>2026-04-22T09:34:34Z</time>
      </trkpt>
      <trkpt lat="59.08800275" lon="30.02493623">
        <ele>92.67</ele>
        <time>2026-04-22T09:35:31Z</time>
      </trkpt>
      <trkpt lat="59.08796942" lon="30.02477149">
        <ele>90.3</ele>
        <time>2026-04-22T09:36:43Z</time>
      </trkpt>
      <trkpt lat="59.08798262" lon="30.02477651">
        <ele>88.54</ele>
        <time>2026-04-22T09:38:44Z</time>
      </trkpt>
      <trkpt lat="59.08797025" lon="30.02475625">
        <ele>89.07</ele>
        <time>2026-04-22T09:40:45Z</time>
      </trkpt>
      <trkpt lat="59.08788894" lon="30.02485368">
        <ele>90.19</ele>
        <time>2026-04-22T09:42:33Z</time>
      </trkpt>
      <trkpt lat="59.08778938" lon="30.0248556">
        <ele>90.72</ele>
        <time>2026-04-22T09:42:52Z</time>
      </trkpt>
      <trkpt lat="59.08770614" lon="30.02495546">
        <ele>92.38</ele>
        <time>2026-04-22T09:43:02Z</time>
      </trkpt>
      <trkpt lat="59.08761248" lon="30.02498918">
        <ele>93.15</ele>
        <time>2026-04-22T09:43:12Z</time>
      </trkpt>
      <trkpt lat="59.08752621" lon="30.02504465">
        <ele>93.32</ele>
        <time>2026-04-22T09:43:26Z</time>
      </trkpt>
      <trkpt lat="59.08743939" lon="30.02512657">
        <ele>93.44</ele>
        <time>2026-04-22T09:43:35Z</time>
      </trkpt>
      <trkpt lat="59.0873546" lon="30.02520254">
        <ele>93.21</ele>
        <time>2026-04-22T09:43:51Z</time>
      </trkpt>
      <trkpt lat="59.08727006" lon="30.02514163">
        <ele>94.9</ele>
        <time>2026-04-22T09:44:05Z</time>
      </trkpt>
      <trkpt lat="59.08717258" lon="30.02515364">
        <ele>92.31</ele>
        <time>2026-04-22T09:44:16Z</time>
      </trkpt>
      <trkpt lat="59.08711281" lon="30.0252985">
        <ele>93.76</ele>
        <time>2026-04-22T09:44:24Z</time>
      </trkpt>
      <trkpt lat="59.08701875" lon="30.02535302">
        <ele>94.05</ele>
        <time>2026-04-22T09:44:42Z</time>
      </trkpt>
      <trkpt lat="59.08692721" lon="30.02534728">
        <ele>93.99</ele>
        <time>2026-04-22T09:44:51Z</time>
      </trkpt>
      <trkpt lat="59.08682971" lon="30.02534681">
        <ele>93.48</ele>
        <time>2026-04-22T09:45:01Z</time>
      </trkpt>
      <trkpt lat="59.08673967" lon="30.02534357">
        <ele>94.27</ele>
        <time>2026-04-22T09:45:11Z</time>
      </trkpt>
      <trkpt lat="59.08665624" lon="30.02542227">
        <ele>95.16</ele>
        <time>2026-04-22T09:45:20Z</time>
      </trkpt>
      <trkpt lat="59.08656462" lon="30.025495">
        <ele>93.32</ele>
        <time>2026-04-22T09:45:31Z</time>
      </trkpt>
      <trkpt lat="59.08648715" lon="30.0255833">
        <ele>93.35</ele>
        <time>2026-04-22T09:45:40Z</time>
      </trkpt>
      <trkpt lat="59.0864007" lon="30.02563498">
        <ele>92.35</ele>
        <time>2026-04-22T09:45:50Z</time>
      </trkpt>
      <trkpt lat="59.08630305" lon="30.02568931">
        <ele>90.92</ele>
        <time>2026-04-22T09:46:01Z</time>
      </trkpt>
      <trkpt lat="59.08621786" lon="30.02576436">
        <ele>90.02</ele>
        <time>2026-04-22T09:46:10Z</time>
      </trkpt>
      <trkpt lat="59.08615825" lon="30.02562882">
        <ele>90.09</ele>
        <time>2026-04-22T09:46:23Z</time>
      </trkpt>
      <trkpt lat="59.0860667" lon="30.02562332">
        <ele>90.78</ele>
        <time>2026-04-22T09:46:39Z</time>
      </trkpt>
      <trkpt lat="59.085982" lon="30.02569223">
        <ele>91.3</ele>
        <time>2026-04-22T09:46:52Z</time>
      </trkpt>
      <trkpt lat="59.08589264" lon="30.02575935">
        <ele>91.07</ele>
        <time>2026-04-22T09:47:03Z</time>
      </trkpt>
      <trkpt lat="59.08579654" lon="30.0257765">
        <ele>90.91</ele>
        <time>2026-04-22T09:47:15Z</time>
      </trkpt>
      <trkpt lat="59.085705" lon="30.02585178">
        <ele>89.23</ele>
        <time>2026-04-22T09:47:24Z</time>
      </trkpt>
      <trkpt lat="59.08561243" lon="30.02588051">
        <ele>89.41</ele>
        <time>2026-04-22T09:47:33Z</time>
      </trkpt>
      <trkpt lat="59.08551622" lon="30.02589482">
        <ele>90.59</ele>
        <time>2026-04-22T09:47:41Z</time>
      </trkpt>
      <trkpt lat="59.08542902" lon="30.02597748">
        <ele>91.11</ele>
        <time>2026-04-22T09:47:49Z</time>
      </trkpt>
      <trkpt lat="59.08533581" lon="30.0260266">
        <ele>93.52</ele>
        <time>2026-04-22T09:47:58Z</time>
      </trkpt>
      <trkpt lat="59.08524466" lon="30.02603856">
        <ele>89.78</ele>
        <time>2026-04-22T09:48:40Z</time>
      </trkpt>
      <trkpt lat="59.08515152" lon="30.02604916">
        <ele>87.89</ele>
        <time>2026-04-22T09:48:56Z</time>
      </trkpt>
      <trkpt lat="59.08506051" lon="30.02608637">
        <ele>87.05</ele>
        <time>2026-04-22T09:49:07Z</time>
      </trkpt>
      <trkpt lat="59.08497479" lon="30.02614751">
        <ele>88.43</ele>
        <time>2026-04-22T09:49:20Z</time>
      </trkpt>
      <trkpt lat="59.08489029" lon="30.02620963">
        <ele>87.37</ele>
        <time>2026-04-22T09:49:34Z</time>
      </trkpt>
      <trkpt lat="59.08480137" lon="30.02623776">
        <ele>88.99</ele>
        <time>2026-04-22T09:49:46Z</time>
      </trkpt>
      <trkpt lat="59.08471887" lon="30.02631314">
        <ele>88.58</ele>
        <time>2026-04-22T09:49:58Z</time>
      </trkpt>
      <trkpt lat="59.08462366" lon="30.02631449">
        <ele>90.24</ele>
        <time>2026-04-22T09:50:09Z</time>
      </trkpt>
      <trkpt lat="59.08454223" lon="30.02640844">
        <ele>91.21</ele>
        <time>2026-04-22T09:50:20Z</time>
      </trkpt>
      <trkpt lat="59.08446097" lon="30.02648982">
        <ele>92.83</ele>
        <time>2026-04-22T09:50:35Z</time>
      </trkpt>
      <trkpt lat="59.08436368" lon="30.02649133">
        <ele>95.37</ele>
        <time>2026-04-22T09:50:46Z</time>
      </trkpt>
      <trkpt lat="59.08433594" lon="30.02631986">
        <ele>93.39</ele>
        <time>2026-04-22T09:51:07Z</time>
      </trkpt>
      <trkpt lat="59.0842665" lon="30.02619007">
        <ele>92.14</ele>
        <time>2026-04-22T09:51:22Z</time>
      </trkpt>
      <trkpt lat="59.08426602" lon="30.02601369">
        <ele>92.75</ele>
        <time>2026-04-22T09:51:31Z</time>
      </trkpt>
      <trkpt lat="59.08420525" lon="30.02587191">
        <ele>91.93</ele>
        <time>2026-04-22T09:51:42Z</time>
      </trkpt>
      <trkpt lat="59.08414301" lon="30.02574611">
        <ele>91.04</ele>
        <time>2026-04-22T09:51:53Z</time>
      </trkpt>
      <trkpt lat="59.08409983" lon="30.02559116">
        <ele>91.21</ele>
        <time>2026-04-22T09:52:04Z</time>
      </trkpt>
      <trkpt lat="59.08405122" lon="30.02542836">
        <ele>91.49</ele>
        <time>2026-04-22T09:52:14Z</time>
      </trkpt>
      <trkpt lat="59.08398822" lon="30.0252953">
        <ele>91.12</ele>
        <time>2026-04-22T09:52:25Z</time>
      </trkpt>
      <trkpt lat="59.08394633" lon="30.0251275">
        <ele>89.72</ele>
        <time>2026-04-22T09:52:37Z</time>
      </trkpt>
      <trkpt lat="59.08404207" lon="30.02511543">
        <ele>90.98</ele>
        <time>2026-04-22T09:53:18Z</time>
      </trkpt>
      <trkpt lat="59.08413" lon="30.02506539">
        <ele>92.73</ele>
        <time>2026-04-22T09:53:30Z</time>
      </trkpt>
      <trkpt lat="59.08422101" lon="30.02500666">
        <ele>91.98</ele>
        <time>2026-04-22T09:53:41Z</time>
      </trkpt>
      <trkpt lat="59.08431719" lon="30.02499975">
        <ele>91.99</ele>
        <time>2026-04-22T09:53:54Z</time>
      </trkpt>
      <trkpt lat="59.0843963" lon="30.02490952">
        <ele>92.32</ele>
        <time>2026-04-22T09:54:39Z</time>
      </trkpt>
      <trkpt lat="59.0844756" lon="30.0248112">
        <ele>90.89</ele>
        <time>2026-04-22T09:54:51Z</time>
      </trkpt>
      <trkpt lat="59.08456805" lon="30.02478291">
        <ele>89.68</ele>
        <time>2026-04-22T09:55:00Z</time>
      </trkpt>
      <trkpt lat="59.08464938" lon="30.02470329">
        <ele>88.75</ele>
        <time>2026-04-22T09:55:09Z</time>
      </trkpt>
      <trkpt lat="59.08474037" lon="30.02470439">
        <ele>87.27</ele>
        <time>2026-04-22T09:55:48Z</time>
      </trkpt>
      <trkpt lat="59.08483014" lon="30.02466686">
        <ele>87.68</ele>
        <time>2026-04-22T09:56:12Z</time>
      </trkpt>
      <trkpt lat="59.08487639" lon="30.02451114">
        <ele>90.73</ele>
        <time>2026-04-22T09:56:23Z</time>
      </trkpt>
      <trkpt lat="59.0849643" lon="30.02456297">
        <ele>89.13</ele>
        <time>2026-04-22T09:56:33Z</time>
      </trkpt>
      <trkpt lat="59.08505928" lon="30.02454755">
        <ele>89.91</ele>
        <time>2026-04-22T09:56:43Z</time>
      </trkpt>
      <trkpt lat="59.08515222" lon="30.0245728">
        <ele>88.98</ele>
        <time>2026-04-22T09:57:21Z</time>
      </trkpt>
      <trkpt lat="59.08524343" lon="30.0246006">
        <ele>88.26</ele>
        <time>2026-04-22T09:57:31Z</time>
      </trkpt>
      <trkpt lat="59.08532606" lon="30.02451136">
        <ele>86.17</ele>
        <time>2026-04-22T09:57:40Z</time>
      </trkpt>
      <trkpt lat="59.08541088" lon="30.02441911">
        <ele>87.11</ele>
        <time>2026-04-22T09:57:49Z</time>
      </trkpt>
      <trkpt lat="59.08548593" lon="30.02432157">
        <ele>86.42</ele>
        <time>2026-04-22T09:57:58Z</time>
      </trkpt>
      <trkpt lat="59.08557771" lon="30.0243217">
        <ele>88.73</ele>
        <time>2026-04-22T09:58:08Z</time>
      </trkpt>
      <trkpt lat="59.08567752" lon="30.02429734">
        <ele>88.48</ele>
        <time>2026-04-22T09:58:18Z</time>
      </trkpt>
      <trkpt lat="59.08577147" lon="30.024249">
        <ele>90.29</ele>
        <time>2026-04-22T09:58:27Z</time>
      </trkpt>
      <trkpt lat="59.08584797" lon="30.02414863">
        <ele>90.28</ele>
        <time>2026-04-22T09:58:36Z</time>
      </trkpt>
      <trkpt lat="59.08593801" lon="30.02412771">
        <ele>88.93</ele>
        <time>2026-04-22T09:58:46Z</time>
      </trkpt>
      <trkpt lat="59.08603263" lon="30.02408677">
        <ele>92.46</ele>
        <time>2026-04-22T09:58:57Z</time>
      </trkpt>
      <trkpt lat="59.08612587" lon="30.02407699">
        <ele>96.45</ele>
        <time>2026-04-22T09:59:03Z</time>
      </trkpt>
      <trkpt lat="59.08621413" lon="30.02402622">
        <ele>103.83</ele>
        <time>2026-04-22T09:59:08Z</time>
      </trkpt>
      <trkpt lat="59.08630346" lon="30.02399622">
        <ele>94.58</ele>
        <time>2026-04-22T10:00:19Z</time>
      </trkpt>
      <trkpt lat="59.08639265" lon="30.02394016">
        <ele>94.2</ele>
        <time>2026-04-22T10:00:30Z</time>
      </trkpt>
      <trkpt lat="59.08648334" lon="30.02387608">
        <ele>90.62</ele>
        <time>2026-04-22T10:00:41Z</time>
      </trkpt>
      <trkpt lat="59.08657337" lon="30.02389364">
        <ele>91.18</ele>
        <time>2026-04-22T10:00:52Z</time>
      </trkpt>
      <trkpt lat="59.08666389" lon="30.02388394">
        <ele>89.91</ele>
        <time>2026-04-22T10:01:00Z</time>
      </trkpt>
      <trkpt lat="59.08675322" lon="30.02381074">
        <ele>88.55</ele>
        <time>2026-04-22T10:01:11Z</time>
      </trkpt>
      <trkpt lat="59.08684625" lon="30.02377595">
        <ele>86.29</ele>
        <time>2026-04-22T10:01:38Z</time>
      </trkpt>
      <trkpt lat="59.08692854" lon="30.02386388">
        <ele>89.39</ele>
        <time>2026-04-22T10:02:15Z</time>
      </trkpt>
      <trkpt lat="59.08702127" lon="30.02382924">
        <ele>90.53</ele>
        <time>2026-04-22T10:02:34Z</time>
      </trkpt>
      <trkpt lat="59.08709479" lon="30.02370815">
        <ele>93.13</ele>
        <time>2026-04-22T10:02:49Z</time>
      </trkpt>
      <trkpt lat="59.08718105" lon="30.02364137">
        <ele>93.8</ele>
        <time>2026-04-22T10:03:13Z</time>
      </trkpt>
      <trkpt lat="59.08724742" lon="30.0235104">
        <ele>94.91</ele>
        <time>2026-04-22T10:03:28Z</time>
      </trkpt>
      <trkpt lat="59.08734699" lon="30.02352365">
        <ele>93.52</ele>
        <time>2026-04-22T10:03:42Z</time>
      </trkpt>
      <trkpt lat="59.08743871" lon="30.02353149">
        <ele>93.07</ele>
        <time>2026-04-22T10:03:54Z</time>
      </trkpt>
      <trkpt lat="59.0875215" lon="30.0234496">
        <ele>93.65</ele>
        <time>2026-04-22T10:04:03Z</time>
      </trkpt>
      <trkpt lat="59.08761703" lon="30.02341804">
        <ele>93.17</ele>
        <time>2026-04-22T10:04:15Z</time>
      </trkpt>
      <trkpt lat="59.08771354" lon="30.02339952">
        <ele>93.7</ele>
        <time>2026-04-22T10:04:26Z</time>
      </trkpt>
      <trkpt lat="59.08780768" lon="30.02338962">
        <ele>93.43</ele>
        <time>2026-04-22T10:04:39Z</time>
      </trkpt>
      <trkpt lat="59.08781413" lon="30.02329912">
        <ele>89.73</ele>
        <time>2026-04-22T10:06:40Z</time>
      </trkpt>
      <trkpt lat="59.08783127" lon="30.02337805">
        <ele>89.08</ele>
        <time>2026-04-22T10:08:41Z</time>
      </trkpt>
      <trkpt lat="59.08783605" lon="30.02335645">
        <ele>91.71</ele>
        <time>2026-04-22T10:10:42Z</time>
      </trkpt>
      <trkpt lat="59.08782082" lon="30.02335219">
        <ele>93.06</ele>
        <time>2026-04-22T10:12:43Z</time>
      </trkpt>
      <trkpt lat="59.08782986" lon="30.02337119">
        <ele>93.1</ele>
        <time>2026-04-22T10:14:44Z</time>
      </trkpt>
      <trkpt lat="59.08782797" lon="30.02338001">
        <ele>92.88</ele>
        <time>2026-04-22T10:16:45Z</time>
      </trkpt>
      <trkpt lat="59.08783905" lon="30.02319262">
        <ele>93.96</ele>
        <time>2026-04-22T10:17:55Z</time>
      </trkpt>
      <trkpt lat="59.08783784" lon="30.02301727">
        <ele>94.39</ele>
        <time>2026-04-22T10:18:06Z</time>
      </trkpt>
      <trkpt lat="59.0878105" lon="30.02284864">
        <ele>92.83</ele>
        <time>2026-04-22T10:18:16Z</time>
      </trkpt>
      <trkpt lat="59.08778818" lon="30.02266542">
        <ele>92.81</ele>
        <time>2026-04-22T10:18:27Z</time>
      </trkpt>
      <trkpt lat="59.08778629" lon="30.02247354">
        <ele>92.86</ele>
        <time>2026-04-22T10:18:38Z</time>
      </trkpt>
      <trkpt lat="59.08778082" lon="30.02229815">
        <ele>94.31</ele>
        <time>2026-04-22T10:18:49Z</time>
      </trkpt>
      <trkpt lat="59.08775669" lon="30.02211269">
        <ele>97.45</ele>
        <time>2026-04-22T10:19:02Z</time>
      </trkpt>
      <trkpt lat="59.08767899" lon="30.02200468">
        <ele>93.98</ele>
        <time>2026-04-22T10:19:18Z</time>
      </trkpt>
      <trkpt lat="59.08758366" lon="30.02204145">
        <ele>93.52</ele>
        <time>2026-04-22T10:19:29Z</time>
      </trkpt>
      <trkpt lat="59.08748399" lon="30.02206008">
        <ele>93.89</ele>
        <time>2026-04-22T10:19:38Z</time>
      </trkpt>
      <trkpt lat="59.08738528" lon="30.02204945">
        <ele>95.62</ele>
        <time>2026-04-22T10:19:48Z</time>
      </trkpt>
      <trkpt lat="59.0872932" lon="30.02208251">
        <ele>94.92</ele>
        <time>2026-04-22T10:19:56Z</time>
      </trkpt>
      <trkpt lat="59.08720653" lon="30.0221289">
        <ele>94.41</ele>
        <time>2026-04-22T10:20:06Z</time>
      </trkpt>
      <trkpt lat="59.08714785" lon="30.02227559">
        <ele>92.5</ele>
        <time>2026-04-22T10:20:17Z</time>
      </trkpt>
      <trkpt lat="59.08707453" lon="30.02239981">
        <ele>95.51</ele>
        <time>2026-04-22T10:20:27Z</time>
      </trkpt>
      <trkpt lat="59.0869774" lon="30.02237446">
        <ele>94.95</ele>
        <time>2026-04-22T10:20:38Z</time>
      </trkpt>
      <trkpt lat="59.08688486" lon="30.02237968">
        <ele>92.9</ele>
        <time>2026-04-22T10:20:49Z</time>
      </trkpt>
      <trkpt lat="59.08679996" lon="30.0224434">
        <ele>93.76</ele>
        <time>2026-04-22T10:20:59Z</time>
      </trkpt>
      <trkpt lat="59.08670834" lon="30.02248591">
        <ele>92.42</ele>
        <time>2026-04-22T10:21:07Z</time>
      </trkpt>
      <trkpt lat="59.08663296" lon="30.02259679">
        <ele>91.63</ele>
        <time>2026-04-22T10:21:16Z</time>
      </trkpt>
      <trkpt lat="59.08654355" lon="30.02255105">
        <ele>95.34</ele>
        <time>2026-04-22T10:21:25Z</time>
      </trkpt>
      <trkpt lat="59.08644961" lon="30.02250947">
        <ele>95.38</ele>
        <time>2026-04-22T10:21:35Z</time>
      </trkpt>
      <trkpt lat="59.08635161" lon="30.02252779">
        <ele>95.08</ele>
        <time>2026-04-22T10:21:45Z</time>
      </trkpt>
      <trkpt lat="59.08625306" lon="30.02254435">
        <ele>93.65</ele>
        <time>2026-04-22T10:21:55Z</time>
      </trkpt>
      <trkpt lat="59.08615815" lon="30.0225712">
        <ele>93.96</ele>
        <time>2026-04-22T10:22:05Z</time>
      </trkpt>
      <trkpt lat="59.08608294" lon="30.02267111">
        <ele>93.88</ele>
        <time>2026-04-22T10:22:15Z</time>
      </trkpt>
      <trkpt lat="59.0859913" lon="30.02273006">
        <ele>95.64</ele>
        <time>2026-04-22T10:22:26Z</time>
      </trkpt>
      <trkpt lat="59.08590608" lon="30.02280617">
        <ele>95.52</ele>
        <time>2026-04-22T10:22:36Z</time>
      </trkpt>
      <trkpt lat="59.08581161" lon="30.02282443">
        <ele>97.6</ele>
        <time>2026-04-22T10:22:47Z</time>
      </trkpt>
      <trkpt lat="59.08572232" lon="30.0228605">
        <ele>97.52</ele>
        <time>2026-04-22T10:22:54Z</time>
      </trkpt>
      <trkpt lat="59.08562796" lon="30.02287577">
        <ele>97.67</ele>
        <time>2026-04-22T10:23:04Z</time>
      </trkpt>
      <trkpt lat="59.08553717" lon="30.02291208">
        <ele>97.72</ele>
        <time>2026-04-22T10:23:12Z</time>
      </trkpt>
      <trkpt lat="59.08544595" lon="30.02295914">
        <ele>95.93</ele>
        <time>2026-04-22T10:23:21Z</time>
      </trkpt>
      <trkpt lat="59.08535048" lon="30.0230064">
        <ele>94.54</ele>
        <time>2026-04-22T10:23:32Z</time>
      </trkpt>
      <trkpt lat="59.08526311" lon="30.02308201">
        <ele>94.16</ele>
        <time>2026-04-22T10:23:40Z</time>
      </trkpt>
      <trkpt lat="59.085179" lon="30.02314778">
        <ele>93.47</ele>
        <time>2026-04-22T10:23:50Z</time>
      </trkpt>
      <trkpt lat="59.08509028" lon="30.0230969">
        <ele>93.04</ele>
        <time>2026-04-22T10:24:00Z</time>
      </trkpt>
      <trkpt lat="59.08501262" lon="30.02300394">
        <ele>92.52</ele>
        <time>2026-04-22T10:24:08Z</time>
      </trkpt>
      <trkpt lat="59.08492497" lon="30.02304634">
        <ele>93.75</ele>
        <time>2026-04-22T10:24:15Z</time>
      </trkpt>
      <trkpt lat="59.08484644" lon="30.02316889">
        <ele>94.24</ele>
        <time>2026-04-22T10:24:20Z</time>
      </trkpt>
      <trkpt lat="59.08476213" lon="30.02325678">
        <ele>99.73</ele>
        <time>2026-04-22T10:24:25Z</time>
      </trkpt>
      <trkpt lat="59.08466337" lon="30.02326735">
        <ele>91.98</ele>
        <time>2026-04-22T10:25:32Z</time>
      </trkpt>
      <trkpt lat="59.08457728" lon="30.02336393">
        <ele>91.96</ele>
        <time>2026-04-22T10:25:42Z</time>
      </trkpt>
      <trkpt lat="59.08452127" lon="30.02352669">
        <ele>92.3</ele>
        <time>2026-04-22T10:25:54Z</time>
      </trkpt>
      <trkpt lat="59.08445715" lon="30.02365674">
        <ele>90.95</ele>
        <time>2026-04-22T10:26:03Z</time>
      </trkpt>
      <trkpt lat="59.08439953" lon="30.02350811">
        <ele>91.89</ele>
        <time>2026-04-22T10:26:13Z</time>
      </trkpt>
      <trkpt lat="59.08433708" lon="30.02337688">
        <ele>93.51</ele>
        <time>2026-04-22T10:26:27Z</time>
      </trkpt>
      <trkpt lat="59.08425492" lon="30.02329095">
        <ele>94.44</ele>
        <time>2026-04-22T10:26:44Z</time>
      </trkpt>
      <trkpt lat="59.08416382" lon="30.02329281">
        <ele>92.72</ele>
        <time>2026-04-22T10:27:03Z</time>
      </trkpt>
      <trkpt lat="59.08407465" lon="30.02336124">
        <ele>92.56</ele>
        <time>2026-04-22T10:27:17Z</time>
      </trkpt>
      <trkpt lat="59.08398595" lon="30.02342524">
        <ele>92.35</ele>
        <time>2026-04-22T10:27:38Z</time>
      </trkpt>
      <trkpt lat="59.08392288" lon="30.0235505">
        <ele>93.25</ele>
        <time>2026-04-22T10:27:56Z</time>
      </trkpt>
      <trkpt lat="59.08382896" lon="30.02354807">
        <ele>91.55</ele>
        <time>2026-04-22T10:28:08Z</time>
      </trkpt>
      <trkpt lat="59.08373594" lon="30.02358471">
        <ele>91.94</ele>
        <time>2026-04-22T10:28:19Z</time>
      </trkpt>
      <trkpt lat="59.08365782" lon="30.02369817">
        <ele>94.15</ele>
        <time>2026-04-22T10:28:31Z</time>
      </trkpt>
      <trkpt lat="59.08356383" lon="30.02373584">
        <ele>94.51</ele>
        <time>2026-04-22T10:28:43Z</time>
      </trkpt>
      <trkpt lat="59.08347312" lon="30.02378254">
        <ele>93.8</ele>
        <time>2026-04-22T10:28:54Z</time>
      </trkpt>
      <trkpt lat="59.08339753" lon="30.02389187">
        <ele>93.74</ele>
        <time>2026-04-22T10:29:07Z</time>
      </trkpt>
      <trkpt lat="59.08330581" lon="30.02393159">
        <ele>94.57</ele>
        <time>2026-04-22T10:29:18Z</time>
      </trkpt>
      <trkpt lat="59.08322566" lon="30.02383568">
        <ele>93.97</ele>
        <time>2026-04-22T10:29:29Z</time>
      </trkpt>
      <trkpt lat="59.08313107" lon="30.0237892">
        <ele>91.87</ele>
        <time>2026-04-22T10:29:39Z</time>
      </trkpt>
      <trkpt lat="59.08303755" lon="30.02379348">
        <ele>91.86</ele>
        <time>2026-04-22T10:29:49Z</time>
      </trkpt>
      <trkpt lat="59.08294629" lon="30.02373068">
        <ele>91.18</ele>
        <time>2026-04-22T10:29:58Z</time>
      </trkpt>
      <trkpt lat="59.08285336" lon="30.0237359">
        <ele>90.12</ele>
        <time>2026-04-22T10:30:08Z</time>
      </trkpt>
      <trkpt lat="59.082755" lon="30.02373099">
        <ele>89.2</ele>
        <time>2026-04-22T10:30:19Z</time>
      </trkpt>
      <trkpt lat="59.08266409" lon="30.02371866">
        <ele>89.05</ele>
        <time>2026-04-22T10:30:29Z</time>
      </trkpt>
      <trkpt lat="59.08265565" lon="30.02354289">
        <ele>90.01</ele>
        <time>2026-04-22T10:31:14Z</time>
      </trkpt>
      <trkpt lat="59.08263426" lon="30.02336176">
        <ele>90.33</ele>
        <time>2026-04-22T10:31:24Z</time>
      </trkpt>
      <trkpt lat="59.08262868" lon="30.02317567">
        <ele>90.94</ele>
        <time>2026-04-22T10:31:40Z</time>
      </trkpt>
      <trkpt lat="59.08260385" lon="30.02299112">
        <ele>90.24</ele>
        <time>2026-04-22T10:31:50Z</time>
      </trkpt>
      <trkpt lat="59.08253691" lon="30.02284706">
        <ele>92.31</ele>
        <time>2026-04-22T10:31:59Z</time>
      </trkpt>
      <trkpt lat="59.08257711" lon="30.0226854">
        <ele>92.33</ele>
        <time>2026-04-22T10:32:08Z</time>
      </trkpt>
      <trkpt lat="59.08259779" lon="30.02251231">
        <ele>92.04</ele>
        <time>2026-04-22T10:32:19Z</time>
      </trkpt>
      <trkpt lat="59.0826908" lon="30.0225491">
        <ele>90.66</ele>
        <time>2026-04-22T10:32:35Z</time>
      </trkpt>
      <trkpt lat="59.08278254" lon="30.02253986">
        <ele>88.83</ele>
        <time>2026-04-22T10:32:46Z</time>
      </trkpt>
      <trkpt lat="59.0828632" lon="30.02242855">
        <ele>88.29</ele>
        <time>2026-04-22T10:32:57Z</time>
      </trkpt>
      <trkpt lat="59.08295238" lon="30.0224537">
        <ele>85.82</ele>
        <time>2026-04-22T10:33:13Z</time>
      </trkpt>
      <trkpt lat="59.08302561" lon="30.02234052">
        <ele>88.16</ele>
        <time>2026-04-22T10:33:24Z</time>
      </trkpt>
      <trkpt lat="59.08310911" lon="30.02224533">
        <ele>89.88</ele>
        <time>2026-04-22T10:33:35Z</time>
      </trkpt>
      <trkpt lat="59.08320105" lon="30.0222945">
        <ele>89.55</ele>
        <time>2026-04-22T10:33:44Z</time>
      </trkpt>
      <trkpt lat="59.08329127" lon="30.02223699">
        <ele>91.31</ele>
        <time>2026-04-22T10:34:01Z</time>
      </trkpt>
      <trkpt lat="59.08332932" lon="30.0220601">
        <ele>88.71</ele>
        <time>2026-04-22T10:34:27Z</time>
      </trkpt>
      <trkpt lat="59.08341349" lon="30.02195136">
        <ele>88.03</ele>
        <time>2026-04-22T10:34:43Z</time>
      </trkpt>
      <trkpt lat="59.08350726" lon="30.02196486">
        <ele>90.89</ele>
        <time>2026-04-22T10:35:16Z</time>
      </trkpt>
      <trkpt lat="59.08357429" lon="30.02209211">
        <ele>89.48</ele>
        <time>2026-04-22T10:35:41Z</time>
      </trkpt>
      <trkpt lat="59.08364129" lon="30.02221397">
        <ele>87.15</ele>
        <time>2026-04-22T10:36:15Z</time>
      </trkpt>
      <trkpt lat="59.08374026" lon="30.02225581">
        <ele>87.23</ele>
        <time>2026-04-22T10:36:49Z</time>
      </trkpt>
      <trkpt lat="59.08381782" lon="30.02234518">
        <ele>87.97</ele>
        <time>2026-04-22T10:37:21Z</time>
      </trkpt>
      <trkpt lat="59.08390467" lon="30.02229955">
        <ele>89.77</ele>
        <time>2026-04-22T10:37:50Z</time>
      </trkpt>
      <trkpt lat="59.08396807" lon="30.02216894">
        <ele>90.41</ele>
        <time>2026-04-22T10:38:01Z</time>
      </trkpt>
      <trkpt lat="59.08404273" lon="30.02207125">
        <ele>91.46</ele>
        <time>2026-04-22T10:38:12Z</time>
      </trkpt>
      <trkpt lat="59.08413469" lon="30.0220315">
        <ele>90.67</ele>
        <time>2026-04-22T10:38:34Z</time>
      </trkpt>
      <trkpt lat="59.08419358" lon="30.0218839">
        <ele>93.71</ele>
        <time>2026-04-22T10:38:46Z</time>
      </trkpt>
      <trkpt lat="59.08427021" lon="30.02179192">
        <ele>94.19</ele>
        <time>2026-04-22T10:39:02Z</time>
      </trkpt>
      <trkpt lat="59.08435837" lon="30.02186258">
        <ele>92.58</ele>
        <time>2026-04-22T10:39:15Z</time>
      </trkpt>
      <trkpt lat="59.08445259" lon="30.02185798">
        <ele>91.05</ele>
        <time>2026-04-22T10:39:29Z</time>
      </trkpt>
      <trkpt lat="59.08454267" lon="30.02183809">
        <ele>90.06</ele>
        <time>2026-04-22T10:39:52Z</time>
      </trkpt>
      <trkpt lat="59.08463535" lon="30.02179754">
        <ele>88.74</ele>
        <time>2026-04-22T10:40:02Z</time>
      </trkpt>
      <trkpt lat="59.08471072" lon="30.02170272">
        <ele>89.23</ele>
        <time>2026-04-22T10:40:12Z</time>
      </trkpt>
      <trkpt lat="59.08477783" lon="30.02157036">
        <ele>85.19</ele>
        <time>2026-04-22T10:40:42Z</time>
      </trkpt>
      <trkpt lat="59.08486914" lon="30.02160683">
        <ele>87.79</ele>
        <time>2026-04-22T10:40:57Z</time>
      </trkpt>
      <trkpt lat="59.08495192" lon="30.02153161">
        <ele>87.87</ele>
        <time>2026-04-22T10:41:09Z</time>
      </trkpt>
      <trkpt lat="59.08504843" lon="30.02154219">
        <ele>91.63</ele>
        <time>2026-04-22T10:41:22Z</time>
      </trkpt>
      <trkpt lat="59.08514411" lon="30.02154697">
        <ele>93.39</ele>
        <time>2026-04-22T10:41:32Z</time>
      </trkpt>
      <trkpt lat="59.08523427" lon="30.02148551">
        <ele>92.33</ele>
        <time>2026-04-22T10:42:15Z</time>
      </trkpt>
      <trkpt lat="59.08531993" lon="30.02140214">
        <ele>91.67</ele>
        <time>2026-04-22T10:42:24Z</time>
      </trkpt>
      <trkpt lat="59.08540464" lon="30.02130191">
        <ele>92.18</ele>
        <time>2026-04-22T10:42:34Z</time>
      </trkpt>
      <trkpt lat="59.08548853" lon="30.02122328">
        <ele>89.68</ele>
        <time>2026-04-22T10:42:45Z</time>
      </trkpt>
      <trkpt lat="59.08558179" lon="30.02127994">
        <ele>93.59</ele>
        <time>2026-04-22T10:42:55Z</time>
      </trkpt>
      <trkpt lat="59.08566646" lon="30.0213451">
        <ele>94.65</ele>
        <time>2026-04-22T10:43:04Z</time>
      </trkpt>
      <trkpt lat="59.08575698" lon="30.02135009">
        <ele>93.77</ele>
        <time>2026-04-22T10:43:14Z</time>
      </trkpt>
      <trkpt lat="59.08584405" lon="30.02128606">
        <ele>94.6</ele>
        <time>2026-04-22T10:43:24Z</time>
      </trkpt>
      <trkpt lat="59.08593929" lon="30.02123182">
        <ele>96.52</ele>
        <time>2026-04-22T10:43:34Z</time>
      </trkpt>
      <trkpt lat="59.08603497" lon="30.02125866">
        <ele>95.58</ele>
        <time>2026-04-22T10:43:44Z</time>
      </trkpt>
      <trkpt lat="59.08612675" lon="30.02127934">
        <ele>93.37</ele>
        <time>2026-04-22T10:43:53Z</time>
      </trkpt>
      <trkpt lat="59.08614704" lon="30.02110637">
        <ele>94.89</ele>
        <time>2026-04-22T10:45:19Z</time>
      </trkpt>
      <trkpt lat="59.08623053" lon="30.02102761">
        <ele>96.02</ele>
        <time>2026-04-22T10:45:29Z</time>
      </trkpt>
      <trkpt lat="59.08632263" lon="30.02102665">
        <ele>94.32</ele>
        <time>2026-04-22T10:45:40Z</time>
      </trkpt>
      <trkpt lat="59.08641226" lon="30.02104522">
        <ele>91.17</ele>
        <time>2026-04-22T10:45:50Z</time>
      </trkpt>
      <trkpt lat="59.08649861" lon="30.02097273">
        <ele>91.4</ele>
        <time>2026-04-22T10:46:01Z</time>
      </trkpt>
      <trkpt lat="59.08659591" lon="30.02093432">
        <ele>89.45</ele>
        <time>2026-04-22T10:46:12Z</time>
      </trkpt>
      <trkpt lat="59.08668915" lon="30.02087053">
        <ele>90.92</ele>
        <time>2026-04-22T10:46:22Z</time>
      </trkpt>
      <trkpt lat="59.08678395" lon="30.02086863">
        <ele>88.82</ele>
        <time>2026-04-22T10:46:32Z</time>
      </trkpt>
      <trkpt lat="59.08687625" lon="30.02087744">
        <ele>90.26</ele>
        <time>2026-04-22T10:46:45Z</time>
      </trkpt>
      <trkpt lat="59.08697267" lon="30.02085595">
        <ele>89.6</ele>
        <time>2026-04-22T10:46:53Z</time>
      </trkpt>
      <trkpt lat="59.08706776" lon="30.02079425">
        <ele>88.28</ele>
        <time>2026-04-22T10:47:01Z</time>
      </trkpt>
      <trkpt lat="59.08714863" lon="30.02070988">
        <ele>89.68</ele>
        <time>2026-04-22T10:47:11Z</time>
      </trkpt>
      <trkpt lat="59.0872389" lon="30.02075362">
        <ele>89.73</ele>
        <time>2026-04-22T10:47:21Z</time>
      </trkpt>
      <trkpt lat="59.08733489" lon="30.02074114">
        <ele>89.37</ele>
        <time>2026-04-22T10:47:31Z</time>
      </trkpt>
      <trkpt lat="59.08740919" lon="30.02062425">
        <ele>90.65</ele>
        <time>2026-04-22T10:47:41Z</time>
      </trkpt>
      <trkpt lat="59.08749893" lon="30.02060705">
        <ele>90.49</ele>
        <time>2026-04-22T10:47:50Z</time>
      </trkpt>
      <trkpt lat="59.08758873" lon="30.02057323">
        <ele>89.77</ele>
        <time>2026-04-22T10:48:00Z</time>
      </trkpt>
      <trkpt lat="59.0876325" lon="30.02041903">
        <ele>91.97</ele>
        <time>2026-04-22T10:48:12Z</time>
      </trkpt>
      <trkpt lat="59.08758121" lon="30.0202645">
        <ele>93.52</ele>
        <time>2026-04-22T10:48:26Z</time>
      </trkpt>
      <trkpt lat="59.08756149" lon="30.02008909">
        <ele>93.7</ele>
        <time>2026-04-22T10:48:41Z</time>
      </trkpt>
      <trkpt lat="59.08754457" lon="30.01991499">
        <ele>95.11</ele>
        <time>2026-04-22T10:48:53Z</time>
      </trkpt>
      <trkpt lat="59.08755545" lon="30.01973974">
        <ele>94.22</ele>
        <time>2026-04-22T10:49:03Z</time>
      </trkpt>
      <trkpt lat="59.08751739" lon="30.01956226">
        <ele>96.02</ele>
        <time>2026-04-22T10:49:15Z</time>
      </trkpt>
      <trkpt lat="59.08751901" lon="30.0193849">
        <ele>97.25</ele>
        <time>2026-04-22T10:49:26Z</time>
      </trkpt>
      <trkpt lat="59.08748598" lon="30.01922232">
        <ele>96.66</ele>
        <time>2026-04-22T10:49:37Z</time>
      </trkpt>
      <trkpt lat="59.08747963" lon="30.01904201">
        <ele>97.62</ele>
        <time>2026-04-22T10:49:48Z</time>
      </trkpt>
      <trkpt lat="59.08746875" lon="30.01886823">
        <ele>95.89</ele>
        <time>2026-04-22T10:49:58Z</time>
      </trkpt>
      <trkpt lat="59.08743728" lon="30.01870451">
        <ele>94.8</ele>
        <time>2026-04-22T10:50:28Z</time>
      </trkpt>
      <trkpt lat="59.08742998" lon="30.01851844">
        <ele>95.18</ele>
        <time>2026-04-22T10:50:53Z</time>
      </trkpt>
      <trkpt lat="59.08743218" lon="30.0183316">
        <ele>93.94</ele>
        <time>2026-04-22T10:51:04Z</time>
      </trkpt>
      <trkpt lat="59.08742087" lon="30.01814835">
        <ele>96.66</ele>
        <time>2026-04-22T10:51:15Z</time>
      </trkpt>
      <trkpt lat="59.08737149" lon="30.01798853">
        <ele>97.22</ele>
        <time>2026-04-22T10:51:26Z</time>
      </trkpt>
      <trkpt lat="59.08737831" lon="30.01780797">
        <ele>97.24</ele>
        <time>2026-04-22T10:51:37Z</time>
      </trkpt>
      <trkpt lat="59.08728767" lon="30.01784503">
        <ele>95.21</ele>
        <time>2026-04-22T10:51:49Z</time>
      </trkpt>
      <trkpt lat="59.08719809" lon="30.01792059">
        <ele>95.63</ele>
        <time>2026-04-22T10:52:00Z</time>
      </trkpt>
      <trkpt lat="59.08709647" lon="30.01794223">
        <ele>93.75</ele>
        <time>2026-04-22T10:52:10Z</time>
      </trkpt>
      <trkpt lat="59.08700495" lon="30.01800149">
        <ele>93.68</ele>
        <time>2026-04-22T10:52:21Z</time>
      </trkpt>
      <trkpt lat="59.0869162" lon="30.0180761">
        <ele>92.87</ele>
        <time>2026-04-22T10:52:31Z</time>
      </trkpt>
      <trkpt lat="59.0868226" lon="30.01805839">
        <ele>93.84</ele>
        <time>2026-04-22T10:52:43Z</time>
      </trkpt>
      <trkpt lat="59.08672778" lon="30.01804251">
        <ele>95.54</ele>
        <time>2026-04-22T10:52:54Z</time>
      </trkpt>
      <trkpt lat="59.08663617" lon="30.01801157">
        <ele>94.9</ele>
        <time>2026-04-22T10:53:04Z</time>
      </trkpt>
      <trkpt lat="59.08654342" lon="30.01807522">
        <ele>93.21</ele>
        <time>2026-04-22T10:53:13Z</time>
      </trkpt>
      <trkpt lat="59.08645421" lon="30.01815084">
        <ele>93.97</ele>
        <time>2026-04-22T10:53:23Z</time>
      </trkpt>
      <trkpt lat="59.0863609" lon="30.01812697">
        <ele>93.05</ele>
        <time>2026-04-22T10:53:37Z</time>
      </trkpt>
      <trkpt lat="59.08627085" lon="30.01807798">
        <ele>94.09</ele>
        <time>2026-04-22T10:53:48Z</time>
      </trkpt>
      <trkpt lat="59.08618575" lon="30.01814718">
        <ele>95.38</ele>
        <time>2026-04-22T10:53:58Z</time>
      </trkpt>
      <trkpt lat="59.08609468" lon="30.01820443">
        <ele>95.87</ele>
        <time>2026-04-22T10:54:09Z</time>
      </trkpt>
      <trkpt lat="59.08613315" lon="30.01836283">
        <ele>94.24</ele>
        <time>2026-04-22T10:54:27Z</time>
      </trkpt>
      <trkpt lat="59.0862024" lon="30.01847532">
        <ele>94.82</ele>
        <time>2026-04-22T10:54:35Z</time>
      </trkpt>
      <trkpt lat="59.08627012" lon="30.01860339">
        <ele>93.97</ele>
        <time>2026-04-22T10:54:47Z</time>
      </trkpt>
      <trkpt lat="59.08635028" lon="30.01869273">
        <ele>94.24</ele>
        <time>2026-04-22T10:54:58Z</time>
      </trkpt>
      <trkpt lat="59.086435" lon="30.01877775">
        <ele>92.44</ele>
        <time>2026-04-22T10:55:10Z</time>
      </trkpt>
      <trkpt lat="59.08652541" lon="30.01884009">
        <ele>92.37</ele>
        <time>2026-04-22T10:55:21Z</time>
      </trkpt>
      <trkpt lat="59.08653311" lon="30.01901516">
        <ele>92.55</ele>
        <time>2026-04-22T10:55:36Z</time>
      </trkpt>
      <trkpt lat="59.08662304" lon="30.01905509">
        <ele>92.1</ele>
        <time>2026-04-22T10:55:44Z</time>
      </trkpt>
      <trkpt lat="59.08670931" lon="30.01910668">
        <ele>91.2</ele>
        <time>2026-04-22T10:55:54Z</time>
      </trkpt>
      <trkpt lat="59.08675263" lon="30.0192644">
        <ele>91.13</ele>
        <time>2026-04-22T10:56:06Z</time>
      </trkpt>
      <trkpt lat="59.08682702" lon="30.01938549">
        <ele>92.35</ele>
        <time>2026-04-22T10:56:18Z</time>
      </trkpt>
      <trkpt lat="59.08675075" lon="30.01948279">
        <ele>91.02</ele>
        <time>2026-04-22T10:56:32Z</time>
      </trkpt>
      <trkpt lat="59.08667147" lon="30.01957268">
        <ele>91.47</ele>
        <time>2026-04-22T10:56:45Z</time>
      </trkpt>
      <trkpt lat="59.08657377" lon="30.01955759">
        <ele>91.89</ele>
        <time>2026-04-22T10:56:56Z</time>
      </trkpt>
      <trkpt lat="59.08648632" lon="30.01960048">
        <ele>91.45</ele>
        <time>2026-04-22T10:57:06Z</time>
      </trkpt>
      <trkpt lat="59.08640233" lon="30.01968026">
        <ele>91.84</ele>
        <time>2026-04-22T10:57:16Z</time>
      </trkpt>
      <trkpt lat="59.08630904" lon="30.01969919">
        <ele>91.47</ele>
        <time>2026-04-22T10:57:27Z</time>
      </trkpt>
      <trkpt lat="59.08621695" lon="30.01972016">
        <ele>91.47</ele>
        <time>2026-04-22T10:57:37Z</time>
      </trkpt>
      <trkpt lat="59.08613107" lon="30.01977363">
        <ele>91.12</ele>
        <time>2026-04-22T10:57:50Z</time>
      </trkpt>
      <trkpt lat="59.08603518" lon="30.01973753">
        <ele>91.76</ele>
        <time>2026-04-22T10:58:03Z</time>
      </trkpt>
      <trkpt lat="59.08594115" lon="30.01979445">
        <ele>92.68</ele>
        <time>2026-04-22T10:58:57Z</time>
      </trkpt>
      <trkpt lat="59.08586342" lon="30.01988891">
        <ele>92.12</ele>
        <time>2026-04-22T10:59:08Z</time>
      </trkpt>
      <trkpt lat="59.08578309" lon="30.01996778">
        <ele>92.04</ele>
        <time>2026-04-22T10:59:21Z</time>
      </trkpt>
      <trkpt lat="59.08568957" lon="30.01996011">
        <ele>93.09</ele>
        <time>2026-04-22T10:59:36Z</time>
      </trkpt>
      <trkpt lat="59.08559219" lon="30.02003482">
        <ele>92.6</ele>
        <time>2026-04-22T10:59:48Z</time>
      </trkpt>
      <trkpt lat="59.08551472" lon="30.02012555">
        <ele>93.18</ele>
        <time>2026-04-22T10:59:58Z</time>
      </trkpt>
      <trkpt lat="59.08540919" lon="30.02012737">
        <ele>93.06</ele>
        <time>2026-04-22T11:00:06Z</time>
      </trkpt>
      <trkpt lat="59.08532228" lon="30.0202149">
        <ele>93.28</ele>
        <time>2026-04-22T11:00:16Z</time>
      </trkpt>
      <trkpt lat="59.08523515" lon="30.02017216">
        <ele>94.36</ele>
        <time>2026-04-22T11:00:27Z</time>
      </trkpt>
      <trkpt lat="59.08514252" lon="30.02016464">
        <ele>93.21</ele>
        <time>2026-04-22T11:00:39Z</time>
      </trkpt>
      <trkpt lat="59.08505262" lon="30.02018208">
        <ele>94.13</ele>
        <time>2026-04-22T11:00:49Z</time>
      </trkpt>
      <trkpt lat="59.08496754" lon="30.02011153">
        <ele>92.63</ele>
        <time>2026-04-22T11:01:22Z</time>
      </trkpt>
      <trkpt lat="59.08492818" lon="30.01994923">
        <ele>93.49</ele>
        <time>2026-04-22T11:01:32Z</time>
      </trkpt>
      <trkpt lat="59.08493873" lon="30.01976069">
        <ele>92.89</ele>
        <time>2026-04-22T11:01:43Z</time>
      </trkpt>
      <trkpt lat="59.08492384" lon="30.01957398">
        <ele>91.28</ele>
        <time>2026-04-22T11:01:54Z</time>
      </trkpt>
      <trkpt lat="59.0849063" lon="30.01939752">
        <ele>91.3</ele>
        <time>2026-04-22T11:02:04Z</time>
      </trkpt>
      <trkpt lat="59.08489416" lon="30.01921934">
        <ele>92.78</ele>
        <time>2026-04-22T11:02:14Z</time>
      </trkpt>
      <trkpt lat="59.0848412" lon="30.01905149">
        <ele>94.45</ele>
        <time>2026-04-22T11:02:23Z</time>
      </trkpt>
      <trkpt lat="59.08491118" lon="30.01892946">
        <ele>91.84</ele>
        <time>2026-04-22T11:02:40Z</time>
      </trkpt>
      <trkpt lat="59.08499867" lon="30.01883745">
        <ele>94.09</ele>
        <time>2026-04-22T11:02:52Z</time>
      </trkpt>
      <trkpt lat="59.08509055" lon="30.01880591">
        <ele>90.32</ele>
        <time>2026-04-22T11:03:08Z</time>
      </trkpt>
      <trkpt lat="59.08518059" lon="30.01884444">
        <ele>92.82</ele>
        <time>2026-04-22T11:03:19Z</time>
      </trkpt>
      <trkpt lat="59.08527647" lon="30.01884608">
        <ele>92.66</ele>
        <time>2026-04-22T11:03:30Z</time>
      </trkpt>
      <trkpt lat="59.0853712" lon="30.01881702">
        <ele>91.76</ele>
        <time>2026-04-22T11:03:41Z</time>
      </trkpt>
      <trkpt lat="59.08545048" lon="30.01871796">
        <ele>91.21</ele>
        <time>2026-04-22T11:03:52Z</time>
      </trkpt>
      <trkpt lat="59.08553427" lon="30.01864308">
        <ele>91.86</ele>
        <time>2026-04-22T11:04:04Z</time>
      </trkpt>
      <trkpt lat="59.08557985" lon="30.01849112">
        <ele>89.41</ele>
        <time>2026-04-22T11:05:06Z</time>
      </trkpt>
      <trkpt lat="59.08561487" lon="30.01831449">
        <ele>90.29</ele>
        <time>2026-04-22T11:05:27Z</time>
      </trkpt>
      <trkpt lat="59.08555984" lon="30.01817143">
        <ele>92.29</ele>
        <time>2026-04-22T11:05:39Z</time>
      </trkpt>
      <trkpt lat="59.08556611" lon="30.01797856">
        <ele>94.37</ele>
        <time>2026-04-22T11:05:49Z</time>
      </trkpt>
      <trkpt lat="59.08554006" lon="30.01780866">
        <ele>94.48</ele>
        <time>2026-04-22T11:06:00Z</time>
      </trkpt>
      <trkpt lat="59.08552633" lon="30.01762931">
        <ele>94.62</ele>
        <time>2026-04-22T11:06:10Z</time>
      </trkpt>
      <trkpt lat="59.08548041" lon="30.01747031">
        <ele>96.1</ele>
        <time>2026-04-22T11:06:20Z</time>
      </trkpt>
      <trkpt lat="59.08543981" lon="30.01731235">
        <ele>96.69</ele>
        <time>2026-04-22T11:06:32Z</time>
      </trkpt>
      <trkpt lat="59.08534255" lon="30.01730124">
        <ele>97.25</ele>
        <time>2026-04-22T11:06:49Z</time>
      </trkpt>
      <trkpt lat="59.08524732" lon="30.01733189">
        <ele>96.18</ele>
        <time>2026-04-22T11:06:58Z</time>
      </trkpt>
      <trkpt lat="59.08515053" lon="30.01737137">
        <ele>95.62</ele>
        <time>2026-04-22T11:07:10Z</time>
      </trkpt>
      <trkpt lat="59.08506534" lon="30.01744389">
        <ele>93.61</ele>
        <time>2026-04-22T11:07:20Z</time>
      </trkpt>
      <trkpt lat="59.0849691" lon="30.01746392">
        <ele>93.79</ele>
        <time>2026-04-22T11:07:30Z</time>
      </trkpt>
      <trkpt lat="59.08487975" lon="30.01751842">
        <ele>92.66</ele>
        <time>2026-04-22T11:07:42Z</time>
      </trkpt>
      <trkpt lat="59.08478289" lon="30.01751483">
        <ele>92.09</ele>
        <time>2026-04-22T11:07:52Z</time>
      </trkpt>
      <trkpt lat="59.08469551" lon="30.0175751">
        <ele>92.94</ele>
        <time>2026-04-22T11:08:01Z</time>
      </trkpt>
      <trkpt lat="59.08459866" lon="30.01756199">
        <ele>91.53</ele>
        <time>2026-04-22T11:08:12Z</time>
      </trkpt>
      <trkpt lat="59.08458257" lon="30.01738517">
        <ele>91.28</ele>
        <time>2026-04-22T11:08:22Z</time>
      </trkpt>
      <trkpt lat="59.08455525" lon="30.01720844">
        <ele>92.16</ele>
        <time>2026-04-22T11:08:32Z</time>
      </trkpt>
      <trkpt lat="59.08452575" lon="30.01702954">
        <ele>92.52</ele>
        <time>2026-04-22T11:08:42Z</time>
      </trkpt>
      <trkpt lat="59.08454192" lon="30.01685223">
        <ele>91.44</ele>
        <time>2026-04-22T11:08:53Z</time>
      </trkpt>
      <trkpt lat="59.0845232" lon="30.01667333">
        <ele>88.61</ele>
        <time>2026-04-22T11:09:04Z</time>
      </trkpt>
      <trkpt lat="59.08455155" lon="30.01649609">
        <ele>88.89</ele>
        <time>2026-04-22T11:09:14Z</time>
      </trkpt>
      <trkpt lat="59.0846308" lon="30.01641046">
        <ele>89.69</ele>
        <time>2026-04-22T11:09:32Z</time>
      </trkpt>
      <trkpt lat="59.08471557" lon="30.01632391">
        <ele>91.83</ele>
        <time>2026-04-22T11:09:43Z</time>
      </trkpt>
      <trkpt lat="59.08480972" lon="30.0163252">
        <ele>93.53</ele>
        <time>2026-04-22T11:09:54Z</time>
      </trkpt>
      <trkpt lat="59.08489222" lon="30.01639573">
        <ele>92.94</ele>
        <time>2026-04-22T11:10:17Z</time>
      </trkpt>
      <trkpt lat="59.08497649" lon="30.01633389">
        <ele>93.59</ele>
        <time>2026-04-22T11:10:34Z</time>
      </trkpt>
      <trkpt lat="59.0850674" lon="30.01626853">
        <ele>92.07</ele>
        <time>2026-04-22T11:10:46Z</time>
      </trkpt>
      <trkpt lat="59.08514027" lon="30.01615088">
        <ele>93.63</ele>
        <time>2026-04-22T11:10:57Z</time>
      </trkpt>
      <trkpt lat="59.085229" lon="30.01611498">
        <ele>94.48</ele>
        <time>2026-04-22T11:11:05Z</time>
      </trkpt>
      <trkpt lat="59.08522399" lon="30.01593075">
        <ele>94.2</ele>
        <time>2026-04-22T11:11:19Z</time>
      </trkpt>
      <trkpt lat="59.0852064" lon="30.01575042">
        <ele>96.73</ele>
        <time>2026-04-22T11:11:29Z</time>
      </trkpt>
      <trkpt lat="59.08517258" lon="30.01557056">
        <ele>97.3</ele>
        <time>2026-04-22T11:11:40Z</time>
      </trkpt>
      <trkpt lat="59.08522733" lon="30.01542673">
        <ele>96.79</ele>
        <time>2026-04-22T11:11:53Z</time>
      </trkpt>
      <trkpt lat="59.08520269" lon="30.01524941">
        <ele>95.51</ele>
        <time>2026-04-22T11:12:03Z</time>
      </trkpt>
      <trkpt lat="59.08517748" lon="30.01507436">
        <ele>93.9</ele>
        <time>2026-04-22T11:12:14Z</time>
      </trkpt>
      <trkpt lat="59.08514353" lon="30.01491228">
        <ele>95.41</ele>
        <time>2026-04-22T11:12:23Z</time>
      </trkpt>
      <trkpt lat="59.08505398" lon="30.01493455">
        <ele>96.02</ele>
        <time>2026-04-22T11:13:14Z</time>
      </trkpt>
      <trkpt lat="59.08496473" lon="30.01490984">
        <ele>96.35</ele>
        <time>2026-04-22T11:13:23Z</time>
      </trkpt>
      <trkpt lat="59.08487339" lon="30.01491555">
        <ele>95.78</ele>
        <time>2026-04-22T11:13:34Z</time>
      </trkpt>
      <trkpt lat="59.08478711" lon="30.01496555">
        <ele>97</ele>
        <time>2026-04-22T11:13:44Z</time>
      </trkpt>
      <trkpt lat="59.08471362" lon="30.01507515">
        <ele>94.87</ele>
        <time>2026-04-22T11:13:59Z</time>
      </trkpt>
      <trkpt lat="59.0846261" lon="30.01516369">
        <ele>95.43</ele>
        <time>2026-04-22T11:14:11Z</time>
      </trkpt>
      <trkpt lat="59.08454124" lon="30.01522165">
        <ele>94.31</ele>
        <time>2026-04-22T11:14:21Z</time>
      </trkpt>
      <trkpt lat="59.08444252" lon="30.01520927">
        <ele>94.47</ele>
        <time>2026-04-22T11:14:31Z</time>
      </trkpt>
      <trkpt lat="59.08435018" lon="30.0151662">
        <ele>93.63</ele>
        <time>2026-04-22T11:14:41Z</time>
      </trkpt>
      <trkpt lat="59.08432289" lon="30.01499773">
        <ele>93.05</ele>
        <time>2026-04-22T11:14:55Z</time>
      </trkpt>
      <trkpt lat="59.0842853" lon="30.01483692">
        <ele>93.23</ele>
        <time>2026-04-22T11:15:06Z</time>
      </trkpt>
      <trkpt lat="59.08425973" lon="30.01466382">
        <ele>93.31</ele>
        <time>2026-04-22T11:15:16Z</time>
      </trkpt>
      <trkpt lat="59.08422434" lon="30.01449333">
        <ele>92.27</ele>
        <time>2026-04-22T11:15:26Z</time>
      </trkpt>
      <trkpt lat="59.08421331" lon="30.0143197">
        <ele>93.89</ele>
        <time>2026-04-22T11:15:35Z</time>
      </trkpt>
      <trkpt lat="59.08421265" lon="30.01413675">
        <ele>93.96</ele>
        <time>2026-04-22T11:15:45Z</time>
      </trkpt>
      <trkpt lat="59.08421397" lon="30.01394591">
        <ele>93.17</ele>
        <time>2026-04-22T11:15:54Z</time>
      </trkpt>
      <trkpt lat="59.08429938" lon="30.01389092">
        <ele>93.64</ele>
        <time>2026-04-22T11:16:04Z</time>
      </trkpt>
      <trkpt lat="59.08439176" lon="30.01385844">
        <ele>92.16</ele>
        <time>2026-04-22T11:16:13Z</time>
      </trkpt>
      <trkpt lat="59.08448694" lon="30.01381266">
        <ele>90.18</ele>
        <time>2026-04-22T11:16:24Z</time>
      </trkpt>
      <trkpt lat="59.0845822" lon="30.01378588">
        <ele>91.23</ele>
        <time>2026-04-22T11:16:33Z</time>
      </trkpt>
      <trkpt lat="59.08466113" lon="30.01368682">
        <ele>92.42</ele>
        <time>2026-04-22T11:16:43Z</time>
      </trkpt>
      <trkpt lat="59.08475828" lon="30.01367949">
        <ele>92</ele>
        <time>2026-04-22T11:16:54Z</time>
      </trkpt>
      <trkpt lat="59.08484802" lon="30.01362648">
        <ele>94.18</ele>
        <time>2026-04-22T11:17:02Z</time>
      </trkpt>
      <trkpt lat="59.08493341" lon="30.01354368">
        <ele>92.6</ele>
        <time>2026-04-22T11:17:14Z</time>
      </trkpt>
      <trkpt lat="59.0849285" lon="30.0133631">
        <ele>92.18</ele>
        <time>2026-04-22T11:17:27Z</time>
      </trkpt>
      <trkpt lat="59.08492601" lon="30.01318207">
        <ele>93.05</ele>
        <time>2026-04-22T11:17:36Z</time>
      </trkpt>
      <trkpt lat="59.08488093" lon="30.01302606">
        <ele>92.82</ele>
        <time>2026-04-22T11:17:47Z</time>
      </trkpt>
      <trkpt lat="59.08485456" lon="30.01284104">
        <ele>93.58</ele>
        <time>2026-04-22T11:17:57Z</time>
      </trkpt>
      <trkpt lat="59.08482927" lon="30.01267182">
        <ele>92.27</ele>
        <time>2026-04-22T11:18:07Z</time>
      </trkpt>
      <trkpt lat="59.08478118" lon="30.01251761">
        <ele>92.11</ele>
        <time>2026-04-22T11:18:17Z</time>
      </trkpt>
      <trkpt lat="59.08473902" lon="30.01246562">
        <ele>93.23</ele>
        <time>2026-04-22T11:20:18Z</time>
      </trkpt>
      <trkpt lat="59.08473911" lon="30.01246323">
        <ele>93.3</ele>
        <time>2026-04-22T11:22:19Z</time>
      </trkpt>
      <trkpt lat="59.08473576" lon="30.01247491">
        <ele>92.71</ele>
        <time>2026-04-22T11:24:20Z</time>
      </trkpt>
      <trkpt lat="59.08474886" lon="30.01240208">
        <ele>90.06</ele>
        <time>2026-04-22T11:26:21Z</time>
      </trkpt>
      <trkpt lat="59.08469061" lon="30.01254374">
        <ele>92.08</ele>
        <time>2026-04-22T11:26:41Z</time>
      </trkpt>
      <trkpt lat="59.08459764" lon="30.01257135">
        <ele>94.12</ele>
        <time>2026-04-22T11:26:51Z</time>
      </trkpt>
      <trkpt lat="59.08450899" lon="30.01265673">
        <ele>95.11</ele>
        <time>2026-04-22T11:27:00Z</time>
      </trkpt>
      <trkpt lat="59.08441627" lon="30.01264338">
        <ele>96.17</ele>
        <time>2026-04-22T11:27:12Z</time>
      </trkpt>
      <trkpt lat="59.0843209" lon="30.01268057">
        <ele>95.53</ele>
        <time>2026-04-22T11:27:22Z</time>
      </trkpt>
      <trkpt lat="59.08422595" lon="30.01272896">
        <ele>95.22</ele>
        <time>2026-04-22T11:27:32Z</time>
      </trkpt>
      <trkpt lat="59.08414313" lon="30.01280375">
        <ele>94.8</ele>
        <time>2026-04-22T11:27:41Z</time>
      </trkpt>
      <trkpt lat="59.08406242" lon="30.01271462">
        <ele>97</ele>
        <time>2026-04-22T11:27:50Z</time>
      </trkpt>
      <trkpt lat="59.08404664" lon="30.01252739">
        <ele>96.72</ele>
        <time>2026-04-22T11:28:01Z</time>
      </trkpt>
      <trkpt lat="59.08403472" lon="30.01234244">
        <ele>98.39</ele>
        <time>2026-04-22T11:28:12Z</time>
      </trkpt>
      <trkpt lat="59.08398257" lon="30.01219155">
        <ele>97.7</ele>
        <time>2026-04-22T11:28:22Z</time>
      </trkpt>
      <trkpt lat="59.08401882" lon="30.0120029">
        <ele>94.54</ele>
        <time>2026-04-22T11:28:32Z</time>
      </trkpt>
      <trkpt lat="59.08395521" lon="30.01187841">
        <ele>94.24</ele>
        <time>2026-04-22T11:28:48Z</time>
      </trkpt>
      <trkpt lat="59.08390671" lon="30.01172239">
        <ele>93.39</ele>
        <time>2026-04-22T11:29:00Z</time>
      </trkpt>
      <trkpt lat="59.08387561" lon="30.01155764">
        <ele>96.21</ele>
        <time>2026-04-22T11:29:08Z</time>
      </trkpt>
      <trkpt lat="59.08394842" lon="30.01144959">
        <ele>95.54</ele>
        <time>2026-04-22T11:29:21Z</time>
      </trkpt>
      <trkpt lat="59.08404502" lon="30.01142863">
        <ele>93.97</ele>
        <time>2026-04-22T11:29:32Z</time>
      </trkpt>
      <trkpt lat="59.0841372" lon="30.01144728">
        <ele>93.25</ele>
        <time>2026-04-22T11:29:42Z</time>
      </trkpt>
      <trkpt lat="59.08422565" lon="30.01138197">
        <ele>94.65</ele>
        <time>2026-04-22T11:29:51Z</time>
      </trkpt>
      <trkpt lat="59.08431238" lon="30.01130299">
        <ele>96.07</ele>
        <time>2026-04-22T11:30:01Z</time>
      </trkpt>
      <trkpt lat="59.08440355" lon="30.01127398">
        <ele>96.8</ele>
        <time>2026-04-22T11:30:09Z</time>
      </trkpt>
      <trkpt lat="59.08449315" lon="30.01119579">
        <ele>95.24</ele>
        <time>2026-04-22T11:30:19Z</time>
      </trkpt>
      <trkpt lat="59.08457429" lon="30.01110615">
        <ele>94.8</ele>
        <time>2026-04-22T11:30:33Z</time>
      </trkpt>
      <trkpt lat="59.08461155" lon="30.01092954">
        <ele>95.2</ele>
        <time>2026-04-22T11:30:42Z</time>
      </trkpt>
      <trkpt lat="59.08458034" lon="30.01076025">
        <ele>95.72</ele>
        <time>2026-04-22T11:30:54Z</time>
      </trkpt>
      <trkpt lat="59.08455814" lon="30.01059101">
        <ele>94.58</ele>
        <time>2026-04-22T11:31:04Z</time>
      </trkpt>
      <trkpt lat="59.0845462" lon="30.01041667">
        <ele>94.82</ele>
        <time>2026-04-22T11:31:14Z</time>
      </trkpt>
      <trkpt lat="59.08455283" lon="30.01023252">
        <ele>95.68</ele>
        <time>2026-04-22T11:31:25Z</time>
      </trkpt>
      <trkpt lat="59.08452788" lon="30.01005354">
        <ele>95.29</ele>
        <time>2026-04-22T11:31:36Z</time>
      </trkpt>
      <trkpt lat="59.08443116" lon="30.010067">
        <ele>94.52</ele>
        <time>2026-04-22T11:32:13Z</time>
      </trkpt>
      <trkpt lat="59.08433113" lon="30.01007845">
        <ele>93.73</ele>
        <time>2026-04-22T11:32:24Z</time>
      </trkpt>
      <trkpt lat="59.08424104" lon="30.01012712">
        <ele>94.73</ele>
        <time>2026-04-22T11:32:35Z</time>
      </trkpt>
      <trkpt lat="59.08419661" lon="30.01027884">
        <ele>94.03</ele>
        <time>2026-04-22T11:32:42Z</time>
      </trkpt>
      <trkpt lat="59.08412388" lon="30.01039614">
        <ele>93.39</ele>
        <time>2026-04-22T11:32:58Z</time>
      </trkpt>
      <trkpt lat="59.08404758" lon="30.01051272">
        <ele>93.11</ele>
        <time>2026-04-22T11:33:11Z</time>
      </trkpt>
      <trkpt lat="59.08395417" lon="30.01056089">
        <ele>93.47</ele>
        <time>2026-04-22T11:33:22Z</time>
      </trkpt>
      <trkpt lat="59.08385962" lon="30.01056849">
        <ele>94.4</ele>
        <time>2026-04-22T11:33:32Z</time>
      </trkpt>
      <trkpt lat="59.08380934" lon="30.01041736">
        <ele>93.8</ele>
        <time>2026-04-22T11:33:57Z</time>
      </trkpt>
      <trkpt lat="59.08375426" lon="30.01026418">
        <ele>93.69</ele>
        <time>2026-04-22T11:34:18Z</time>
      </trkpt>
      <trkpt lat="59.08369656" lon="30.01012237">
        <ele>93.26</ele>
        <time>2026-04-22T11:34:38Z</time>
      </trkpt>
      <trkpt lat="59.08372647" lon="30.00994238">
        <ele>91.55</ele>
        <time>2026-04-22T11:34:47Z</time>
      </trkpt>
      <trkpt lat="59.0837581" lon="30.00977582">
        <ele>92.31</ele>
        <time>2026-04-22T11:34:56Z</time>
      </trkpt>
      <trkpt lat="59.08380738" lon="30.0096201">
        <ele>92.95</ele>
        <time>2026-04-22T11:35:09Z</time>
      </trkpt>
      <trkpt lat="59.08377089" lon="30.00944319">
        <ele>92.11</ele>
        <time>2026-04-22T11:35:22Z</time>
      </trkpt>
      <trkpt lat="59.08375442" lon="30.00926322">
        <ele>92.16</ele>
        <time>2026-04-22T11:35:33Z</time>
      </trkpt>
      <trkpt lat="59.08373458" lon="30.00909152">
        <ele>96.95</ele>
        <time>2026-04-22T11:35:45Z</time>
      </trkpt>
      <trkpt lat="59.08382987" lon="30.00908582">
        <ele>95.66</ele>
        <time>2026-04-22T11:35:57Z</time>
      </trkpt>
      <trkpt lat="59.08389772" lon="30.00896001">
        <ele>92.02</ele>
        <time>2026-04-22T11:36:08Z</time>
      </trkpt>
      <trkpt lat="59.08398625" lon="30.00903017">
        <ele>91.87</ele>
        <time>2026-04-22T11:36:15Z</time>
      </trkpt>
      <trkpt lat="59.0840685" lon="30.00893407">
        <ele>93.81</ele>
        <time>2026-04-22T11:36:25Z</time>
      </trkpt>
      <trkpt lat="59.08415211" lon="30.00886031">
        <ele>90.17</ele>
        <time>2026-04-22T11:36:37Z</time>
      </trkpt>
      <trkpt lat="59.08424325" lon="30.00880322">
        <ele>91.07</ele>
        <time>2026-04-22T11:36:46Z</time>
      </trkpt>
      <trkpt lat="59.08434401" lon="30.00876274">
        <ele>92.36</ele>
        <time>2026-04-22T11:36:56Z</time>
      </trkpt>
      <trkpt lat="59.08438939" lon="30.00860791">
        <ele>90.45</ele>
        <time>2026-04-22T11:37:08Z</time>
      </trkpt>
      <trkpt lat="59.08438339" lon="30.00842676">
        <ele>91.51</ele>
        <time>2026-04-22T11:37:19Z</time>
      </trkpt>
      <trkpt lat="59.08434771" lon="30.00826113">
        <ele>94.13</ele>
        <time>2026-04-22T11:37:28Z</time>
      </trkpt>
      <trkpt lat="59.0842898" lon="30.0081173">
        <ele>93.21</ele>
        <time>2026-04-22T11:37:45Z</time>
      </trkpt>
      <trkpt lat="59.08427829" lon="30.00794295">
        <ele>94.15</ele>
        <time>2026-04-22T11:37:57Z</time>
      </trkpt>
      <trkpt lat="59.08427999" lon="30.00775403">
        <ele>94.74</ele>
        <time>2026-04-22T11:38:13Z</time>
      </trkpt>
      <trkpt lat="59.08429927" lon="30.00758242">
        <ele>97.2</ele>
        <time>2026-04-22T11:38:26Z</time>
      </trkpt>
      <trkpt lat="59.08420197" lon="30.00761273">
        <ele>95.46</ele>
        <time>2026-04-22T11:39:05Z</time>
      </trkpt>
      <trkpt lat="59.08412272" lon="30.00770125">
        <ele>96.52</ele>
        <time>2026-04-22T11:39:18Z</time>
      </trkpt>
      <trkpt lat="59.08402784" lon="30.00770253">
        <ele>95.3</ele>
        <time>2026-04-22T11:39:31Z</time>
      </trkpt>
      <trkpt lat="59.08393744" lon="30.00774676">
        <ele>95.14</ele>
        <time>2026-04-22T11:39:45Z</time>
      </trkpt>
      <trkpt lat="59.08384536" lon="30.00769915">
        <ele>96.26</ele>
        <time>2026-04-22T11:39:57Z</time>
      </trkpt>
      <trkpt lat="59.08376175" lon="30.00777737">
        <ele>94.77</ele>
        <time>2026-04-22T11:40:13Z</time>
      </trkpt>
      <trkpt lat="59.08367191" lon="30.00778555">
        <ele>94.23</ele>
        <time>2026-04-22T11:40:22Z</time>
      </trkpt>
      <trkpt lat="59.08358177" lon="30.00784236">
        <ele>96.31</ele>
        <time>2026-04-22T11:40:32Z</time>
      </trkpt>
      <trkpt lat="59.08348683" lon="30.00786209">
        <ele>95.29</ele>
        <time>2026-04-22T11:40:42Z</time>
      </trkpt>
      <trkpt lat="59.08346126" lon="30.0076895">
        <ele>97.7</ele>
        <time>2026-04-22T11:40:56Z</time>
      </trkpt>
      <trkpt lat="59.08347904" lon="30.00750776">
        <ele>96.15</ele>
        <time>2026-04-22T11:41:07Z</time>
      </trkpt>
      <trkpt lat="59.08342221" lon="30.00736128">
        <ele>93.42</ele>
        <time>2026-04-22T11:41:16Z</time>
      </trkpt>
      <trkpt lat="59.08340412" lon="30.00718079">
        <ele>95.23</ele>
        <time>2026-04-22T11:41:27Z</time>
      </trkpt>
      <trkpt lat="59.08337719" lon="30.00700096">
        <ele>93.21</ele>
        <time>2026-04-22T11:41:37Z</time>
      </trkpt>
      <trkpt lat="59.0833582" lon="30.00682889">
        <ele>94.5</ele>
        <time>2026-04-22T11:41:46Z</time>
      </trkpt>
      <trkpt lat="59.08337205" lon="30.00665163">
        <ele>93.62</ele>
        <time>2026-04-22T11:41:57Z</time>
      </trkpt>
      <trkpt lat="59.08346605" lon="30.00667955">
        <ele>96.26</ele>
        <time>2026-04-22T11:42:09Z</time>
      </trkpt>
      <trkpt lat="59.08356526" lon="30.00664337">
        <ele>95.34</ele>
        <time>2026-04-22T11:42:19Z</time>
      </trkpt>
      <trkpt lat="59.08363452" lon="30.00652771">
        <ele>95.32</ele>
        <time>2026-04-22T11:42:30Z</time>
      </trkpt>
      <trkpt lat="59.08371945" lon="30.00646254">
        <ele>95.37</ele>
        <time>2026-04-22T11:42:41Z</time>
      </trkpt>
      <trkpt lat="59.08381142" lon="30.00648999">
        <ele>93.91</ele>
        <time>2026-04-22T11:42:52Z</time>
      </trkpt>
      <trkpt lat="59.08390204" lon="30.00649966">
        <ele>94.03</ele>
        <time>2026-04-22T11:43:06Z</time>
      </trkpt>
      <trkpt lat="59.08399469" lon="30.00648225">
        <ele>93.81</ele>
        <time>2026-04-22T11:43:16Z</time>
      </trkpt>
      <trkpt lat="59.08402791" lon="30.00631061">
        <ele>94.72</ele>
        <time>2026-04-22T11:43:41Z</time>
      </trkpt>
      <trkpt lat="59.08400095" lon="30.00613357">
        <ele>94.98</ele>
        <time>2026-04-22T11:43:56Z</time>
      </trkpt>
      <trkpt lat="59.08406175" lon="30.00600149">
        <ele>94.02</ele>
        <time>2026-04-22T11:44:12Z</time>
      </trkpt>
      <trkpt lat="59.08406664" lon="30.00581864">
        <ele>93.53</ele>
        <time>2026-04-22T11:44:25Z</time>
      </trkpt>
      <trkpt lat="59.08407125" lon="30.00563889">
        <ele>92.7</ele>
        <time>2026-04-22T11:44:36Z</time>
      </trkpt>
      <trkpt lat="59.08402028" lon="30.00549471">
        <ele>94.4</ele>
        <time>2026-04-22T11:44:49Z</time>
      </trkpt>
      <trkpt lat="59.0840123" lon="30.00531268">
        <ele>95.24</ele>
        <time>2026-04-22T11:44:59Z</time>
      </trkpt>
      <trkpt lat="59.08397175" lon="30.00514943">
        <ele>92.96</ele>
        <time>2026-04-22T11:45:10Z</time>
      </trkpt>
      <trkpt lat="59.0838836" lon="30.00510896">
        <ele>93.59</ele>
        <time>2026-04-22T11:45:59Z</time>
      </trkpt>
      <trkpt lat="59.08380909" lon="30.00520792">
        <ele>94.36</ele>
        <time>2026-04-22T11:46:13Z</time>
      </trkpt>
      <trkpt lat="59.08371443" lon="30.00519035">
        <ele>94.49</ele>
        <time>2026-04-22T11:46:27Z</time>
      </trkpt>
      <trkpt lat="59.08363392" lon="30.00527653">
        <ele>97.45</ele>
        <time>2026-04-22T11:47:04Z</time>
      </trkpt>
      <trkpt lat="59.08354619" lon="30.00535631">
        <ele>96.31</ele>
        <time>2026-04-22T11:47:12Z</time>
      </trkpt>
      <trkpt lat="59.08345302" lon="30.00538625">
        <ele>96.94</ele>
        <time>2026-04-22T11:47:23Z</time>
      </trkpt>
      <trkpt lat="59.08335861" lon="30.00543558">
        <ele>97.43</ele>
        <time>2026-04-22T11:47:33Z</time>
      </trkpt>
      <trkpt lat="59.08326477" lon="30.00544965">
        <ele>97.67</ele>
        <time>2026-04-22T11:47:44Z</time>
      </trkpt>
      <trkpt lat="59.08317309" lon="30.00541228">
        <ele>98.68</ele>
        <time>2026-04-22T11:47:57Z</time>
      </trkpt>
      <trkpt lat="59.08314323" lon="30.00523047">
        <ele>98.33</ele>
        <time>2026-04-22T11:48:08Z</time>
      </trkpt>
      <trkpt lat="59.08311143" lon="30.00504218">
        <ele>97.78</ele>
        <time>2026-04-22T11:48:18Z</time>
      </trkpt>
      <trkpt lat="59.08308531" lon="30.00486683">
        <ele>99.63</ele>
        <time>2026-04-22T11:48:26Z</time>
      </trkpt>
      <trkpt lat="59.08307584" lon="30.00468847">
        <ele>99.82</ele>
        <time>2026-04-22T11:48:35Z</time>
      </trkpt>
      <trkpt lat="59.08310545" lon="30.00451004">
        <ele>100.11</ele>
        <time>2026-04-22T11:48:46Z</time>
      </trkpt>
      <trkpt lat="59.08309813" lon="30.00432885">
        <ele>97.94</ele>
        <time>2026-04-22T11:48:58Z</time>
      </trkpt>
      <trkpt lat="59.08306869" lon="30.00415436">
        <ele>98.52</ele>
        <time>2026-04-22T11:49:11Z</time>
      </trkpt>
      <trkpt lat="59.08315203" lon="30.00408505">
        <ele>100.39</ele>
        <time>2026-04-22T11:49:24Z</time>
      </trkpt>
      <trkpt lat="59.08323338" lon="30.00399633">
        <ele>100.53</ele>
        <time>2026-04-22T11:49:33Z</time>
      </trkpt>
      <trkpt lat="59.08332707" lon="30.00396563">
        <ele>100.79</ele>
        <time>2026-04-22T11:49:43Z</time>
      </trkpt>
      <trkpt lat="59.08341398" lon="30.00405244">
        <ele>100.2</ele>
        <time>2026-04-22T11:49:53Z</time>
      </trkpt>
      <trkpt lat="59.08349909" lon="30.00397735">
        <ele>97.42</ele>
        <time>2026-04-22T11:50:03Z</time>
      </trkpt>
      <trkpt lat="59.08359067" lon="30.00396305">
        <ele>100.22</ele>
        <time>2026-04-22T11:50:15Z</time>
      </trkpt>
      <trkpt lat="59.08367655" lon="30.00390643">
        <ele>97.81</ele>
        <time>2026-04-22T11:50:26Z</time>
      </trkpt>
      <trkpt lat="59.08377287" lon="30.00388902">
        <ele>96.63</ele>
        <time>2026-04-22T11:50:38Z</time>
      </trkpt>
      <trkpt lat="59.08375925" lon="30.00370835">
        <ele>95.93</ele>
        <time>2026-04-22T11:50:48Z</time>
      </trkpt>
      <trkpt lat="59.08374078" lon="30.00352627">
        <ele>92.66</ele>
        <time>2026-04-22T11:50:58Z</time>
      </trkpt>
      <trkpt lat="59.08372936" lon="30.0033295">
        <ele>95.14</ele>
        <time>2026-04-22T11:51:09Z</time>
      </trkpt>
      <trkpt lat="59.08371358" lon="30.00314671">
        <ele>97.36</ele>
        <time>2026-04-22T11:51:18Z</time>
      </trkpt>
      <trkpt lat="59.08371247" lon="30.00296079">
        <ele>96.71</ele>
        <time>2026-04-22T11:51:28Z</time>
      </trkpt>
      <trkpt lat="59.08366492" lon="30.00280868">
        <ele>95.67</ele>
        <time>2026-04-22T11:51:39Z</time>
      </trkpt>
      <trkpt lat="59.08361027" lon="30.00266417">
        <ele>96.52</ele>
        <time>2026-04-22T11:52:41Z</time>
      </trkpt>
      <trkpt lat="59.08352058" lon="30.00269245">
        <ele>96.39</ele>
        <time>2026-04-22T11:52:56Z</time>
      </trkpt>
      <trkpt lat="59.08343427" lon="30.00276978">
        <ele>97.3</ele>
        <time>2026-04-22T11:53:08Z</time>
      </trkpt>
      <trkpt lat="59.08333607" lon="30.00275738">
        <ele>97.07</ele>
        <time>2026-04-22T11:53:22Z</time>
      </trkpt>
      <trkpt lat="59.083248" lon="30.00283445">
        <ele>98.6</ele>
        <time>2026-04-22T11:53:34Z</time>
      </trkpt>
      <trkpt lat="59.08315706" lon="30.00286522">
        <ele>99.56</ele>
        <time>2026-04-22T11:53:47Z</time>
      </trkpt>
      <trkpt lat="59.08306633" lon="30.00287744">
        <ele>100.83</ele>
        <time>2026-04-22T11:54:01Z</time>
      </trkpt>
      <trkpt lat="59.08301136" lon="30.00302343">
        <ele>101.24</ele>
        <time>2026-04-22T11:54:11Z</time>
      </trkpt>
      <trkpt lat="59.08291222" lon="30.00300577">
        <ele>98.36</ele>
        <time>2026-04-22T11:54:21Z</time>
      </trkpt>
      <trkpt lat="59.08289755" lon="30.00282445">
        <ele>101.8</ele>
        <time>2026-04-22T11:54:31Z</time>
      </trkpt>
      <trkpt lat="59.0828888" lon="30.0026358">
        <ele>101.54</ele>
        <time>2026-04-22T11:54:39Z</time>
      </trkpt>
      <trkpt lat="59.08287476" lon="30.00244943">
        <ele>99.97</ele>
        <time>2026-04-22T11:54:49Z</time>
      </trkpt>
      <trkpt lat="59.08284445" lon="30.0022741">
        <ele>98.11</ele>
        <time>2026-04-22T11:55:00Z</time>
      </trkpt>
      <trkpt lat="59.08282345" lon="30.00208274">
        <ele>96.61</ele>
        <time>2026-04-22T11:55:14Z</time>
      </trkpt>
      <trkpt lat="59.08280144" lon="30.00191048">
        <ele>98.49</ele>
        <time>2026-04-22T11:55:27Z</time>
      </trkpt>
      <trkpt lat="59.08284579" lon="30.00175644">
        <ele>100.77</ele>
        <time>2026-04-22T11:55:44Z</time>
      </trkpt>
      <trkpt lat="59.08293746" lon="30.00169331">
        <ele>100.33</ele>
        <time>2026-04-22T11:55:55Z</time>
      </trkpt>
      <trkpt lat="59.0830288" lon="30.00165825">
        <ele>99.22</ele>
        <time>2026-04-22T11:56:05Z</time>
      </trkpt>
      <trkpt lat="59.08311594" lon="30.00156958">
        <ele>97.63</ele>
        <time>2026-04-22T11:56:16Z</time>
      </trkpt>
      <trkpt lat="59.083204" lon="30.00149665">
        <ele>98.42</ele>
        <time>2026-04-22T11:56:27Z</time>
      </trkpt>
      <trkpt lat="59.08329427" lon="30.00151226">
        <ele>98.86</ele>
        <time>2026-04-22T11:56:40Z</time>
      </trkpt>
      <trkpt lat="59.08338603" lon="30.001504">
        <ele>98.32</ele>
        <time>2026-04-22T11:56:52Z</time>
      </trkpt>
      <trkpt lat="59.08348025" lon="30.001477">
        <ele>97.8</ele>
        <time>2026-04-22T11:57:02Z</time>
      </trkpt>
      <trkpt lat="59.08351313" lon="30.00130716">
        <ele>98.63</ele>
        <time>2026-04-22T11:57:16Z</time>
      </trkpt>
      <trkpt lat="59.08347531" lon="30.00114376">
        <ele>97.17</ele>
        <time>2026-04-22T11:57:28Z</time>
      </trkpt>
      <trkpt lat="59.08348369" lon="30.00096865">
        <ele>99.28</ele>
        <time>2026-04-22T11:57:37Z</time>
      </trkpt>
      <trkpt lat="59.08347079" lon="30.00078433">
        <ele>96.92</ele>
        <time>2026-04-22T11:57:47Z</time>
      </trkpt>
      <trkpt lat="59.08344389" lon="30.00061732">
        <ele>95.52</ele>
        <time>2026-04-22T11:57:56Z</time>
      </trkpt>
      <trkpt lat="59.08340397" lon="30.00045805">
        <ele>98.33</ele>
        <time>2026-04-22T11:58:04Z</time>
      </trkpt>
      <trkpt lat="59.08339413" lon="30.00026811">
        <ele>96.94</ele>
        <time>2026-04-22T11:58:18Z</time>
      </trkpt>
      <trkpt lat="59.08329827" lon="30.00021741">
        <ele>96.66</ele>
        <time>2026-04-22T11:59:06Z</time>
      </trkpt>
      <trkpt lat="59.08320681" lon="30.00028183">
        <ele>99.81</ele>
        <time>2026-04-22T11:59:16Z</time>
      </trkpt>
      <trkpt lat="59.08311264" lon="30.00033135">
        <ele>99.75</ele>
        <time>2026-04-22T11:59:28Z</time>
      </trkpt>
      <trkpt lat="59.08303244" lon="30.00042362">
        <ele>100.42</ele>
        <time>2026-04-22T11:59:37Z</time>
      </trkpt>
      <trkpt lat="59.08294176" lon="30.00049672">
        <ele>102.74</ele>
        <time>2026-04-22T11:59:48Z</time>
      </trkpt>
      <trkpt lat="59.08285439" lon="30.00055342">
        <ele>100.97</ele>
        <time>2026-04-22T11:59:59Z</time>
      </trkpt>
      <trkpt lat="59.08275811" lon="30.00054894">
        <ele>100.35</ele>
        <time>2026-04-22T12:00:16Z</time>
      </trkpt>
      <trkpt lat="59.08266342" lon="30.00051114">
        <ele>96.95</ele>
        <time>2026-04-22T12:00:27Z</time>
      </trkpt>
      <trkpt lat="59.08259933" lon="30.00038152">
        <ele>98.8</ele>
        <time>2026-04-22T12:00:40Z</time>
      </trkpt>
      <trkpt lat="59.0825874" lon="30.00019439">
        <ele>96.53</ele>
        <time>2026-04-22T12:00:50Z</time>
      </trkpt>
      <trkpt lat="59.08256074" lon="30.00001963">
        <ele>96.36</ele>
        <time>2026-04-22T12:01:00Z</time>
      </trkpt>
      <trkpt lat="59.08252381" lon="29.9998401">
        <ele>96.74</ele>
        <time>2026-04-22T12:01:10Z</time>
      </trkpt>
      <trkpt lat="59.08252239" lon="29.99965375">
        <ele>98.82</ele>
        <time>2026-04-22T12:01:20Z</time>
      </trkpt>
      <trkpt lat="59.08248772" lon="29.99948541">
        <ele>95.67</ele>
        <time>2026-04-22T12:01:29Z</time>
      </trkpt>
      <trkpt lat="59.08256069" lon="29.99937644">
        <ele>102.61</ele>
        <time>2026-04-22T12:01:40Z</time>
      </trkpt>
      <trkpt lat="59.08264567" lon="29.99930892">
        <ele>100.85</ele>
        <time>2026-04-22T12:01:49Z</time>
      </trkpt>
      <trkpt lat="59.08273457" lon="29.99926011">
        <ele>100.28</ele>
        <time>2026-04-22T12:01:59Z</time>
      </trkpt>
      <trkpt lat="59.0828147" lon="29.99916918">
        <ele>97.2</ele>
        <time>2026-04-22T12:02:12Z</time>
      </trkpt>
      <trkpt lat="59.08290443" lon="29.99911704">
        <ele>98.82</ele>
        <time>2026-04-22T12:02:21Z</time>
      </trkpt>
      <trkpt lat="59.08300134" lon="29.99915913">
        <ele>99.03</ele>
        <time>2026-04-22T12:02:29Z</time>
      </trkpt>
      <trkpt lat="59.08309909" lon="29.99911101">
        <ele>99.61</ele>
        <time>2026-04-22T12:02:39Z</time>
      </trkpt>
      <trkpt lat="59.08318857" lon="29.99905061">
        <ele>101.45</ele>
        <time>2026-04-22T12:02:49Z</time>
      </trkpt>
      <trkpt lat="59.08324162" lon="29.99889866">
        <ele>101.73</ele>
        <time>2026-04-22T12:02:59Z</time>
      </trkpt>
      <trkpt lat="59.08320441" lon="29.99871857">
        <ele>100.53</ele>
        <time>2026-04-22T12:03:09Z</time>
      </trkpt>
      <trkpt lat="59.08318033" lon="29.9985464">
        <ele>95.11</ele>
        <time>2026-04-22T12:03:27Z</time>
      </trkpt>
      <trkpt lat="59.0831332" lon="29.99838299">
        <ele>93.18</ele>
        <time>2026-04-22T12:03:38Z</time>
      </trkpt>
      <trkpt lat="59.08311883" lon="29.99819115">
        <ele>94.27</ele>
        <time>2026-04-22T12:03:47Z</time>
      </trkpt>
      <trkpt lat="59.08306565" lon="29.99803441">
        <ele>96.27</ele>
        <time>2026-04-22T12:03:57Z</time>
      </trkpt>
      <trkpt lat="59.08306893" lon="29.9978554">
        <ele>96.42</ele>
        <time>2026-04-22T12:04:08Z</time>
      </trkpt>
      <trkpt lat="59.08306898" lon="29.99783636">
        <ele>97.17</ele>
        <time>2026-04-22T12:06:09Z</time>
      </trkpt>
      <trkpt lat="59.08297798" lon="29.99779338">
        <ele>99.79</ele>
        <time>2026-04-22T12:07:29Z</time>
      </trkpt>
      <trkpt lat="59.08289974" lon="29.99789536">
        <ele>102.99</ele>
        <time>2026-04-22T12:07:36Z</time>
      </trkpt>
      <trkpt lat="59.08280251" lon="29.99791624">
        <ele>103.17</ele>
        <time>2026-04-22T12:07:48Z</time>
      </trkpt>
      <trkpt lat="59.08271775" lon="29.99800345">
        <ele>103.77</ele>
        <time>2026-04-22T12:07:58Z</time>
      </trkpt>
      <trkpt lat="59.08262615" lon="29.99803357">
        <ele>101.94</ele>
        <time>2026-04-22T12:08:08Z</time>
      </trkpt>
      <trkpt lat="59.08254365" lon="29.99811371">
        <ele>102.11</ele>
        <time>2026-04-22T12:08:18Z</time>
      </trkpt>
      <trkpt lat="59.08246021" lon="29.99819425">
        <ele>101.36</ele>
        <time>2026-04-22T12:08:25Z</time>
      </trkpt>
      <trkpt lat="59.08236224" lon="29.9982091">
        <ele>101.13</ele>
        <time>2026-04-22T12:08:34Z</time>
      </trkpt>
      <trkpt lat="59.08232977" lon="29.99803154">
        <ele>100.56</ele>
        <time>2026-04-22T12:08:45Z</time>
      </trkpt>
      <trkpt lat="59.08229792" lon="29.9978602">
        <ele>100.45</ele>
        <time>2026-04-22T12:08:55Z</time>
      </trkpt>
      <trkpt lat="59.08225761" lon="29.99769028">
        <ele>103.42</ele>
        <time>2026-04-22T12:09:04Z</time>
      </trkpt>
      <trkpt lat="59.08225201" lon="29.99750475">
        <ele>105.11</ele>
        <time>2026-04-22T12:09:11Z</time>
      </trkpt>
      <trkpt lat="59.08225613" lon="29.99731782">
        <ele>105.27</ele>
        <time>2026-04-22T12:09:20Z</time>
      </trkpt>
      <trkpt lat="59.08224039" lon="29.99713553">
        <ele>102.88</ele>
        <time>2026-04-22T12:09:30Z</time>
      </trkpt>
      <trkpt lat="59.08225497" lon="29.99695725">
        <ele>103.66</ele>
        <time>2026-04-22T12:09:41Z</time>
      </trkpt>
      <trkpt lat="59.08234583" lon="29.99696641">
        <ele>105.15</ele>
        <time>2026-04-22T12:09:49Z</time>
      </trkpt>
      <trkpt lat="59.08241805" lon="29.99686075">
        <ele>105.97</ele>
        <time>2026-04-22T12:09:57Z</time>
      </trkpt>
      <trkpt lat="59.082506" lon="29.9967907">
        <ele>104.25</ele>
        <time>2026-04-22T12:10:08Z</time>
      </trkpt>
      <trkpt lat="59.08259574" lon="29.9967498">
        <ele>102.02</ele>
        <time>2026-04-22T12:10:18Z</time>
      </trkpt>
      <trkpt lat="59.08268983" lon="29.99669315">
        <ele>102.25</ele>
        <time>2026-04-22T12:10:27Z</time>
      </trkpt>
      <trkpt lat="59.08276485" lon="29.99657478">
        <ele>101.54</ele>
        <time>2026-04-22T12:10:36Z</time>
      </trkpt>
      <trkpt lat="59.08286277" lon="29.99658805">
        <ele>101.87</ele>
        <time>2026-04-22T12:10:45Z</time>
      </trkpt>
      <trkpt lat="59.08294441" lon="29.99647643">
        <ele>99.89</ele>
        <time>2026-04-22T12:10:56Z</time>
      </trkpt>
      <trkpt lat="59.08296607" lon="29.99629819">
        <ele>97.09</ele>
        <time>2026-04-22T12:11:06Z</time>
      </trkpt>
      <trkpt lat="59.08293426" lon="29.99612516">
        <ele>97.91</ele>
        <time>2026-04-22T12:11:15Z</time>
      </trkpt>
      <trkpt lat="59.08289208" lon="29.99596742">
        <ele>99.56</ele>
        <time>2026-04-22T12:11:24Z</time>
      </trkpt>
      <trkpt lat="59.08282262" lon="29.99584893">
        <ele>98.23</ele>
        <time>2026-04-22T12:11:36Z</time>
      </trkpt>
      <trkpt lat="59.082803" lon="29.99566951">
        <ele>97.63</ele>
        <time>2026-04-22T12:11:46Z</time>
      </trkpt>
      <trkpt lat="59.08273552" lon="29.9955486">
        <ele>100.19</ele>
        <time>2026-04-22T12:12:25Z</time>
      </trkpt>
      <trkpt lat="59.08264293" lon="29.99555881">
        <ele>100.7</ele>
        <time>2026-04-22T12:12:33Z</time>
      </trkpt>
      <trkpt lat="59.08254086" lon="29.99555111">
        <ele>98.67</ele>
        <time>2026-04-22T12:12:41Z</time>
      </trkpt>
      <trkpt lat="59.0824471" lon="29.99554226">
        <ele>101.59</ele>
        <time>2026-04-22T12:12:52Z</time>
      </trkpt>
      <trkpt lat="59.08235509" lon="29.99558873">
        <ele>100.59</ele>
        <time>2026-04-22T12:13:01Z</time>
      </trkpt>
      <trkpt lat="59.08227885" lon="29.99568788">
        <ele>101.49</ele>
        <time>2026-04-22T12:13:09Z</time>
      </trkpt>
      <trkpt lat="59.08219667" lon="29.99575935">
        <ele>102.31</ele>
        <time>2026-04-22T12:13:16Z</time>
      </trkpt>
      <trkpt lat="59.08210617" lon="29.99583533">
        <ele>100.95</ele>
        <time>2026-04-22T12:13:23Z</time>
      </trkpt>
      <trkpt lat="59.08202032" lon="29.99576887">
        <ele>99.3</ele>
        <time>2026-04-22T12:13:39Z</time>
      </trkpt>
      <trkpt lat="59.08195726" lon="29.99564227">
        <ele>100.42</ele>
        <time>2026-04-22T12:13:48Z</time>
      </trkpt>
      <trkpt lat="59.08194547" lon="29.99546323">
        <ele>101.24</ele>
        <time>2026-04-22T12:13:59Z</time>
      </trkpt>
      <trkpt lat="59.08192757" lon="29.99529061">
        <ele>99.96</ele>
        <time>2026-04-22T12:14:10Z</time>
      </trkpt>
      <trkpt lat="59.08190614" lon="29.99512021">
        <ele>100.86</ele>
        <time>2026-04-22T12:14:20Z</time>
      </trkpt>
      <trkpt lat="59.08192873" lon="29.99494161">
        <ele>101.65</ele>
        <time>2026-04-22T12:14:45Z</time>
      </trkpt>
      <trkpt lat="59.08195012" lon="29.99476262">
        <ele>101.97</ele>
        <time>2026-04-22T12:14:56Z</time>
      </trkpt>
      <trkpt lat="59.08204599" lon="29.99471941">
        <ele>103.8</ele>
        <time>2026-04-22T12:15:30Z</time>
      </trkpt>
      <trkpt lat="59.08213588" lon="29.99476756">
        <ele>104.9</ele>
        <time>2026-04-22T12:15:41Z</time>
      </trkpt>
      <trkpt lat="59.08218643" lon="29.99461483">
        <ele>100</ele>
        <time>2026-04-22T12:15:53Z</time>
      </trkpt>
      <trkpt lat="59.08228295" lon="29.99459395">
        <ele>99.64</ele>
        <time>2026-04-22T12:16:04Z</time>
      </trkpt>
      <trkpt lat="59.08236491" lon="29.99451811">
        <ele>99.21</ele>
        <time>2026-04-22T12:16:13Z</time>
      </trkpt>
      <trkpt lat="59.08245464" lon="29.99445185">
        <ele>100.76</ele>
        <time>2026-04-22T12:16:23Z</time>
      </trkpt>
      <trkpt lat="59.08254913" lon="29.9944351">
        <ele>99.61</ele>
        <time>2026-04-22T12:16:33Z</time>
      </trkpt>
      <trkpt lat="59.08262191" lon="29.99432468">
        <ele>98.88</ele>
        <time>2026-04-22T12:16:45Z</time>
      </trkpt>
      <trkpt lat="59.08260867" lon="29.99413881">
        <ele>102.13</ele>
        <time>2026-04-22T12:16:56Z</time>
      </trkpt>
      <trkpt lat="59.0825979" lon="29.99396196">
        <ele>100.67</ele>
        <time>2026-04-22T12:17:05Z</time>
      </trkpt>
      <trkpt lat="59.08258888" lon="29.99378562">
        <ele>103.52</ele>
        <time>2026-04-22T12:17:14Z</time>
      </trkpt>
      <trkpt lat="59.08256458" lon="29.9936056">
        <ele>104.04</ele>
        <time>2026-04-22T12:17:24Z</time>
      </trkpt>
      <trkpt lat="59.08254836" lon="29.99341485">
        <ele>104.65</ele>
        <time>2026-04-22T12:17:34Z</time>
      </trkpt>
      <trkpt lat="59.08249602" lon="29.99324865">
        <ele>103.27</ele>
        <time>2026-04-22T12:17:44Z</time>
      </trkpt>
      <trkpt lat="59.08245478" lon="29.99308689">
        <ele>101.94</ele>
        <time>2026-04-22T12:19:28Z</time>
      </trkpt>
      <trkpt lat="59.08236327" lon="29.99309558">
        <ele>104.08</ele>
        <time>2026-04-22T12:19:35Z</time>
      </trkpt>
      <trkpt lat="59.08228614" lon="29.99318858">
        <ele>101.91</ele>
        <time>2026-04-22T12:19:44Z</time>
      </trkpt>
      <trkpt lat="59.08219844" lon="29.99324613">
        <ele>101.65</ele>
        <time>2026-04-22T12:19:53Z</time>
      </trkpt>
      <trkpt lat="59.08210532" lon="29.99328223">
        <ele>94.88</ele>
        <time>2026-04-22T12:20:29Z</time>
      </trkpt>
      <trkpt lat="59.08203975" lon="29.99340987">
        <ele>93.94</ele>
        <time>2026-04-22T12:20:39Z</time>
      </trkpt>
      <trkpt lat="59.08194929" lon="29.99348897">
        <ele>94.6</ele>
        <time>2026-04-22T12:20:49Z</time>
      </trkpt>
      <trkpt lat="59.08185949" lon="29.99355361">
        <ele>96.59</ele>
        <time>2026-04-22T12:20:57Z</time>
      </trkpt>
      <trkpt lat="59.08177165" lon="29.99348219">
        <ele>98.12</ele>
        <time>2026-04-22T12:21:12Z</time>
      </trkpt>
      <trkpt lat="59.0817241" lon="29.99332008">
        <ele>102.43</ele>
        <time>2026-04-22T12:21:23Z</time>
      </trkpt>
      <trkpt lat="59.08169662" lon="29.99315021">
        <ele>101.37</ele>
        <time>2026-04-22T12:21:57Z</time>
      </trkpt>
      <trkpt lat="59.08165668" lon="29.99298114">
        <ele>100.91</ele>
        <time>2026-04-22T12:22:08Z</time>
      </trkpt>
      <trkpt lat="59.08161032" lon="29.99281329">
        <ele>100.18</ele>
        <time>2026-04-22T12:22:18Z</time>
      </trkpt>
      <trkpt lat="59.08158708" lon="29.99264307">
        <ele>100.16</ele>
        <time>2026-04-22T12:22:27Z</time>
      </trkpt>
      <trkpt lat="59.08155809" lon="29.9924751">
        <ele>100.68</ele>
        <time>2026-04-22T12:22:35Z</time>
      </trkpt>
      <trkpt lat="59.08156297" lon="29.99229537">
        <ele>99.21</ele>
        <time>2026-04-22T12:22:45Z</time>
      </trkpt>
      <trkpt lat="59.0815401" lon="29.99211629">
        <ele>101.13</ele>
        <time>2026-04-22T12:22:54Z</time>
      </trkpt>
      <trkpt lat="59.08148071" lon="29.99197164">
        <ele>100.73</ele>
        <time>2026-04-22T12:23:05Z</time>
      </trkpt>
      <trkpt lat="59.08149025" lon="29.99179696">
        <ele>101.02</ele>
        <time>2026-04-22T12:23:16Z</time>
      </trkpt>
      <trkpt lat="59.08158098" lon="29.99181462">
        <ele>103.92</ele>
        <time>2026-04-22T12:23:27Z</time>
      </trkpt>
      <trkpt lat="59.08166062" lon="29.99189845">
        <ele>103.99</ele>
        <time>2026-04-22T12:24:04Z</time>
      </trkpt>
      <trkpt lat="59.08172104" lon="29.99203049">
        <ele>104.52</ele>
        <time>2026-04-22T12:24:12Z</time>
      </trkpt>
      <trkpt lat="59.08177053" lon="29.9921824">
        <ele>104.18</ele>
        <time>2026-04-22T12:24:21Z</time>
      </trkpt>
      <trkpt lat="59.08186432" lon="29.99222785">
        <ele>105.44</ele>
        <time>2026-04-22T12:24:31Z</time>
      </trkpt>
      <trkpt lat="59.08196229" lon="29.99221886">
        <ele>104.94</ele>
        <time>2026-04-22T12:24:41Z</time>
      </trkpt>
      <trkpt lat="59.08204731" lon="29.99215536">
        <ele>103.7</ele>
        <time>2026-04-22T12:24:51Z</time>
      </trkpt>
      <trkpt lat="59.0821444" lon="29.99213166">
        <ele>103.46</ele>
        <time>2026-04-22T12:25:01Z</time>
      </trkpt>
      <trkpt lat="59.08223084" lon="29.99206023">
        <ele>103.75</ele>
        <time>2026-04-22T12:25:11Z</time>
      </trkpt>
      <trkpt lat="59.08229453" lon="29.99193538">
        <ele>101.9</ele>
        <time>2026-04-22T12:25:24Z</time>
      </trkpt>
      <trkpt lat="59.08228314" lon="29.99176186">
        <ele>100.1</ele>
        <time>2026-04-22T12:25:35Z</time>
      </trkpt>
      <trkpt lat="59.08229955" lon="29.99157277">
        <ele>98.99</ele>
        <time>2026-04-22T12:25:46Z</time>
      </trkpt>
      <trkpt lat="59.08228808" lon="29.99139947">
        <ele>99.01</ele>
        <time>2026-04-22T12:25:56Z</time>
      </trkpt>
      <trkpt lat="59.08230769" lon="29.99122724">
        <ele>101.39</ele>
        <time>2026-04-22T12:26:06Z</time>
      </trkpt>
      <trkpt lat="59.08237891" lon="29.99108681">
        <ele>99.02</ele>
        <time>2026-04-22T12:26:17Z</time>
      </trkpt>
      <trkpt lat="59.08242568" lon="29.99093174">
        <ele>98.17</ele>
        <time>2026-04-22T12:26:25Z</time>
      </trkpt>
      <trkpt lat="59.08247459" lon="29.99075994">
        <ele>97.37</ele>
        <time>2026-04-22T12:26:34Z</time>
      </trkpt>
      <trkpt lat="59.0824749" lon="29.99058453">
        <ele>97.47</ele>
        <time>2026-04-22T12:26:42Z</time>
      </trkpt>
      <trkpt lat="59.08248374" lon="29.99038885">
        <ele>97.14</ele>
        <time>2026-04-22T12:26:51Z</time>
      </trkpt>
      <trkpt lat="59.08252942" lon="29.99021787">
        <ele>96.57</ele>
        <time>2026-04-22T12:27:00Z</time>
      </trkpt>
      <trkpt lat="59.08255331" lon="29.99004424">
        <ele>97.81</ele>
        <time>2026-04-22T12:27:09Z</time>
      </trkpt>
      <trkpt lat="59.08261799" lon="29.98991023">
        <ele>96.89</ele>
        <time>2026-04-22T12:27:20Z</time>
      </trkpt>
      <trkpt lat="59.08261477" lon="29.98972745">
        <ele>98.15</ele>
        <time>2026-04-22T12:27:29Z</time>
      </trkpt>
      <trkpt lat="59.08265175" lon="29.98955519">
        <ele>98.69</ele>
        <time>2026-04-22T12:27:39Z</time>
      </trkpt>
      <trkpt lat="59.08271638" lon="29.989433">
        <ele>98.29</ele>
        <time>2026-04-22T12:27:48Z</time>
      </trkpt>
      <trkpt lat="59.08281366" lon="29.98940862">
        <ele>101.18</ele>
        <time>2026-04-22T12:28:21Z</time>
      </trkpt>
      <trkpt lat="59.08290498" lon="29.98945409">
        <ele>98.01</ele>
        <time>2026-04-22T12:28:32Z</time>
      </trkpt>
      <trkpt lat="59.08300719" lon="29.98949786">
        <ele>97.75</ele>
        <time>2026-04-22T12:28:44Z</time>
      </trkpt>
      <trkpt lat="59.08309753" lon="29.98948994">
        <ele>98.69</ele>
        <time>2026-04-22T12:28:52Z</time>
      </trkpt>
      <trkpt lat="59.08320355" lon="29.98953261">
        <ele>95.68</ele>
        <time>2026-04-22T12:29:11Z</time>
      </trkpt>
      <trkpt lat="59.08328982" lon="29.98959197">
        <ele>96.62</ele>
        <time>2026-04-22T12:29:19Z</time>
      </trkpt>
      <trkpt lat="59.08338165" lon="29.98959589">
        <ele>96.87</ele>
        <time>2026-04-22T12:29:25Z</time>
      </trkpt>
      <trkpt lat="59.083472" lon="29.98961007">
        <ele>99</ele>
        <time>2026-04-22T12:29:32Z</time>
      </trkpt>
      <trkpt lat="59.08357215" lon="29.98965066">
        <ele>97.94</ele>
        <time>2026-04-22T12:29:40Z</time>
      </trkpt>
      <trkpt lat="59.0836669" lon="29.98970347">
        <ele>94.93</ele>
        <time>2026-04-22T12:29:47Z</time>
      </trkpt>
      <trkpt lat="59.08376293" lon="29.98972299">
        <ele>94.84</ele>
        <time>2026-04-22T12:29:55Z</time>
      </trkpt>
      <trkpt lat="59.08385577" lon="29.98972509">
        <ele>94.44</ele>
        <time>2026-04-22T12:30:08Z</time>
      </trkpt>
      <trkpt lat="59.08394882" lon="29.98978787">
        <ele>94.42</ele>
        <time>2026-04-22T12:30:17Z</time>
      </trkpt>
      <trkpt lat="59.08404529" lon="29.98979963">
        <ele>98.89</ele>
        <time>2026-04-22T12:30:26Z</time>
      </trkpt>
      <trkpt lat="59.08413733" lon="29.98981537">
        <ele>98.95</ele>
        <time>2026-04-22T12:30:34Z</time>
      </trkpt>
      <trkpt lat="59.08423061" lon="29.98984875">
        <ele>98.3</ele>
        <time>2026-04-22T12:30:41Z</time>
      </trkpt>
      <trkpt lat="59.08432523" lon="29.98987826">
        <ele>95.06</ele>
        <time>2026-04-22T12:30:49Z</time>
      </trkpt>
      <trkpt lat="59.08442458" lon="29.98990244">
        <ele>95.12</ele>
        <time>2026-04-22T12:30:58Z</time>
      </trkpt>
      <trkpt lat="59.08450641" lon="29.98998526">
        <ele>100.07</ele>
        <time>2026-04-22T12:31:07Z</time>
      </trkpt>
      <trkpt lat="59.08459952" lon="29.98997144">
        <ele>101.07</ele>
        <time>2026-04-22T12:31:18Z</time>
      </trkpt>
      <trkpt lat="59.08469071" lon="29.99001531">
        <ele>99.5</ele>
        <time>2026-04-22T12:31:26Z</time>
      </trkpt>
      <trkpt lat="59.08479012" lon="29.99001692">
        <ele>100</ele>
        <time>2026-04-22T12:31:34Z</time>
      </trkpt>
      <trkpt lat="59.08488644" lon="29.99003157">
        <ele>99.24</ele>
        <time>2026-04-22T12:31:43Z</time>
      </trkpt>
      <trkpt lat="59.08498136" lon="29.99004334">
        <ele>100.22</ele>
        <time>2026-04-22T12:31:51Z</time>
      </trkpt>
      <trkpt lat="59.08507062" lon="29.99009699">
        <ele>97.36</ele>
        <time>2026-04-22T12:31:57Z</time>
      </trkpt>
      <trkpt lat="59.08517324" lon="29.99008882">
        <ele>95.86</ele>
        <time>2026-04-22T12:32:05Z</time>
      </trkpt>
      <trkpt lat="59.08526214" lon="29.9901684">
        <ele>93.99</ele>
        <time>2026-04-22T12:32:10Z</time>
      </trkpt>
      <trkpt lat="59.08536116" lon="29.99021985">
        <ele>97.12</ele>
        <time>2026-04-22T12:32:18Z</time>
      </trkpt>
      <trkpt lat="59.08546086" lon="29.99023253">
        <ele>96.63</ele>
        <time>2026-04-22T12:32:26Z</time>
      </trkpt>
      <trkpt lat="59.08556393" lon="29.99028867">
        <ele>95.62</ele>
        <time>2026-04-22T12:32:35Z</time>
      </trkpt>
      <trkpt lat="59.08566849" lon="29.99032407">
        <ele>96.29</ele>
        <time>2026-04-22T12:32:44Z</time>
      </trkpt>
      <trkpt lat="59.08577183" lon="29.99036086">
        <ele>96.11</ele>
        <time>2026-04-22T12:32:52Z</time>
      </trkpt>
      <trkpt lat="59.08586141" lon="29.990383">
        <ele>96.23</ele>
        <time>2026-04-22T12:32:59Z</time>
      </trkpt>
      <trkpt lat="59.0859516" lon="29.99041819">
        <ele>96.27</ele>
        <time>2026-04-22T12:33:07Z</time>
      </trkpt>
      <trkpt lat="59.08604799" lon="29.99042984">
        <ele>96.94</ele>
        <time>2026-04-22T12:33:16Z</time>
      </trkpt>
      <trkpt lat="59.08614481" lon="29.99044959">
        <ele>96.06</ele>
        <time>2026-04-22T12:33:24Z</time>
      </trkpt>
      <trkpt lat="59.08623924" lon="29.99050213">
        <ele>97.04</ele>
        <time>2026-04-22T12:33:32Z</time>
      </trkpt>
      <trkpt lat="59.08633601" lon="29.99054659">
        <ele>98.13</ele>
        <time>2026-04-22T12:33:40Z</time>
      </trkpt>
      <trkpt lat="59.08643051" lon="29.99056373">
        <ele>96.34</ele>
        <time>2026-04-22T12:33:48Z</time>
      </trkpt>
      <trkpt lat="59.08652105" lon="29.9905944">
        <ele>97.28</ele>
        <time>2026-04-22T12:33:56Z</time>
      </trkpt>
      <trkpt lat="59.08661616" lon="29.99062729">
        <ele>98.6</ele>
        <time>2026-04-22T12:34:05Z</time>
      </trkpt>
      <trkpt lat="59.08670429" lon="29.99067449">
        <ele>95.72</ele>
        <time>2026-04-22T12:34:12Z</time>
      </trkpt>
      <trkpt lat="59.08680163" lon="29.99068739">
        <ele>96.35</ele>
        <time>2026-04-22T12:34:20Z</time>
      </trkpt>
      <trkpt lat="59.08689662" lon="29.99074184">
        <ele>94.63</ele>
        <time>2026-04-22T12:34:27Z</time>
      </trkpt>
      <trkpt lat="59.08699703" lon="29.99077622">
        <ele>94.91</ele>
        <time>2026-04-22T12:34:35Z</time>
      </trkpt>
      <trkpt lat="59.08708676" lon="29.99080761">
        <ele>97.69</ele>
        <time>2026-04-22T12:34:42Z</time>
      </trkpt>
      <trkpt lat="59.08718303" lon="29.99085968">
        <ele>97.81</ele>
        <time>2026-04-22T12:34:49Z</time>
      </trkpt>
      <trkpt lat="59.08727254" lon="29.99088781">
        <ele>99.2</ele>
        <time>2026-04-22T12:34:56Z</time>
      </trkpt>
      <trkpt lat="59.08737272" lon="29.99093013">
        <ele>98.33</ele>
        <time>2026-04-22T12:35:04Z</time>
      </trkpt>
      <trkpt lat="59.08746322" lon="29.99094354">
        <ele>93.23</ele>
        <time>2026-04-22T12:35:10Z</time>
      </trkpt>
      <trkpt lat="59.08755874" lon="29.99095494">
        <ele>90.53</ele>
        <time>2026-04-22T12:35:16Z</time>
      </trkpt>
      <trkpt lat="59.08764592" lon="29.99100605">
        <ele>91.42</ele>
        <time>2026-04-22T12:35:22Z</time>
      </trkpt>
      <trkpt lat="59.08774416" lon="29.99103185">
        <ele>93.11</ele>
        <time>2026-04-22T12:35:29Z</time>
      </trkpt>
      <trkpt lat="59.08783596" lon="29.99107678">
        <ele>93.97</ele>
        <time>2026-04-22T12:35:36Z</time>
      </trkpt>
      <trkpt lat="59.08793551" lon="29.99109087">
        <ele>93.39</ele>
        <time>2026-04-22T12:35:45Z</time>
      </trkpt>
      <trkpt lat="59.08802594" lon="29.99109559">
        <ele>94.21</ele>
        <time>2026-04-22T12:35:55Z</time>
      </trkpt>
      <trkpt lat="59.08812183" lon="29.99111732">
        <ele>95.19</ele>
        <time>2026-04-22T12:36:03Z</time>
      </trkpt>
      <trkpt lat="59.08821918" lon="29.99115115">
        <ele>96.1</ele>
        <time>2026-04-22T12:36:13Z</time>
      </trkpt>
      <trkpt lat="59.08831406" lon="29.9911861">
        <ele>98.53</ele>
        <time>2026-04-22T12:36:21Z</time>
      </trkpt>
      <trkpt lat="59.0884155" lon="29.99121897">
        <ele>96.38</ele>
        <time>2026-04-22T12:36:32Z</time>
      </trkpt>
      <trkpt lat="59.08851542" lon="29.99126572">
        <ele>96.77</ele>
        <time>2026-04-22T12:36:40Z</time>
      </trkpt>
      <trkpt lat="59.08862303" lon="29.99127094">
        <ele>95.56</ele>
        <time>2026-04-22T12:36:48Z</time>
      </trkpt>
      <trkpt lat="59.08871653" lon="29.99128484">
        <ele>96.93</ele>
        <time>2026-04-22T12:36:55Z</time>
      </trkpt>
      <trkpt lat="59.08881083" lon="29.99131082">
        <ele>99.49</ele>
        <time>2026-04-22T12:37:03Z</time>
      </trkpt>
      <trkpt lat="59.08891159" lon="29.99133393">
        <ele>95.38</ele>
        <time>2026-04-22T12:37:10Z</time>
      </trkpt>
      <trkpt lat="59.08900406" lon="29.99138286">
        <ele>98.33</ele>
        <time>2026-04-22T12:37:16Z</time>
      </trkpt>
      <trkpt lat="59.08909228" lon="29.99142514">
        <ele>96.95</ele>
        <time>2026-04-22T12:37:22Z</time>
      </trkpt>
      <trkpt lat="59.089181" lon="29.99146969">
        <ele>94.48</ele>
        <time>2026-04-22T12:37:28Z</time>
      </trkpt>
      <trkpt lat="59.08927041" lon="29.99151206">
        <ele>98.59</ele>
        <time>2026-04-22T12:37:36Z</time>
      </trkpt>
      <trkpt lat="59.08936795" lon="29.9915547">
        <ele>97.09</ele>
        <time>2026-04-22T12:37:41Z</time>
      </trkpt>
      <trkpt lat="59.08946061" lon="29.99157539">
        <ele>96.25</ele>
        <time>2026-04-22T12:37:48Z</time>
      </trkpt>
      <trkpt lat="59.0895539" lon="29.99160868">
        <ele>94.91</ele>
        <time>2026-04-22T12:37:55Z</time>
      </trkpt>
      <trkpt lat="59.08964638" lon="29.99167301">
        <ele>94.68</ele>
        <time>2026-04-22T12:38:03Z</time>
      </trkpt>
      <trkpt lat="59.08974475" lon="29.99167454">
        <ele>94.58</ele>
        <time>2026-04-22T12:38:11Z</time>
      </trkpt>
      <trkpt lat="59.08984342" lon="29.99171116">
        <ele>94.48</ele>
        <time>2026-04-22T12:38:20Z</time>
      </trkpt>
      <trkpt lat="59.08993242" lon="29.99174235">
        <ele>94.42</ele>
        <time>2026-04-22T12:38:27Z</time>
      </trkpt>
      <trkpt lat="59.09003086" lon="29.99173127">
        <ele>94.12</ele>
        <time>2026-04-22T12:38:36Z</time>
      </trkpt>
      <trkpt lat="59.0901283" lon="29.99177766">
        <ele>92.28</ele>
        <time>2026-04-22T12:39:00Z</time>
      </trkpt>
      <trkpt lat="59.09021924" lon="29.9918278">
        <ele>94.66</ele>
        <time>2026-04-22T12:39:08Z</time>
      </trkpt>
      <trkpt lat="59.09031299" lon="29.99185051">
        <ele>92.4</ele>
        <time>2026-04-22T12:39:16Z</time>
      </trkpt>
      <trkpt lat="59.09040377" lon="29.99190786">
        <ele>93.89</ele>
        <time>2026-04-22T12:39:24Z</time>
      </trkpt>
      <trkpt lat="59.09050238" lon="29.99191192">
        <ele>93.22</ele>
        <time>2026-04-22T12:39:32Z</time>
      </trkpt>
      <trkpt lat="59.09059756" lon="29.99193873">
        <ele>94.83</ele>
        <time>2026-04-22T12:39:40Z</time>
      </trkpt>
      <trkpt lat="59.09069199" lon="29.9919659">
        <ele>92.4</ele>
        <time>2026-04-22T12:39:48Z</time>
      </trkpt>
      <trkpt lat="59.0907908" lon="29.99195156">
        <ele>92.49</ele>
        <time>2026-04-22T12:39:57Z</time>
      </trkpt>
      <trkpt lat="59.09087905" lon="29.99201121">
        <ele>93.2</ele>
        <time>2026-04-22T12:40:04Z</time>
      </trkpt>
      <trkpt lat="59.09097195" lon="29.99205287">
        <ele>93.7</ele>
        <time>2026-04-22T12:40:12Z</time>
      </trkpt>
      <trkpt lat="59.09106031" lon="29.99209637">
        <ele>92.66</ele>
        <time>2026-04-22T12:40:19Z</time>
      </trkpt>
      <trkpt lat="59.09116056" lon="29.99213352">
        <ele>93.97</ele>
        <time>2026-04-22T12:40:27Z</time>
      </trkpt>
      <trkpt lat="59.09124875" lon="29.99217477">
        <ele>90.19</ele>
        <time>2026-04-22T12:40:33Z</time>
      </trkpt>
      <trkpt lat="59.09134003" lon="29.99222255">
        <ele>91.38</ele>
        <time>2026-04-22T12:40:39Z</time>
      </trkpt>
      <trkpt lat="59.09145794" lon="29.99225047">
        <ele>91.87</ele>
        <time>2026-04-22T12:40:47Z</time>
      </trkpt>
      <trkpt lat="59.09155699" lon="29.992303">
        <ele>91.07</ele>
        <time>2026-04-22T12:40:55Z</time>
      </trkpt>
      <trkpt lat="59.09165152" lon="29.9923288">
        <ele>90.07</ele>
        <time>2026-04-22T12:41:03Z</time>
      </trkpt>
      <trkpt lat="59.09174385" lon="29.9922991">
        <ele>88.86</ele>
        <time>2026-04-22T12:41:11Z</time>
      </trkpt>
      <trkpt lat="59.09182147" lon="29.99218047">
        <ele>89.11</ele>
        <time>2026-04-22T12:42:13Z</time>
      </trkpt>
      <trkpt lat="59.0918029" lon="29.99200822">
        <ele>89</ele>
        <time>2026-04-22T12:42:25Z</time>
      </trkpt>
      <trkpt lat="59.09182154" lon="29.991827">
        <ele>91.89</ele>
        <time>2026-04-22T12:42:35Z</time>
      </trkpt>
      <trkpt lat="59.09184429" lon="29.99201114">
        <ele>94.07</ele>
        <time>2026-04-22T12:43:35Z</time>
      </trkpt>
      <trkpt lat="59.09186287" lon="29.99218909">
        <ele>93.89</ele>
        <time>2026-04-22T12:43:45Z</time>
      </trkpt>
      <trkpt lat="59.09187295" lon="29.99236692">
        <ele>90.73</ele>
        <time>2026-04-22T12:43:56Z</time>
      </trkpt>
      <trkpt lat="59.09189577" lon="29.99254821">
        <ele>88.41</ele>
        <time>2026-04-22T12:44:18Z</time>
      </trkpt>
      <trkpt lat="59.09193002" lon="29.99271558">
        <ele>90.2</ele>
        <time>2026-04-22T12:44:29Z</time>
      </trkpt>
      <trkpt lat="59.09201317" lon="29.99282227">
        <ele>91.7</ele>
        <time>2026-04-22T12:44:39Z</time>
      </trkpt>
      <trkpt lat="59.09193648" lon="29.99291481">
        <ele>90.59</ele>
        <time>2026-04-22T12:44:53Z</time>
      </trkpt>
      <trkpt lat="59.09200407" lon="29.99305237">
        <ele>90.59</ele>
        <time>2026-04-22T12:45:09Z</time>
      </trkpt>
      <trkpt lat="59.09209542" lon="29.99307544">
        <ele>90.3</ele>
        <time>2026-04-22T12:45:21Z</time>
      </trkpt>
      <trkpt lat="59.0921834" lon="29.99303037">
        <ele>90.69</ele>
        <time>2026-04-22T12:45:31Z</time>
      </trkpt>
      <trkpt lat="59.09227511" lon="29.9930293">
        <ele>90.87</ele>
        <time>2026-04-22T12:45:39Z</time>
      </trkpt>
      <trkpt lat="59.092364" lon="29.99299467">
        <ele>90.37</ele>
        <time>2026-04-22T12:45:47Z</time>
      </trkpt>
      <trkpt lat="59.09246076" lon="29.99297172">
        <ele>91.11</ele>
        <time>2026-04-22T12:45:55Z</time>
      </trkpt>
      <trkpt lat="59.0925236" lon="29.99282313">
        <ele>92.5</ele>
        <time>2026-04-22T12:46:05Z</time>
      </trkpt>
      <trkpt lat="59.09256569" lon="29.99266792">
        <ele>92.52</ele>
        <time>2026-04-22T12:46:13Z</time>
      </trkpt>
      <trkpt lat="59.09265477" lon="29.99271661">
        <ele>92.62</ele>
        <time>2026-04-22T12:46:20Z</time>
      </trkpt>
      <trkpt lat="59.09274352" lon="29.9927486">
        <ele>94.32</ele>
        <time>2026-04-22T12:46:29Z</time>
      </trkpt>
      <trkpt lat="59.09284131" lon="29.99274933">
        <ele>93.68</ele>
        <time>2026-04-22T12:46:39Z</time>
      </trkpt>
      <trkpt lat="59.09293399" lon="29.99275228">
        <ele>92.77</ele>
        <time>2026-04-22T12:46:48Z</time>
      </trkpt>
      <trkpt lat="59.09302761" lon="29.99275735">
        <ele>92.88</ele>
        <time>2026-04-22T12:46:56Z</time>
      </trkpt>
      <trkpt lat="59.09311496" lon="29.99282518">
        <ele>91.29</ele>
        <time>2026-04-22T12:47:05Z</time>
      </trkpt>
      <trkpt lat="59.09321382" lon="29.99282221">
        <ele>91.35</ele>
        <time>2026-04-22T12:47:13Z</time>
      </trkpt>
      <trkpt lat="59.09331299" lon="29.99287813">
        <ele>92.19</ele>
        <time>2026-04-22T12:47:22Z</time>
      </trkpt>
      <trkpt lat="59.09333964" lon="29.99270591">
        <ele>90.65</ele>
        <time>2026-04-22T12:47:32Z</time>
      </trkpt>
      <trkpt lat="59.093324" lon="29.99253103">
        <ele>88.2</ele>
        <time>2026-04-22T12:47:43Z</time>
      </trkpt>
      <trkpt lat="59.09328621" lon="29.99235501">
        <ele>88.31</ele>
        <time>2026-04-22T12:47:51Z</time>
      </trkpt>
      <trkpt lat="59.09325146" lon="29.9921916">
        <ele>89.68</ele>
        <time>2026-04-22T12:47:58Z</time>
      </trkpt>
      <trkpt lat="59.09321344" lon="29.99202102">
        <ele>90.6</ele>
        <time>2026-04-22T12:48:05Z</time>
      </trkpt>
      <trkpt lat="59.09319809" lon="29.99183219">
        <ele>87.42</ele>
        <time>2026-04-22T12:48:12Z</time>
      </trkpt>
      <trkpt lat="59.09317139" lon="29.99166271">
        <ele>87.36</ele>
        <time>2026-04-22T12:48:20Z</time>
      </trkpt>
      <trkpt lat="59.09312757" lon="29.99149872">
        <ele>86.92</ele>
        <time>2026-04-22T12:48:28Z</time>
      </trkpt>
      <trkpt lat="59.09309878" lon="29.99131572">
        <ele>87.48</ele>
        <time>2026-04-22T12:48:36Z</time>
      </trkpt>
      <trkpt lat="59.09306726" lon="29.99114936">
        <ele>87.81</ele>
        <time>2026-04-22T12:48:44Z</time>
      </trkpt>
      <trkpt lat="59.09303013" lon="29.99097709">
        <ele>89.82</ele>
        <time>2026-04-22T12:48:52Z</time>
      </trkpt>
      <trkpt lat="59.09299027" lon="29.99079391">
        <ele>90.55</ele>
        <time>2026-04-22T12:49:00Z</time>
      </trkpt>
      <trkpt lat="59.09296075" lon="29.9906208">
        <ele>90.75</ele>
        <time>2026-04-22T12:49:07Z</time>
      </trkpt>
      <trkpt lat="59.09293794" lon="29.99044611">
        <ele>90.24</ele>
        <time>2026-04-22T12:49:13Z</time>
      </trkpt>
      <trkpt lat="59.09291171" lon="29.99027119">
        <ele>90.47</ele>
        <time>2026-04-22T12:49:19Z</time>
      </trkpt>
      <trkpt lat="59.09287437" lon="29.99010183">
        <ele>91.21</ele>
        <time>2026-04-22T12:49:26Z</time>
      </trkpt>
      <trkpt lat="59.09283472" lon="29.98992774">
        <ele>91.69</ele>
        <time>2026-04-22T12:49:34Z</time>
      </trkpt>
      <trkpt lat="59.09281032" lon="29.9897421">
        <ele>89.78</ele>
        <time>2026-04-22T12:49:41Z</time>
      </trkpt>
      <trkpt lat="59.09276005" lon="29.98957349">
        <ele>90.29</ele>
        <time>2026-04-22T12:49:48Z</time>
      </trkpt>
      <trkpt lat="59.0927403" lon="29.98940138">
        <ele>88.9</ele>
        <time>2026-04-22T12:49:54Z</time>
      </trkpt>
      <trkpt lat="59.09272481" lon="29.98922841">
        <ele>88.3</ele>
        <time>2026-04-22T12:50:00Z</time>
      </trkpt>
      <trkpt lat="59.09270348" lon="29.98904098">
        <ele>88.43</ele>
        <time>2026-04-22T12:50:07Z</time>
      </trkpt>
      <trkpt lat="59.09266228" lon="29.98888415">
        <ele>88.6</ele>
        <time>2026-04-22T12:50:14Z</time>
      </trkpt>
      <trkpt lat="59.09261895" lon="29.98872427">
        <ele>88.84</ele>
        <time>2026-04-22T12:50:21Z</time>
      </trkpt>
      <trkpt lat="59.09257836" lon="29.98856042">
        <ele>87.69</ele>
        <time>2026-04-22T12:50:28Z</time>
      </trkpt>
      <trkpt lat="59.09254529" lon="29.98837533">
        <ele>87.12</ele>
        <time>2026-04-22T12:50:43Z</time>
      </trkpt>
      <trkpt lat="59.09252061" lon="29.98819818">
        <ele>87.24</ele>
        <time>2026-04-22T12:50:50Z</time>
      </trkpt>
      <trkpt lat="59.09248788" lon="29.98802008">
        <ele>86.9</ele>
        <time>2026-04-22T12:50:57Z</time>
      </trkpt>
      <trkpt lat="59.09244986" lon="29.98784869">
        <ele>89.5</ele>
        <time>2026-04-22T12:51:05Z</time>
      </trkpt>
      <trkpt lat="59.0923991" lon="29.98769292">
        <ele>89.09</ele>
        <time>2026-04-22T12:51:38Z</time>
      </trkpt>
      <trkpt lat="59.09237055" lon="29.98752622">
        <ele>91.36</ele>
        <time>2026-04-22T12:51:47Z</time>
      </trkpt>
      <trkpt lat="59.09239762" lon="29.98749605">
        <ele>90.71</ele>
        <time>2026-04-22T12:53:48Z</time>
      </trkpt>
      <trkpt lat="59.09243579" lon="29.98767503">
        <ele>92.1</ele>
        <time>2026-04-22T12:55:38Z</time>
      </trkpt>
      <trkpt lat="59.09242561" lon="29.98785264">
        <ele>92.84</ele>
        <time>2026-04-22T12:57:25Z</time>
      </trkpt>
      <trkpt lat="59.0924419" lon="29.98778801">
        <ele>94.21</ele>
        <time>2026-04-22T12:59:26Z</time>
      </trkpt>
      <trkpt lat="59.09243844" lon="29.98783043">
        <ele>92.58</ele>
        <time>2026-04-22T13:01:27Z</time>
      </trkpt>
      <trkpt lat="59.09244535" lon="29.98784306">
        <ele>93.07</ele>
        <time>2026-04-22T13:03:28Z</time>
      </trkpt>
    </trkseg>
  </trk>
</gpx>